<?xml version="1.0" encoding="UTF-8" standalone="no" ?>
<gpx xmlns="http://www.topografix.com/GPX/1/1" xmlns:xsi="http://www.w3.org/2001/XMLSchema-instance" xsi:schemaLocation="http://www.topografix.com/GPX/1/1 http://www.topografix.com/GPX/1/1/gpx.xsd" version="1.1" creator="VisuGPX - https://www.visugpx.com">
  <metadata>
    <name>160615HR3ROBBenjamins.gpx</name>
    <desc><![CDATA[bonne sortie]]></desc>
  </metadata>
  <trk>
    <name><![CDATA[160615HR3ROBBenjamins]]></name>
    <cmt><![CDATA[Guidon]]></cmt>
    <trkseg>
      <trkpt lat="43.41602" lon="6.07047">
        <ele>210.80000305176</ele>
        <time>2016-06-15T12:02:38Z</time>
      </trkpt>
      <trkpt lat="43.41595" lon="6.07044">
        <ele>210.80000305176</ele>
        <time>2016-06-15T12:02:51Z</time>
      </trkpt>
      <trkpt lat="43.41596" lon="6.07037">
        <ele>210.60000610352</ele>
        <time>2016-06-15T12:03:01Z</time>
      </trkpt>
      <trkpt lat="43.41581" lon="6.07037">
        <ele>210.60000610352</ele>
        <time>2016-06-15T12:03:12Z</time>
      </trkpt>
      <trkpt lat="43.4158" lon="6.07038">
        <ele>210.60000610352</ele>
        <time>2016-06-15T12:03:22Z</time>
      </trkpt>
      <trkpt lat="43.41581" lon="6.0704">
        <ele>210.60000610352</ele>
        <time>2016-06-15T12:03:32Z</time>
      </trkpt>
      <trkpt lat="43.4158" lon="6.07039">
        <ele>210.60000610352</ele>
        <time>2016-06-15T12:03:42Z</time>
      </trkpt>
      <trkpt lat="43.41579" lon="6.07039">
        <ele>210.60000610352</ele>
        <time>2016-06-15T12:03:48Z</time>
      </trkpt>
      <trkpt lat="43.41579" lon="6.07036">
        <ele>210.60000610352</ele>
        <time>2016-06-15T12:03:54Z</time>
      </trkpt>
      <trkpt lat="43.41579" lon="6.07036">
        <ele>211</ele>
        <time>2016-06-15T12:04:02Z</time>
      </trkpt>
      <trkpt lat="43.4158" lon="6.07037">
        <ele>211.19999694824</ele>
        <time>2016-06-15T12:04:12Z</time>
      </trkpt>
      <trkpt lat="43.41581" lon="6.07038">
        <ele>211.19999694824</ele>
        <time>2016-06-15T12:04:22Z</time>
      </trkpt>
      <trkpt lat="43.41581" lon="6.0704">
        <ele>211.39999389648</ele>
        <time>2016-06-15T12:04:26Z</time>
      </trkpt>
      <trkpt lat="43.41581" lon="6.0705">
        <ele>211.39999389648</ele>
        <time>2016-06-15T12:04:31Z</time>
      </trkpt>
      <trkpt lat="43.41581" lon="6.07053">
        <ele>211.19999694824</ele>
        <time>2016-06-15T12:04:32Z</time>
      </trkpt>
      <trkpt lat="43.41581" lon="6.07078">
        <ele>211.39999389648</ele>
        <time>2016-06-15T12:04:41Z</time>
      </trkpt>
      <trkpt lat="43.41582" lon="6.0708">
        <ele>211.39999389648</ele>
        <time>2016-06-15T12:04:42Z</time>
      </trkpt>
      <trkpt lat="43.41583" lon="6.07101">
        <ele>211.39999389648</ele>
        <time>2016-06-15T12:04:49Z</time>
      </trkpt>
      <trkpt lat="43.41581" lon="6.07105">
        <ele>211.60000610352</ele>
        <time>2016-06-15T12:04:52Z</time>
      </trkpt>
      <trkpt lat="43.41564" lon="6.07113">
        <ele>211.19999694824</ele>
        <time>2016-06-15T12:04:59Z</time>
      </trkpt>
      <trkpt lat="43.41556" lon="6.07116">
        <ele>211.19999694824</ele>
        <time>2016-06-15T12:05:02Z</time>
      </trkpt>
      <trkpt lat="43.41551" lon="6.07114">
        <ele>211.19999694824</ele>
        <time>2016-06-15T12:05:04Z</time>
      </trkpt>
      <trkpt lat="43.41545" lon="6.07088">
        <ele>211</ele>
        <time>2016-06-15T12:05:12Z</time>
      </trkpt>
      <trkpt lat="43.41541" lon="6.07079">
        <ele>211</ele>
        <time>2016-06-15T12:05:15Z</time>
      </trkpt>
      <trkpt lat="43.41516" lon="6.07081">
        <ele>210.80000305176</ele>
        <time>2016-06-15T12:05:22Z</time>
      </trkpt>
      <trkpt lat="43.41497" lon="6.07083">
        <ele>210.39999389648</ele>
        <time>2016-06-15T12:05:27Z</time>
      </trkpt>
      <trkpt lat="43.4148" lon="6.07076">
        <ele>210</ele>
        <time>2016-06-15T12:05:32Z</time>
      </trkpt>
      <trkpt lat="43.4147" lon="6.07072">
        <ele>209.80000305176</ele>
        <time>2016-06-15T12:05:36Z</time>
      </trkpt>
      <trkpt lat="43.4147" lon="6.07068">
        <ele>209.19999694824</ele>
        <time>2016-06-15T12:05:38Z</time>
      </trkpt>
      <trkpt lat="43.4147" lon="6.07062">
        <ele>208.80000305176</ele>
        <time>2016-06-15T12:05:42Z</time>
      </trkpt>
      <trkpt lat="43.41483" lon="6.07031">
        <ele>209</ele>
        <time>2016-06-15T12:05:52Z</time>
      </trkpt>
      <trkpt lat="43.41488" lon="6.07018">
        <ele>209.19999694824</ele>
        <time>2016-06-15T12:05:55Z</time>
      </trkpt>
      <trkpt lat="43.41494" lon="6.06997">
        <ele>209.60000610352</ele>
        <time>2016-06-15T12:05:59Z</time>
      </trkpt>
      <trkpt lat="43.41494" lon="6.06981">
        <ele>209.80000305176</ele>
        <time>2016-06-15T12:06:02Z</time>
      </trkpt>
      <trkpt lat="43.41487" lon="6.06961">
        <ele>210.39999389648</ele>
        <time>2016-06-15T12:06:06Z</time>
      </trkpt>
      <trkpt lat="43.41472" lon="6.06934">
        <ele>211</ele>
        <time>2016-06-15T12:06:12Z</time>
      </trkpt>
      <trkpt lat="43.4147" lon="6.0693">
        <ele>211</ele>
        <time>2016-06-15T12:06:13Z</time>
      </trkpt>
      <trkpt lat="43.41467" lon="6.06923">
        <ele>211.19999694824</ele>
        <time>2016-06-15T12:06:15Z</time>
      </trkpt>
      <trkpt lat="43.41472" lon="6.06918">
        <ele>211.39999389648</ele>
        <time>2016-06-15T12:06:18Z</time>
      </trkpt>
      <trkpt lat="43.41474" lon="6.06915">
        <ele>211.60000610352</ele>
        <time>2016-06-15T12:06:19Z</time>
      </trkpt>
      <trkpt lat="43.41477" lon="6.06905">
        <ele>211.60000610352</ele>
        <time>2016-06-15T12:06:22Z</time>
      </trkpt>
      <trkpt lat="43.41478" lon="6.06896">
        <ele>211.39999389648</ele>
        <time>2016-06-15T12:06:32Z</time>
      </trkpt>
      <trkpt lat="43.41479" lon="6.06831">
        <ele>211.80000305176</ele>
        <time>2016-06-15T12:06:49Z</time>
      </trkpt>
      <trkpt lat="43.41485" lon="6.06814">
        <ele>211.80000305176</ele>
        <time>2016-06-15T12:06:52Z</time>
      </trkpt>
      <trkpt lat="43.41492" lon="6.06789">
        <ele>211.60000610352</ele>
        <time>2016-06-15T12:06:56Z</time>
      </trkpt>
      <trkpt lat="43.41496" lon="6.0677">
        <ele>212.19999694824</ele>
        <time>2016-06-15T12:06:59Z</time>
      </trkpt>
      <trkpt lat="43.41497" lon="6.06756">
        <ele>212.39999389648</ele>
        <time>2016-06-15T12:07:01Z</time>
      </trkpt>
      <trkpt lat="43.41499" lon="6.0675">
        <ele>212.60000610352</ele>
        <time>2016-06-15T12:07:02Z</time>
      </trkpt>
      <trkpt lat="43.415" lon="6.06707">
        <ele>213.60000610352</ele>
        <time>2016-06-15T12:07:09Z</time>
      </trkpt>
      <trkpt lat="43.415" lon="6.06689">
        <ele>213.80000305176</ele>
        <time>2016-06-15T12:07:12Z</time>
      </trkpt>
      <trkpt lat="43.41509" lon="6.06627">
        <ele>214.80000305176</ele>
        <time>2016-06-15T12:07:22Z</time>
      </trkpt>
      <trkpt lat="43.41518" lon="6.0657">
        <ele>215.19999694824</ele>
        <time>2016-06-15T12:07:31Z</time>
      </trkpt>
      <trkpt lat="43.41519" lon="6.06564">
        <ele>215.19999694824</ele>
        <time>2016-06-15T12:07:32Z</time>
      </trkpt>
      <trkpt lat="43.41526" lon="6.06519">
        <ele>215.80000305176</ele>
        <time>2016-06-15T12:07:40Z</time>
      </trkpt>
      <trkpt lat="43.41531" lon="6.06503">
        <ele>216</ele>
        <time>2016-06-15T12:07:43Z</time>
      </trkpt>
      <trkpt lat="43.41547" lon="6.06468">
        <ele>216.80000305176</ele>
        <time>2016-06-15T12:07:51Z</time>
      </trkpt>
      <trkpt lat="43.41547" lon="6.06445">
        <ele>217</ele>
        <time>2016-06-15T12:07:55Z</time>
      </trkpt>
      <trkpt lat="43.4155" lon="6.06422">
        <ele>217.60000610352</ele>
        <time>2016-06-15T12:07:59Z</time>
      </trkpt>
      <trkpt lat="43.41552" lon="6.06411">
        <ele>217.80000305176</ele>
        <time>2016-06-15T12:08:01Z</time>
      </trkpt>
      <trkpt lat="43.41557" lon="6.06385">
        <ele>219</ele>
        <time>2016-06-15T12:08:06Z</time>
      </trkpt>
      <trkpt lat="43.4156" lon="6.06365">
        <ele>220</ele>
        <time>2016-06-15T12:08:10Z</time>
      </trkpt>
      <trkpt lat="43.41563" lon="6.06356">
        <ele>220.60000610352</ele>
        <time>2016-06-15T12:08:12Z</time>
      </trkpt>
      <trkpt lat="43.41569" lon="6.06343">
        <ele>221.19999694824</ele>
        <time>2016-06-15T12:08:15Z</time>
      </trkpt>
      <trkpt lat="43.41578" lon="6.06329">
        <ele>222.39999389648</ele>
        <time>2016-06-15T12:08:19Z</time>
      </trkpt>
      <trkpt lat="43.41588" lon="6.06311">
        <ele>223.60000610352</ele>
        <time>2016-06-15T12:08:24Z</time>
      </trkpt>
      <trkpt lat="43.41589" lon="6.06285">
        <ele>224.39999389648</ele>
        <time>2016-06-15T12:08:30Z</time>
      </trkpt>
      <trkpt lat="43.41589" lon="6.06277">
        <ele>224.60000610352</ele>
        <time>2016-06-15T12:08:32Z</time>
      </trkpt>
      <trkpt lat="43.41589" lon="6.0627">
        <ele>224.80000305176</ele>
        <time>2016-06-15T12:08:34Z</time>
      </trkpt>
      <trkpt lat="43.41599" lon="6.06259">
        <ele>225.39999389648</ele>
        <time>2016-06-15T12:08:41Z</time>
      </trkpt>
      <trkpt lat="43.41601" lon="6.06258">
        <ele>225.39999389648</ele>
        <time>2016-06-15T12:08:42Z</time>
      </trkpt>
      <trkpt lat="43.41604" lon="6.06257">
        <ele>225.60000610352</ele>
        <time>2016-06-15T12:08:48Z</time>
      </trkpt>
      <trkpt lat="43.41604" lon="6.06257">
        <ele>225.60000610352</ele>
        <time>2016-06-15T12:08:50Z</time>
      </trkpt>
      <trkpt lat="43.41605" lon="6.06257">
        <ele>225.60000610352</ele>
        <time>2016-06-15T12:08:52Z</time>
      </trkpt>
      <trkpt lat="43.41608" lon="6.06235">
        <ele>226</ele>
        <time>2016-06-15T12:09:02Z</time>
      </trkpt>
      <trkpt lat="43.41611" lon="6.06212">
        <ele>226</ele>
        <time>2016-06-15T12:09:09Z</time>
      </trkpt>
      <trkpt lat="43.41608" lon="6.06201">
        <ele>226</ele>
        <time>2016-06-15T12:09:12Z</time>
      </trkpt>
      <trkpt lat="43.41603" lon="6.06182">
        <ele>225.80000305176</ele>
        <time>2016-06-15T12:09:16Z</time>
      </trkpt>
      <trkpt lat="43.41606" lon="6.0617">
        <ele>225.60000610352</ele>
        <time>2016-06-15T12:09:18Z</time>
      </trkpt>
      <trkpt lat="43.41611" lon="6.06158">
        <ele>225.19999694824</ele>
        <time>2016-06-15T12:09:20Z</time>
      </trkpt>
      <trkpt lat="43.41619" lon="6.06149">
        <ele>225</ele>
        <time>2016-06-15T12:09:22Z</time>
      </trkpt>
      <trkpt lat="43.41632" lon="6.06125">
        <ele>224.60000610352</ele>
        <time>2016-06-15T12:09:27Z</time>
      </trkpt>
      <trkpt lat="43.41629" lon="6.06114">
        <ele>224.80000305176</ele>
        <time>2016-06-15T12:09:29Z</time>
      </trkpt>
      <trkpt lat="43.41622" lon="6.06094">
        <ele>224.80000305176</ele>
        <time>2016-06-15T12:09:32Z</time>
      </trkpt>
      <trkpt lat="43.4162" lon="6.0608">
        <ele>224.80000305176</ele>
        <time>2016-06-15T12:09:34Z</time>
      </trkpt>
      <trkpt lat="43.4162" lon="6.0606">
        <ele>224.80000305176</ele>
        <time>2016-06-15T12:09:37Z</time>
      </trkpt>
      <trkpt lat="43.41621" lon="6.0604">
        <ele>225.19999694824</ele>
        <time>2016-06-15T12:09:40Z</time>
      </trkpt>
      <trkpt lat="43.41623" lon="6.06028">
        <ele>225.39999389648</ele>
        <time>2016-06-15T12:09:42Z</time>
      </trkpt>
      <trkpt lat="43.41629" lon="6.05993">
        <ele>226.39999389648</ele>
        <time>2016-06-15T12:09:48Z</time>
      </trkpt>
      <trkpt lat="43.41631" lon="6.05982">
        <ele>226.80000305176</ele>
        <time>2016-06-15T12:09:50Z</time>
      </trkpt>
      <trkpt lat="43.41633" lon="6.05971">
        <ele>227.19999694824</ele>
        <time>2016-06-15T12:09:52Z</time>
      </trkpt>
      <trkpt lat="43.41636" lon="6.05948">
        <ele>227.80000305176</ele>
        <time>2016-06-15T12:09:56Z</time>
      </trkpt>
      <trkpt lat="43.41645" lon="6.05854">
        <ele>229.60000610352</ele>
        <time>2016-06-15T12:10:12Z</time>
      </trkpt>
      <trkpt lat="43.41648" lon="6.05809">
        <ele>230</ele>
        <time>2016-06-15T12:10:20Z</time>
      </trkpt>
      <trkpt lat="43.41649" lon="6.05797">
        <ele>230.19999694824</ele>
        <time>2016-06-15T12:10:22Z</time>
      </trkpt>
      <trkpt lat="43.41646" lon="6.0567">
        <ele>230</ele>
        <time>2016-06-15T12:10:41Z</time>
      </trkpt>
      <trkpt lat="43.41643" lon="6.05641">
        <ele>229.80000305176</ele>
        <time>2016-06-15T12:10:45Z</time>
      </trkpt>
      <trkpt lat="43.4164" lon="6.05619">
        <ele>229.19999694824</ele>
        <time>2016-06-15T12:10:48Z</time>
      </trkpt>
      <trkpt lat="43.41636" lon="6.05592">
        <ele>228.80000305176</ele>
        <time>2016-06-15T12:10:52Z</time>
      </trkpt>
      <trkpt lat="43.41621" lon="6.05523">
        <ele>228.39999389648</ele>
        <time>2016-06-15T12:11:02Z</time>
      </trkpt>
      <trkpt lat="43.41602" lon="6.05456">
        <ele>228.19999694824</ele>
        <time>2016-06-15T12:11:12Z</time>
      </trkpt>
      <trkpt lat="43.41581" lon="6.05388">
        <ele>228</ele>
        <time>2016-06-15T12:11:22Z</time>
      </trkpt>
      <trkpt lat="43.41576" lon="6.05374">
        <ele>227.80000305176</ele>
        <time>2016-06-15T12:11:24Z</time>
      </trkpt>
      <trkpt lat="43.4156" lon="6.05335">
        <ele>227</ele>
        <time>2016-06-15T12:11:30Z</time>
      </trkpt>
      <trkpt lat="43.41556" lon="6.05322">
        <ele>227</ele>
        <time>2016-06-15T12:11:32Z</time>
      </trkpt>
      <trkpt lat="43.41551" lon="6.05302">
        <ele>226.80000305176</ele>
        <time>2016-06-15T12:11:35Z</time>
      </trkpt>
      <trkpt lat="43.41541" lon="6.0527">
        <ele>226.39999389648</ele>
        <time>2016-06-15T12:11:40Z</time>
      </trkpt>
      <trkpt lat="43.41537" lon="6.05257">
        <ele>226.19999694824</ele>
        <time>2016-06-15T12:11:42Z</time>
      </trkpt>
      <trkpt lat="43.41527" lon="6.05236">
        <ele>225.80000305176</ele>
        <time>2016-06-15T12:11:45Z</time>
      </trkpt>
      <trkpt lat="43.41506" lon="6.05189">
        <ele>224.80000305176</ele>
        <time>2016-06-15T12:11:52Z</time>
      </trkpt>
      <trkpt lat="43.41503" lon="6.05183">
        <ele>224.80000305176</ele>
        <time>2016-06-15T12:11:53Z</time>
      </trkpt>
      <trkpt lat="43.41501" lon="6.05177">
        <ele>224.39999389648</ele>
        <time>2016-06-15T12:11:54Z</time>
      </trkpt>
      <trkpt lat="43.415" lon="6.05165">
        <ele>224</ele>
        <time>2016-06-15T12:11:56Z</time>
      </trkpt>
      <trkpt lat="43.41504" lon="6.05158">
        <ele>223.80000305176</ele>
        <time>2016-06-15T12:11:58Z</time>
      </trkpt>
      <trkpt lat="43.41515" lon="6.05155">
        <ele>224</ele>
        <time>2016-06-15T12:12:01Z</time>
      </trkpt>
      <trkpt lat="43.41519" lon="6.05154">
        <ele>224</ele>
        <time>2016-06-15T12:12:02Z</time>
      </trkpt>
      <trkpt lat="43.41528" lon="6.05154">
        <ele>224.39999389648</ele>
        <time>2016-06-15T12:12:04Z</time>
      </trkpt>
      <trkpt lat="43.41541" lon="6.05153">
        <ele>224.80000305176</ele>
        <time>2016-06-15T12:12:07Z</time>
      </trkpt>
      <trkpt lat="43.4156" lon="6.05154">
        <ele>225.60000610352</ele>
        <time>2016-06-15T12:12:12Z</time>
      </trkpt>
      <trkpt lat="43.41563" lon="6.05155">
        <ele>226</ele>
        <time>2016-06-15T12:12:13Z</time>
      </trkpt>
      <trkpt lat="43.41573" lon="6.05156">
        <ele>227</ele>
        <time>2016-06-15T12:12:16Z</time>
      </trkpt>
      <trkpt lat="43.41584" lon="6.05159">
        <ele>227.60000610352</ele>
        <time>2016-06-15T12:12:19Z</time>
      </trkpt>
      <trkpt lat="43.41594" lon="6.05161">
        <ele>228.19999694824</ele>
        <time>2016-06-15T12:12:22Z</time>
      </trkpt>
      <trkpt lat="43.41607" lon="6.05162">
        <ele>229.19999694824</ele>
        <time>2016-06-15T12:12:26Z</time>
      </trkpt>
      <trkpt lat="43.41626" lon="6.05164">
        <ele>230.39999389648</ele>
        <time>2016-06-15T12:12:32Z</time>
      </trkpt>
      <trkpt lat="43.41663" lon="6.05165">
        <ele>232.39999389648</ele>
        <time>2016-06-15T12:12:44Z</time>
      </trkpt>
      <trkpt lat="43.41674" lon="6.05159">
        <ele>233.60000610352</ele>
        <time>2016-06-15T12:12:48Z</time>
      </trkpt>
      <trkpt lat="43.41686" lon="6.05142">
        <ele>234.60000610352</ele>
        <time>2016-06-15T12:12:54Z</time>
      </trkpt>
      <trkpt lat="43.41701" lon="6.05127">
        <ele>235.80000305176</ele>
        <time>2016-06-15T12:13:01Z</time>
      </trkpt>
      <trkpt lat="43.41703" lon="6.05125">
        <ele>235.80000305176</ele>
        <time>2016-06-15T12:13:02Z</time>
      </trkpt>
      <trkpt lat="43.41722" lon="6.05111">
        <ele>236.80000305176</ele>
        <time>2016-06-15T12:13:10Z</time>
      </trkpt>
      <trkpt lat="43.41727" lon="6.05109">
        <ele>237</ele>
        <time>2016-06-15T12:13:12Z</time>
      </trkpt>
      <trkpt lat="43.41737" lon="6.05108">
        <ele>237.80000305176</ele>
        <time>2016-06-15T12:13:16Z</time>
      </trkpt>
      <trkpt lat="43.41739" lon="6.05109">
        <ele>238</ele>
        <time>2016-06-15T12:13:17Z</time>
      </trkpt>
      <trkpt lat="43.4174" lon="6.05125">
        <ele>238.80000305176</ele>
        <time>2016-06-15T12:13:22Z</time>
      </trkpt>
      <trkpt lat="43.41741" lon="6.05165">
        <ele>239.80000305176</ele>
        <time>2016-06-15T12:13:32Z</time>
      </trkpt>
      <trkpt lat="43.41744" lon="6.05172">
        <ele>240</ele>
        <time>2016-06-15T12:13:34Z</time>
      </trkpt>
      <trkpt lat="43.41764" lon="6.0518">
        <ele>240.60000610352</ele>
        <time>2016-06-15T12:13:42Z</time>
      </trkpt>
      <trkpt lat="43.41771" lon="6.05181">
        <ele>241</ele>
        <time>2016-06-15T12:13:45Z</time>
      </trkpt>
      <trkpt lat="43.41793" lon="6.05181">
        <ele>242</ele>
        <time>2016-06-15T12:13:53Z</time>
      </trkpt>
      <trkpt lat="43.41816" lon="6.05183">
        <ele>243.19999694824</ele>
        <time>2016-06-15T12:14:02Z</time>
      </trkpt>
      <trkpt lat="43.4184" lon="6.05185">
        <ele>244.19999694824</ele>
        <time>2016-06-15T12:14:11Z</time>
      </trkpt>
      <trkpt lat="43.41842" lon="6.05185">
        <ele>244.39999389648</ele>
        <time>2016-06-15T12:14:12Z</time>
      </trkpt>
      <trkpt lat="43.41856" lon="6.05183">
        <ele>245.39999389648</ele>
        <time>2016-06-15T12:14:17Z</time>
      </trkpt>
      <trkpt lat="43.41869" lon="6.0518">
        <ele>245.80000305176</ele>
        <time>2016-06-15T12:14:22Z</time>
      </trkpt>
      <trkpt lat="43.41877" lon="6.05177">
        <ele>246.39999389648</ele>
        <time>2016-06-15T12:14:25Z</time>
      </trkpt>
      <trkpt lat="43.41886" lon="6.05174">
        <ele>247.19999694824</ele>
        <time>2016-06-15T12:14:31Z</time>
      </trkpt>
      <trkpt lat="43.41887" lon="6.05172">
        <ele>247.60000610352</ele>
        <time>2016-06-15T12:14:34Z</time>
      </trkpt>
      <trkpt lat="43.41888" lon="6.05164">
        <ele>248</ele>
        <time>2016-06-15T12:14:38Z</time>
      </trkpt>
      <trkpt lat="43.41894" lon="6.05158">
        <ele>248.19999694824</ele>
        <time>2016-06-15T12:14:41Z</time>
      </trkpt>
      <trkpt lat="43.41901" lon="6.05163">
        <ele>248.60000610352</ele>
        <time>2016-06-15T12:14:42Z</time>
      </trkpt>
      <trkpt lat="43.41905" lon="6.05162">
        <ele>248.80000305176</ele>
        <time>2016-06-15T12:14:43Z</time>
      </trkpt>
      <trkpt lat="43.41931" lon="6.05155">
        <ele>249.80000305176</ele>
        <time>2016-06-15T12:14:50Z</time>
      </trkpt>
      <trkpt lat="43.41936" lon="6.05152">
        <ele>250.19999694824</ele>
        <time>2016-06-15T12:14:52Z</time>
      </trkpt>
      <trkpt lat="43.41947" lon="6.05146">
        <ele>251</ele>
        <time>2016-06-15T12:14:56Z</time>
      </trkpt>
      <trkpt lat="43.41957" lon="6.05141">
        <ele>251.60000610352</ele>
        <time>2016-06-15T12:15:01Z</time>
      </trkpt>
      <trkpt lat="43.4196" lon="6.0514">
        <ele>251.80000305176</ele>
        <time>2016-06-15T12:15:02Z</time>
      </trkpt>
      <trkpt lat="43.41965" lon="6.05137">
        <ele>252</ele>
        <time>2016-06-15T12:15:04Z</time>
      </trkpt>
      <trkpt lat="43.41988" lon="6.05132">
        <ele>253.19999694824</ele>
        <time>2016-06-15T12:15:12Z</time>
      </trkpt>
      <trkpt lat="43.4202" lon="6.05122">
        <ele>254.19999694824</ele>
        <time>2016-06-15T12:15:23Z</time>
      </trkpt>
      <trkpt lat="43.42046" lon="6.05117">
        <ele>254.80000305176</ele>
        <time>2016-06-15T12:15:32Z</time>
      </trkpt>
      <trkpt lat="43.42061" lon="6.05114">
        <ele>255.19999694824</ele>
        <time>2016-06-15T12:15:38Z</time>
      </trkpt>
      <trkpt lat="43.42073" lon="6.05113">
        <ele>255.80000305176</ele>
        <time>2016-06-15T12:15:42Z</time>
      </trkpt>
      <trkpt lat="43.42081" lon="6.05112">
        <ele>256.20001220703</ele>
        <time>2016-06-15T12:15:45Z</time>
      </trkpt>
      <trkpt lat="43.42099" lon="6.05113">
        <ele>257</ele>
        <time>2016-06-15T12:15:52Z</time>
      </trkpt>
      <trkpt lat="43.42113" lon="6.05113">
        <ele>257.39999389648</ele>
        <time>2016-06-15T12:15:57Z</time>
      </trkpt>
      <trkpt lat="43.42123" lon="6.05115">
        <ele>258.20001220703</ele>
        <time>2016-06-15T12:16:02Z</time>
      </trkpt>
      <trkpt lat="43.42123" lon="6.05116">
        <ele>258.39999389648</ele>
        <time>2016-06-15T12:16:03Z</time>
      </trkpt>
      <trkpt lat="43.42127" lon="6.05119">
        <ele>258.79998779297</ele>
        <time>2016-06-15T12:16:07Z</time>
      </trkpt>
      <trkpt lat="43.42129" lon="6.0512">
        <ele>259</ele>
        <time>2016-06-15T12:16:10Z</time>
      </trkpt>
      <trkpt lat="43.42131" lon="6.05122">
        <ele>259.20001220703</ele>
        <time>2016-06-15T12:16:12Z</time>
      </trkpt>
      <trkpt lat="43.42134" lon="6.05127">
        <ele>259.20001220703</ele>
        <time>2016-06-15T12:16:17Z</time>
      </trkpt>
      <trkpt lat="43.42136" lon="6.05128">
        <ele>259.39999389648</ele>
        <time>2016-06-15T12:16:19Z</time>
      </trkpt>
      <trkpt lat="43.4214" lon="6.05134">
        <ele>259.79998779297</ele>
        <time>2016-06-15T12:16:23Z</time>
      </trkpt>
      <trkpt lat="43.42156" lon="6.05156">
        <ele>260.20001220703</ele>
        <time>2016-06-15T12:16:33Z</time>
      </trkpt>
      <trkpt lat="43.4217" lon="6.05165">
        <ele>260.39999389648</ele>
        <time>2016-06-15T12:16:39Z</time>
      </trkpt>
      <trkpt lat="43.42177" lon="6.0517">
        <ele>260.39999389648</ele>
        <time>2016-06-15T12:16:43Z</time>
      </trkpt>
      <trkpt lat="43.42183" lon="6.05172">
        <ele>260.60000610352</ele>
        <time>2016-06-15T12:16:48Z</time>
      </trkpt>
      <trkpt lat="43.42184" lon="6.05173">
        <ele>260.60000610352</ele>
        <time>2016-06-15T12:16:52Z</time>
      </trkpt>
      <trkpt lat="43.42184" lon="6.05173">
        <ele>260.60000610352</ele>
        <time>2016-06-15T12:16:53Z</time>
      </trkpt>
      <trkpt lat="43.42184" lon="6.05175">
        <ele>260.60000610352</ele>
        <time>2016-06-15T12:17:03Z</time>
      </trkpt>
      <trkpt lat="43.42181" lon="6.05177">
        <ele>260.60000610352</ele>
        <time>2016-06-15T12:17:07Z</time>
      </trkpt>
      <trkpt lat="43.42184" lon="6.05184">
        <ele>260.60000610352</ele>
        <time>2016-06-15T12:17:13Z</time>
      </trkpt>
      <trkpt lat="43.42201" lon="6.05192">
        <ele>261.39999389648</ele>
        <time>2016-06-15T12:17:20Z</time>
      </trkpt>
      <trkpt lat="43.42204" lon="6.05193">
        <ele>261.39999389648</ele>
        <time>2016-06-15T12:17:21Z</time>
      </trkpt>
      <trkpt lat="43.42208" lon="6.05195">
        <ele>261.60000610352</ele>
        <time>2016-06-15T12:17:23Z</time>
      </trkpt>
      <trkpt lat="43.42218" lon="6.05201">
        <ele>262.20001220703</ele>
        <time>2016-06-15T12:17:27Z</time>
      </trkpt>
      <trkpt lat="43.42224" lon="6.05208">
        <ele>262.60000610352</ele>
        <time>2016-06-15T12:17:30Z</time>
      </trkpt>
      <trkpt lat="43.42231" lon="6.05215">
        <ele>263.20001220703</ele>
        <time>2016-06-15T12:17:33Z</time>
      </trkpt>
      <trkpt lat="43.42237" lon="6.05218">
        <ele>263.60000610352</ele>
        <time>2016-06-15T12:17:35Z</time>
      </trkpt>
      <trkpt lat="43.42257" lon="6.05217">
        <ele>264.60000610352</ele>
        <time>2016-06-15T12:17:41Z</time>
      </trkpt>
      <trkpt lat="43.42268" lon="6.05218">
        <ele>264.79998779297</ele>
        <time>2016-06-15T12:17:44Z</time>
      </trkpt>
      <trkpt lat="43.42286" lon="6.05219">
        <ele>265.20001220703</ele>
        <time>2016-06-15T12:17:49Z</time>
      </trkpt>
      <trkpt lat="43.42308" lon="6.05226">
        <ele>265.79998779297</ele>
        <time>2016-06-15T12:17:57Z</time>
      </trkpt>
      <trkpt lat="43.42321" lon="6.05228">
        <ele>266.79998779297</ele>
        <time>2016-06-15T12:18:02Z</time>
      </trkpt>
      <trkpt lat="43.42324" lon="6.05228">
        <ele>267</ele>
        <time>2016-06-15T12:18:03Z</time>
      </trkpt>
      <trkpt lat="43.42332" lon="6.05231">
        <ele>268</ele>
        <time>2016-06-15T12:18:07Z</time>
      </trkpt>
      <trkpt lat="43.42333" lon="6.05232">
        <ele>268.20001220703</ele>
        <time>2016-06-15T12:18:08Z</time>
      </trkpt>
      <trkpt lat="43.42341" lon="6.05234">
        <ele>269.20001220703</ele>
        <time>2016-06-15T12:18:12Z</time>
      </trkpt>
      <trkpt lat="43.42342" lon="6.05235">
        <ele>269.39999389648</ele>
        <time>2016-06-15T12:18:13Z</time>
      </trkpt>
      <trkpt lat="43.42357" lon="6.05234">
        <ele>270.39999389648</ele>
        <time>2016-06-15T12:18:21Z</time>
      </trkpt>
      <trkpt lat="43.42361" lon="6.05233">
        <ele>270.60000610352</ele>
        <time>2016-06-15T12:18:23Z</time>
      </trkpt>
      <trkpt lat="43.42377" lon="6.05229">
        <ele>271.60000610352</ele>
        <time>2016-06-15T12:18:31Z</time>
      </trkpt>
      <trkpt lat="43.42381" lon="6.05229">
        <ele>271.79998779297</ele>
        <time>2016-06-15T12:18:33Z</time>
      </trkpt>
      <trkpt lat="43.42395" lon="6.05226">
        <ele>272.60000610352</ele>
        <time>2016-06-15T12:18:40Z</time>
      </trkpt>
      <trkpt lat="43.42401" lon="6.05224">
        <ele>272.60000610352</ele>
        <time>2016-06-15T12:18:43Z</time>
      </trkpt>
      <trkpt lat="43.42423" lon="6.05224">
        <ele>273.20001220703</ele>
        <time>2016-06-15T12:18:53Z</time>
      </trkpt>
      <trkpt lat="43.42434" lon="6.05223">
        <ele>273.60000610352</ele>
        <time>2016-06-15T12:18:58Z</time>
      </trkpt>
      <trkpt lat="43.42444" lon="6.05221">
        <ele>273.79998779297</ele>
        <time>2016-06-15T12:19:03Z</time>
      </trkpt>
      <trkpt lat="43.42455" lon="6.05218">
        <ele>274.39999389648</ele>
        <time>2016-06-15T12:19:08Z</time>
      </trkpt>
      <trkpt lat="43.42456" lon="6.05218">
        <ele>274.60000610352</ele>
        <time>2016-06-15T12:19:09Z</time>
      </trkpt>
      <trkpt lat="43.42459" lon="6.05216">
        <ele>275.39999389648</ele>
        <time>2016-06-15T12:19:11Z</time>
      </trkpt>
      <trkpt lat="43.42461" lon="6.05214">
        <ele>276</ele>
        <time>2016-06-15T12:19:13Z</time>
      </trkpt>
      <trkpt lat="43.42463" lon="6.05214">
        <ele>276.60000610352</ele>
        <time>2016-06-15T12:19:15Z</time>
      </trkpt>
      <trkpt lat="43.42463" lon="6.05215">
        <ele>277</ele>
        <time>2016-06-15T12:19:17Z</time>
      </trkpt>
      <trkpt lat="43.42465" lon="6.05216">
        <ele>277.39999389648</ele>
        <time>2016-06-15T12:19:23Z</time>
      </trkpt>
      <trkpt lat="43.42466" lon="6.05217">
        <ele>277.60000610352</ele>
        <time>2016-06-15T12:19:26Z</time>
      </trkpt>
      <trkpt lat="43.42466" lon="6.05218">
        <ele>277.39999389648</ele>
        <time>2016-06-15T12:19:29Z</time>
      </trkpt>
      <trkpt lat="43.42467" lon="6.05217">
        <ele>277.39999389648</ele>
        <time>2016-06-15T12:19:33Z</time>
      </trkpt>
      <trkpt lat="43.42467" lon="6.05217">
        <ele>277.60000610352</ele>
        <time>2016-06-15T12:19:37Z</time>
      </trkpt>
      <trkpt lat="43.42467" lon="6.05217">
        <ele>277.79998779297</ele>
        <time>2016-06-15T12:19:41Z</time>
      </trkpt>
      <trkpt lat="43.42467" lon="6.05217">
        <ele>277.60000610352</ele>
        <time>2016-06-15T12:19:43Z</time>
      </trkpt>
      <trkpt lat="43.42469" lon="6.05217">
        <ele>277.60000610352</ele>
        <time>2016-06-15T12:19:49Z</time>
      </trkpt>
      <trkpt lat="43.42469" lon="6.05217">
        <ele>277.60000610352</ele>
        <time>2016-06-15T12:19:51Z</time>
      </trkpt>
      <trkpt lat="43.4247" lon="6.05217">
        <ele>277.79998779297</ele>
        <time>2016-06-15T12:19:53Z</time>
      </trkpt>
      <trkpt lat="43.42473" lon="6.05217">
        <ele>277.60000610352</ele>
        <time>2016-06-15T12:19:57Z</time>
      </trkpt>
      <trkpt lat="43.42487" lon="6.05219">
        <ele>277.60000610352</ele>
        <time>2016-06-15T12:20:03Z</time>
      </trkpt>
      <trkpt lat="43.425" lon="6.05223">
        <ele>277.20001220703</ele>
        <time>2016-06-15T12:20:08Z</time>
      </trkpt>
      <trkpt lat="43.4251" lon="6.05225">
        <ele>277.20001220703</ele>
        <time>2016-06-15T12:20:13Z</time>
      </trkpt>
      <trkpt lat="43.42531" lon="6.05224">
        <ele>277.60000610352</ele>
        <time>2016-06-15T12:20:23Z</time>
      </trkpt>
      <trkpt lat="43.42542" lon="6.05222">
        <ele>278</ele>
        <time>2016-06-15T12:20:28Z</time>
      </trkpt>
      <trkpt lat="43.42546" lon="6.0522">
        <ele>278.60000610352</ele>
        <time>2016-06-15T12:20:30Z</time>
      </trkpt>
      <trkpt lat="43.42551" lon="6.05217">
        <ele>279.39999389648</ele>
        <time>2016-06-15T12:20:33Z</time>
      </trkpt>
      <trkpt lat="43.42558" lon="6.05217">
        <ele>280</ele>
        <time>2016-06-15T12:20:36Z</time>
      </trkpt>
      <trkpt lat="43.42566" lon="6.05219">
        <ele>280.20001220703</ele>
        <time>2016-06-15T12:20:39Z</time>
      </trkpt>
      <trkpt lat="43.42576" lon="6.05222">
        <ele>280.20001220703</ele>
        <time>2016-06-15T12:20:43Z</time>
      </trkpt>
      <trkpt lat="43.42593" lon="6.0524">
        <ele>280.20001220703</ele>
        <time>2016-06-15T12:20:53Z</time>
      </trkpt>
      <trkpt lat="43.42601" lon="6.05247">
        <ele>280.20001220703</ele>
        <time>2016-06-15T12:20:57Z</time>
      </trkpt>
      <trkpt lat="43.42617" lon="6.05259">
        <ele>281.20001220703</ele>
        <time>2016-06-15T12:21:03Z</time>
      </trkpt>
      <trkpt lat="43.42619" lon="6.0526">
        <ele>281.39999389648</ele>
        <time>2016-06-15T12:21:04Z</time>
      </trkpt>
      <trkpt lat="43.42627" lon="6.05264">
        <ele>282</ele>
        <time>2016-06-15T12:21:08Z</time>
      </trkpt>
      <trkpt lat="43.42633" lon="6.05267">
        <ele>282.20001220703</ele>
        <time>2016-06-15T12:21:12Z</time>
      </trkpt>
      <trkpt lat="43.42634" lon="6.05268">
        <ele>282.20001220703</ele>
        <time>2016-06-15T12:21:13Z</time>
      </trkpt>
      <trkpt lat="43.42635" lon="6.05269">
        <ele>282.39999389648</ele>
        <time>2016-06-15T12:21:18Z</time>
      </trkpt>
      <trkpt lat="43.42635" lon="6.0527">
        <ele>282.39999389648</ele>
        <time>2016-06-15T12:21:22Z</time>
      </trkpt>
      <trkpt lat="43.42635" lon="6.0527">
        <ele>282.39999389648</ele>
        <time>2016-06-15T12:21:23Z</time>
      </trkpt>
      <trkpt lat="43.42632" lon="6.0527">
        <ele>282.39999389648</ele>
        <time>2016-06-15T12:21:32Z</time>
      </trkpt>
      <trkpt lat="43.42632" lon="6.0527">
        <ele>282.39999389648</ele>
        <time>2016-06-15T12:21:33Z</time>
      </trkpt>
      <trkpt lat="43.42633" lon="6.05269">
        <ele>282.60000610352</ele>
        <time>2016-06-15T12:21:38Z</time>
      </trkpt>
      <trkpt lat="43.42633" lon="6.05269">
        <ele>282.39999389648</ele>
        <time>2016-06-15T12:21:48Z</time>
      </trkpt>
      <trkpt lat="43.42633" lon="6.05269">
        <ele>282.39999389648</ele>
        <time>2016-06-15T12:21:53Z</time>
      </trkpt>
      <trkpt lat="43.42633" lon="6.05269">
        <ele>282.39999389648</ele>
        <time>2016-06-15T12:22:30Z</time>
      </trkpt>
      <trkpt lat="43.42633" lon="6.05269">
        <ele>282.39999389648</ele>
        <time>2016-06-15T12:22:33Z</time>
      </trkpt>
      <trkpt lat="43.42635" lon="6.05267">
        <ele>282.39999389648</ele>
        <time>2016-06-15T12:22:38Z</time>
      </trkpt>
      <trkpt lat="43.42636" lon="6.05266">
        <ele>282.39999389648</ele>
        <time>2016-06-15T12:22:43Z</time>
      </trkpt>
      <trkpt lat="43.42645" lon="6.05262">
        <ele>282.79998779297</ele>
        <time>2016-06-15T12:22:51Z</time>
      </trkpt>
      <trkpt lat="43.42649" lon="6.05257">
        <ele>283</ele>
        <time>2016-06-15T12:22:53Z</time>
      </trkpt>
      <trkpt lat="43.42653" lon="6.05252">
        <ele>283.20001220703</ele>
        <time>2016-06-15T12:22:55Z</time>
      </trkpt>
      <trkpt lat="43.4266" lon="6.05246">
        <ele>283.39999389648</ele>
        <time>2016-06-15T12:22:58Z</time>
      </trkpt>
      <trkpt lat="43.42668" lon="6.05241">
        <ele>283.79998779297</ele>
        <time>2016-06-15T12:23:02Z</time>
      </trkpt>
      <trkpt lat="43.4267" lon="6.05239">
        <ele>283.79998779297</ele>
        <time>2016-06-15T12:23:03Z</time>
      </trkpt>
      <trkpt lat="43.42677" lon="6.05231">
        <ele>284.79998779297</ele>
        <time>2016-06-15T12:23:08Z</time>
      </trkpt>
      <trkpt lat="43.42682" lon="6.05228">
        <ele>285.79998779297</ele>
        <time>2016-06-15T12:23:11Z</time>
      </trkpt>
      <trkpt lat="43.4269" lon="6.05226">
        <ele>286.60000610352</ele>
        <time>2016-06-15T12:23:16Z</time>
      </trkpt>
      <trkpt lat="43.42694" lon="6.05225">
        <ele>287</ele>
        <time>2016-06-15T12:23:19Z</time>
      </trkpt>
      <trkpt lat="43.42702" lon="6.05221">
        <ele>287.60000610352</ele>
        <time>2016-06-15T12:23:24Z</time>
      </trkpt>
      <trkpt lat="43.42716" lon="6.05208">
        <ele>288.79998779297</ele>
        <time>2016-06-15T12:23:33Z</time>
      </trkpt>
      <trkpt lat="43.42727" lon="6.0519">
        <ele>290.20001220703</ele>
        <time>2016-06-15T12:23:43Z</time>
      </trkpt>
      <trkpt lat="43.42727" lon="6.05189">
        <ele>290.39999389648</ele>
        <time>2016-06-15T12:23:44Z</time>
      </trkpt>
      <trkpt lat="43.42732" lon="6.05179">
        <ele>291.60000610352</ele>
        <time>2016-06-15T12:23:51Z</time>
      </trkpt>
      <trkpt lat="43.42733" lon="6.05175">
        <ele>292</ele>
        <time>2016-06-15T12:23:53Z</time>
      </trkpt>
      <trkpt lat="43.42737" lon="6.05169">
        <ele>292.79998779297</ele>
        <time>2016-06-15T12:23:56Z</time>
      </trkpt>
      <trkpt lat="43.42739" lon="6.0516">
        <ele>293.60000610352</ele>
        <time>2016-06-15T12:24:01Z</time>
      </trkpt>
      <trkpt lat="43.42741" lon="6.05156">
        <ele>293.79998779297</ele>
        <time>2016-06-15T12:24:03Z</time>
      </trkpt>
      <trkpt lat="43.42751" lon="6.0514">
        <ele>295</ele>
        <time>2016-06-15T12:24:12Z</time>
      </trkpt>
      <trkpt lat="43.42752" lon="6.05138">
        <ele>295</ele>
        <time>2016-06-15T12:24:13Z</time>
      </trkpt>
      <trkpt lat="43.42756" lon="6.05129">
        <ele>295.20001220703</ele>
        <time>2016-06-15T12:24:17Z</time>
      </trkpt>
      <trkpt lat="43.42757" lon="6.05115">
        <ele>295.60000610352</ele>
        <time>2016-06-15T12:24:23Z</time>
      </trkpt>
      <trkpt lat="43.42757" lon="6.05105">
        <ele>296</ele>
        <time>2016-06-15T12:24:27Z</time>
      </trkpt>
      <trkpt lat="43.42754" lon="6.05092">
        <ele>296.79998779297</ele>
        <time>2016-06-15T12:24:33Z</time>
      </trkpt>
      <trkpt lat="43.42753" lon="6.0508">
        <ele>297.20001220703</ele>
        <time>2016-06-15T12:24:37Z</time>
      </trkpt>
      <trkpt lat="43.42753" lon="6.05077">
        <ele>297.20001220703</ele>
        <time>2016-06-15T12:24:38Z</time>
      </trkpt>
      <trkpt lat="43.42754" lon="6.05074">
        <ele>297.60000610352</ele>
        <time>2016-06-15T12:24:40Z</time>
      </trkpt>
      <trkpt lat="43.42754" lon="6.05067">
        <ele>298</ele>
        <time>2016-06-15T12:24:43Z</time>
      </trkpt>
      <trkpt lat="43.42756" lon="6.0506">
        <ele>298.20001220703</ele>
        <time>2016-06-15T12:24:46Z</time>
      </trkpt>
      <trkpt lat="43.4276" lon="6.05047">
        <ele>299</ele>
        <time>2016-06-15T12:24:52Z</time>
      </trkpt>
      <trkpt lat="43.42764" lon="6.0504">
        <ele>299.39999389648</ele>
        <time>2016-06-15T12:24:55Z</time>
      </trkpt>
      <trkpt lat="43.4277" lon="6.05021">
        <ele>299.39999389648</ele>
        <time>2016-06-15T12:25:03Z</time>
      </trkpt>
      <trkpt lat="43.42767" lon="6.04993">
        <ele>300</ele>
        <time>2016-06-15T12:25:13Z</time>
      </trkpt>
      <trkpt lat="43.42766" lon="6.04985">
        <ele>300.39999389648</ele>
        <time>2016-06-15T12:25:16Z</time>
      </trkpt>
      <trkpt lat="43.42764" lon="6.04961">
        <ele>301.39999389648</ele>
        <time>2016-06-15T12:25:25Z</time>
      </trkpt>
      <trkpt lat="43.42764" lon="6.04937">
        <ele>302.39999389648</ele>
        <time>2016-06-15T12:25:34Z</time>
      </trkpt>
      <trkpt lat="43.42764" lon="6.04935">
        <ele>302.60000610352</ele>
        <time>2016-06-15T12:25:35Z</time>
      </trkpt>
      <trkpt lat="43.4276" lon="6.04914">
        <ele>304</ele>
        <time>2016-06-15T12:25:44Z</time>
      </trkpt>
      <trkpt lat="43.42759" lon="6.04909">
        <ele>304.20001220703</ele>
        <time>2016-06-15T12:25:46Z</time>
      </trkpt>
      <trkpt lat="43.4276" lon="6.04905">
        <ele>304.39999389648</ele>
        <time>2016-06-15T12:25:48Z</time>
      </trkpt>
      <trkpt lat="43.42761" lon="6.049">
        <ele>304.60000610352</ele>
        <time>2016-06-15T12:25:51Z</time>
      </trkpt>
      <trkpt lat="43.42764" lon="6.04894">
        <ele>305</ele>
        <time>2016-06-15T12:25:54Z</time>
      </trkpt>
      <trkpt lat="43.42772" lon="6.04882">
        <ele>305.79998779297</ele>
        <time>2016-06-15T12:26:01Z</time>
      </trkpt>
      <trkpt lat="43.42775" lon="6.04874">
        <ele>306</ele>
        <time>2016-06-15T12:26:05Z</time>
      </trkpt>
      <trkpt lat="43.4278" lon="6.0486">
        <ele>306.79998779297</ele>
        <time>2016-06-15T12:26:11Z</time>
      </trkpt>
      <trkpt lat="43.42783" lon="6.04848">
        <ele>307.60000610352</ele>
        <time>2016-06-15T12:26:16Z</time>
      </trkpt>
      <trkpt lat="43.42784" lon="6.04842">
        <ele>308</ele>
        <time>2016-06-15T12:26:19Z</time>
      </trkpt>
      <trkpt lat="43.42785" lon="6.0483">
        <ele>308.79998779297</ele>
        <time>2016-06-15T12:26:25Z</time>
      </trkpt>
      <trkpt lat="43.42784" lon="6.04828">
        <ele>309.20001220703</ele>
        <time>2016-06-15T12:26:27Z</time>
      </trkpt>
      <trkpt lat="43.42782" lon="6.04826">
        <ele>309.39999389648</ele>
        <time>2016-06-15T12:26:29Z</time>
      </trkpt>
      <trkpt lat="43.42772" lon="6.04819">
        <ele>310.20001220703</ele>
        <time>2016-06-15T12:26:36Z</time>
      </trkpt>
      <trkpt lat="43.4277" lon="6.04818">
        <ele>310.20001220703</ele>
        <time>2016-06-15T12:26:37Z</time>
      </trkpt>
      <trkpt lat="43.42762" lon="6.04813">
        <ele>311.39999389648</ele>
        <time>2016-06-15T12:26:43Z</time>
      </trkpt>
      <trkpt lat="43.42759" lon="6.04808">
        <ele>311.60000610352</ele>
        <time>2016-06-15T12:26:46Z</time>
      </trkpt>
      <trkpt lat="43.42756" lon="6.04806">
        <ele>312</ele>
        <time>2016-06-15T12:26:49Z</time>
      </trkpt>
      <trkpt lat="43.42754" lon="6.04806">
        <ele>312</ele>
        <time>2016-06-15T12:26:50Z</time>
      </trkpt>
      <trkpt lat="43.42753" lon="6.04807">
        <ele>312.20001220703</ele>
        <time>2016-06-15T12:26:55Z</time>
      </trkpt>
      <trkpt lat="43.42753" lon="6.04807">
        <ele>312.20001220703</ele>
        <time>2016-06-15T12:26:56Z</time>
      </trkpt>
      <trkpt lat="43.42753" lon="6.04807">
        <ele>312.39999389648</ele>
        <time>2016-06-15T12:26:58Z</time>
      </trkpt>
      <trkpt lat="43.42753" lon="6.04807">
        <ele>312.60000610352</ele>
        <time>2016-06-15T12:27:05Z</time>
      </trkpt>
      <trkpt lat="43.42753" lon="6.04807">
        <ele>312.60000610352</ele>
        <time>2016-06-15T12:27:24Z</time>
      </trkpt>
      <trkpt lat="43.42753" lon="6.04808">
        <ele>312.39999389648</ele>
        <time>2016-06-15T12:27:40Z</time>
      </trkpt>
      <trkpt lat="43.42753" lon="6.04808">
        <ele>312.39999389648</ele>
        <time>2016-06-15T12:27:56Z</time>
      </trkpt>
      <trkpt lat="43.42753" lon="6.04808">
        <ele>312.60000610352</ele>
        <time>2016-06-15T12:28:00Z</time>
      </trkpt>
      <trkpt lat="43.42752" lon="6.04808">
        <ele>312.60000610352</ele>
        <time>2016-06-15T12:28:04Z</time>
      </trkpt>
      <trkpt lat="43.4275" lon="6.04809">
        <ele>312.60000610352</ele>
        <time>2016-06-15T12:28:06Z</time>
      </trkpt>
      <trkpt lat="43.42736" lon="6.04814">
        <ele>310.79998779297</ele>
        <time>2016-06-15T12:28:12Z</time>
      </trkpt>
      <trkpt lat="43.42724" lon="6.0481">
        <ele>310.79998779297</ele>
        <time>2016-06-15T12:28:16Z</time>
      </trkpt>
      <trkpt lat="43.42712" lon="6.04802">
        <ele>310.79998779297</ele>
        <time>2016-06-15T12:28:22Z</time>
      </trkpt>
      <trkpt lat="43.4271" lon="6.04792">
        <ele>311.39999389648</ele>
        <time>2016-06-15T12:28:26Z</time>
      </trkpt>
      <trkpt lat="43.42708" lon="6.04785">
        <ele>311.79998779297</ele>
        <time>2016-06-15T12:28:29Z</time>
      </trkpt>
      <trkpt lat="43.42707" lon="6.04783">
        <ele>312.20001220703</ele>
        <time>2016-06-15T12:28:30Z</time>
      </trkpt>
      <trkpt lat="43.42706" lon="6.04769">
        <ele>313.39999389648</ele>
        <time>2016-06-15T12:28:36Z</time>
      </trkpt>
      <trkpt lat="43.42706" lon="6.04761">
        <ele>314.20001220703</ele>
        <time>2016-06-15T12:28:40Z</time>
      </trkpt>
      <trkpt lat="43.42706" lon="6.04747">
        <ele>315</ele>
        <time>2016-06-15T12:28:46Z</time>
      </trkpt>
      <trkpt lat="43.42704" lon="6.04728">
        <ele>316.20001220703</ele>
        <time>2016-06-15T12:28:54Z</time>
      </trkpt>
      <trkpt lat="43.42702" lon="6.04724">
        <ele>316.60000610352</ele>
        <time>2016-06-15T12:28:56Z</time>
      </trkpt>
      <trkpt lat="43.42702" lon="6.04708">
        <ele>317.60000610352</ele>
        <time>2016-06-15T12:29:03Z</time>
      </trkpt>
      <trkpt lat="43.42703" lon="6.04676">
        <ele>318.79998779297</ele>
        <time>2016-06-15T12:29:16Z</time>
      </trkpt>
      <trkpt lat="43.427" lon="6.04649">
        <ele>320</ele>
        <time>2016-06-15T12:29:28Z</time>
      </trkpt>
      <trkpt lat="43.427" lon="6.04633">
        <ele>321</ele>
        <time>2016-06-15T12:29:35Z</time>
      </trkpt>
      <trkpt lat="43.42701" lon="6.04631">
        <ele>321</ele>
        <time>2016-06-15T12:29:36Z</time>
      </trkpt>
      <trkpt lat="43.42699" lon="6.04606">
        <ele>322</ele>
        <time>2016-06-15T12:29:46Z</time>
      </trkpt>
      <trkpt lat="43.42699" lon="6.04584">
        <ele>322.60000610352</ele>
        <time>2016-06-15T12:29:55Z</time>
      </trkpt>
      <trkpt lat="43.42697" lon="6.04576">
        <ele>323</ele>
        <time>2016-06-15T12:29:59Z</time>
      </trkpt>
      <trkpt lat="43.42693" lon="6.04563">
        <ele>323.39999389648</ele>
        <time>2016-06-15T12:30:05Z</time>
      </trkpt>
      <trkpt lat="43.4269" lon="6.04554">
        <ele>324</ele>
        <time>2016-06-15T12:30:09Z</time>
      </trkpt>
      <trkpt lat="43.42686" lon="6.04541">
        <ele>325</ele>
        <time>2016-06-15T12:30:16Z</time>
      </trkpt>
      <trkpt lat="43.42685" lon="6.04539">
        <ele>325.20001220703</ele>
        <time>2016-06-15T12:30:17Z</time>
      </trkpt>
      <trkpt lat="43.42678" lon="6.04526">
        <ele>326.20001220703</ele>
        <time>2016-06-15T12:30:24Z</time>
      </trkpt>
      <trkpt lat="43.42676" lon="6.04523">
        <ele>326.39999389648</ele>
        <time>2016-06-15T12:30:26Z</time>
      </trkpt>
      <trkpt lat="43.42672" lon="6.04514">
        <ele>327</ele>
        <time>2016-06-15T12:30:31Z</time>
      </trkpt>
      <trkpt lat="43.4267" lon="6.04504">
        <ele>327.79998779297</ele>
        <time>2016-06-15T12:30:36Z</time>
      </trkpt>
      <trkpt lat="43.42669" lon="6.04494">
        <ele>328.60000610352</ele>
        <time>2016-06-15T12:30:41Z</time>
      </trkpt>
      <trkpt lat="43.42668" lon="6.0447">
        <ele>330.60000610352</ele>
        <time>2016-06-15T12:30:53Z</time>
      </trkpt>
      <trkpt lat="43.42668" lon="6.04464">
        <ele>331</ele>
        <time>2016-06-15T12:30:56Z</time>
      </trkpt>
      <trkpt lat="43.42665" lon="6.04444">
        <ele>332.39999389648</ele>
        <time>2016-06-15T12:31:06Z</time>
      </trkpt>
      <trkpt lat="43.42662" lon="6.04432">
        <ele>333.60000610352</ele>
        <time>2016-06-15T12:31:14Z</time>
      </trkpt>
      <trkpt lat="43.42661" lon="6.0443">
        <ele>333.79998779297</ele>
        <time>2016-06-15T12:31:15Z</time>
      </trkpt>
      <trkpt lat="43.42661" lon="6.04428">
        <ele>334</ele>
        <time>2016-06-15T12:31:16Z</time>
      </trkpt>
      <trkpt lat="43.42662" lon="6.04411">
        <ele>335</ele>
        <time>2016-06-15T12:31:24Z</time>
      </trkpt>
      <trkpt lat="43.42662" lon="6.04407">
        <ele>335</ele>
        <time>2016-06-15T12:31:26Z</time>
      </trkpt>
      <trkpt lat="43.42662" lon="6.044">
        <ele>335.20001220703</ele>
        <time>2016-06-15T12:31:29Z</time>
      </trkpt>
      <trkpt lat="43.42662" lon="6.04394">
        <ele>335.60000610352</ele>
        <time>2016-06-15T12:31:32Z</time>
      </trkpt>
      <trkpt lat="43.42663" lon="6.04387">
        <ele>336</ele>
        <time>2016-06-15T12:31:35Z</time>
      </trkpt>
      <trkpt lat="43.42663" lon="6.04385">
        <ele>336</ele>
        <time>2016-06-15T12:31:36Z</time>
      </trkpt>
      <trkpt lat="43.42659" lon="6.04366">
        <ele>337.60000610352</ele>
        <time>2016-06-15T12:31:46Z</time>
      </trkpt>
      <trkpt lat="43.42656" lon="6.04356">
        <ele>338.20001220703</ele>
        <time>2016-06-15T12:31:52Z</time>
      </trkpt>
      <trkpt lat="43.42654" lon="6.04345">
        <ele>338.79998779297</ele>
        <time>2016-06-15T12:31:57Z</time>
      </trkpt>
      <trkpt lat="43.42653" lon="6.0433">
        <ele>339.20001220703</ele>
        <time>2016-06-15T12:32:04Z</time>
      </trkpt>
      <trkpt lat="43.42654" lon="6.04326">
        <ele>339.60000610352</ele>
        <time>2016-06-15T12:32:06Z</time>
      </trkpt>
      <trkpt lat="43.4266" lon="6.04315">
        <ele>340.39999389648</ele>
        <time>2016-06-15T12:32:12Z</time>
      </trkpt>
      <trkpt lat="43.42659" lon="6.04305">
        <ele>341</ele>
        <time>2016-06-15T12:32:17Z</time>
      </trkpt>
      <trkpt lat="43.42658" lon="6.04301">
        <ele>341.20001220703</ele>
        <time>2016-06-15T12:32:19Z</time>
      </trkpt>
      <trkpt lat="43.42654" lon="6.04293">
        <ele>341.39999389648</ele>
        <time>2016-06-15T12:32:23Z</time>
      </trkpt>
      <trkpt lat="43.42651" lon="6.04286">
        <ele>341.79998779297</ele>
        <time>2016-06-15T12:32:27Z</time>
      </trkpt>
      <trkpt lat="43.42649" lon="6.04266">
        <ele>342.20001220703</ele>
        <time>2016-06-15T12:32:35Z</time>
      </trkpt>
      <trkpt lat="43.42648" lon="6.04261">
        <ele>342.39999389648</ele>
        <time>2016-06-15T12:32:37Z</time>
      </trkpt>
      <trkpt lat="43.42647" lon="6.04259">
        <ele>342.60000610352</ele>
        <time>2016-06-15T12:32:38Z</time>
      </trkpt>
      <trkpt lat="43.42645" lon="6.04251">
        <ele>342.79998779297</ele>
        <time>2016-06-15T12:32:42Z</time>
      </trkpt>
      <trkpt lat="43.42643" lon="6.04242">
        <ele>343.79998779297</ele>
        <time>2016-06-15T12:32:47Z</time>
      </trkpt>
      <trkpt lat="43.42641" lon="6.04229">
        <ele>344.79998779297</ele>
        <time>2016-06-15T12:32:54Z</time>
      </trkpt>
      <trkpt lat="43.4264" lon="6.04222">
        <ele>345.20001220703</ele>
        <time>2016-06-15T12:32:57Z</time>
      </trkpt>
      <trkpt lat="43.42638" lon="6.04208">
        <ele>345.79998779297</ele>
        <time>2016-06-15T12:33:03Z</time>
      </trkpt>
      <trkpt lat="43.42638" lon="6.04198">
        <ele>346</ele>
        <time>2016-06-15T12:33:07Z</time>
      </trkpt>
      <trkpt lat="43.42638" lon="6.04189">
        <ele>346.39999389648</ele>
        <time>2016-06-15T12:33:11Z</time>
      </trkpt>
      <trkpt lat="43.42646" lon="6.04175">
        <ele>347</ele>
        <time>2016-06-15T12:33:18Z</time>
      </trkpt>
      <trkpt lat="43.42656" lon="6.04157">
        <ele>347.60000610352</ele>
        <time>2016-06-15T12:33:27Z</time>
      </trkpt>
      <trkpt lat="43.42658" lon="6.04151">
        <ele>348</ele>
        <time>2016-06-15T12:33:30Z</time>
      </trkpt>
      <trkpt lat="43.42664" lon="6.04136">
        <ele>348.79998779297</ele>
        <time>2016-06-15T12:33:37Z</time>
      </trkpt>
      <trkpt lat="43.42666" lon="6.04132">
        <ele>349</ele>
        <time>2016-06-15T12:33:39Z</time>
      </trkpt>
      <trkpt lat="43.42675" lon="6.04121">
        <ele>349.79998779297</ele>
        <time>2016-06-15T12:33:47Z</time>
      </trkpt>
      <trkpt lat="43.42679" lon="6.0412">
        <ele>350</ele>
        <time>2016-06-15T12:33:50Z</time>
      </trkpt>
      <trkpt lat="43.42689" lon="6.04115">
        <ele>351.20001220703</ele>
        <time>2016-06-15T12:33:58Z</time>
      </trkpt>
      <trkpt lat="43.42696" lon="6.04102">
        <ele>352.20001220703</ele>
        <time>2016-06-15T12:34:06Z</time>
      </trkpt>
      <trkpt lat="43.42697" lon="6.041">
        <ele>352.20001220703</ele>
        <time>2016-06-15T12:34:07Z</time>
      </trkpt>
      <trkpt lat="43.42694" lon="6.04078">
        <ele>352.20001220703</ele>
        <time>2016-06-15T12:34:13Z</time>
      </trkpt>
      <trkpt lat="43.42695" lon="6.04065">
        <ele>351.79998779297</ele>
        <time>2016-06-15T12:34:17Z</time>
      </trkpt>
      <trkpt lat="43.42702" lon="6.04035">
        <ele>351.79998779297</ele>
        <time>2016-06-15T12:34:27Z</time>
      </trkpt>
      <trkpt lat="43.42715" lon="6.04016">
        <ele>352.79998779297</ele>
        <time>2016-06-15T12:34:37Z</time>
      </trkpt>
      <trkpt lat="43.42718" lon="6.04009">
        <ele>353.20001220703</ele>
        <time>2016-06-15T12:34:41Z</time>
      </trkpt>
      <trkpt lat="43.42719" lon="6.04005">
        <ele>353.39999389648</ele>
        <time>2016-06-15T12:34:43Z</time>
      </trkpt>
      <trkpt lat="43.42727" lon="6.03976">
        <ele>354.20001220703</ele>
        <time>2016-06-15T12:34:55Z</time>
      </trkpt>
      <trkpt lat="43.42728" lon="6.03971">
        <ele>354.39999389648</ele>
        <time>2016-06-15T12:34:57Z</time>
      </trkpt>
      <trkpt lat="43.42728" lon="6.03962">
        <ele>354.39999389648</ele>
        <time>2016-06-15T12:35:00Z</time>
      </trkpt>
      <trkpt lat="43.42723" lon="6.03951">
        <ele>354.60000610352</ele>
        <time>2016-06-15T12:35:05Z</time>
      </trkpt>
      <trkpt lat="43.42719" lon="6.03952">
        <ele>354.79998779297</ele>
        <time>2016-06-15T12:35:07Z</time>
      </trkpt>
      <trkpt lat="43.42703" lon="6.03944">
        <ele>355.39999389648</ele>
        <time>2016-06-15T12:35:17Z</time>
      </trkpt>
      <trkpt lat="43.42696" lon="6.03934">
        <ele>356</ele>
        <time>2016-06-15T12:35:24Z</time>
      </trkpt>
      <trkpt lat="43.42693" lon="6.0393">
        <ele>356.39999389648</ele>
        <time>2016-06-15T12:35:27Z</time>
      </trkpt>
      <trkpt lat="43.42693" lon="6.03929">
        <ele>356.60000610352</ele>
        <time>2016-06-15T12:35:28Z</time>
      </trkpt>
      <trkpt lat="43.42695" lon="6.03916">
        <ele>357.79998779297</ele>
        <time>2016-06-15T12:35:35Z</time>
      </trkpt>
      <trkpt lat="43.42696" lon="6.03913">
        <ele>358</ele>
        <time>2016-06-15T12:35:37Z</time>
      </trkpt>
      <trkpt lat="43.42689" lon="6.03903">
        <ele>359.20001220703</ele>
        <time>2016-06-15T12:35:45Z</time>
      </trkpt>
      <trkpt lat="43.42689" lon="6.03899">
        <ele>359.60000610352</ele>
        <time>2016-06-15T12:35:47Z</time>
      </trkpt>
      <trkpt lat="43.42689" lon="6.03898">
        <ele>359.79998779297</ele>
        <time>2016-06-15T12:35:48Z</time>
      </trkpt>
      <trkpt lat="43.42689" lon="6.03896">
        <ele>360</ele>
        <time>2016-06-15T12:35:49Z</time>
      </trkpt>
      <trkpt lat="43.4269" lon="6.0389">
        <ele>360.39999389648</ele>
        <time>2016-06-15T12:35:52Z</time>
      </trkpt>
      <trkpt lat="43.42692" lon="6.0388">
        <ele>360.60000610352</ele>
        <time>2016-06-15T12:35:57Z</time>
      </trkpt>
      <trkpt lat="43.42693" lon="6.03879">
        <ele>360.60000610352</ele>
        <time>2016-06-15T12:35:58Z</time>
      </trkpt>
      <trkpt lat="43.42692" lon="6.03873">
        <ele>360.79998779297</ele>
        <time>2016-06-15T12:36:01Z</time>
      </trkpt>
      <trkpt lat="43.42691" lon="6.03868">
        <ele>361.60000610352</ele>
        <time>2016-06-15T12:36:04Z</time>
      </trkpt>
      <trkpt lat="43.42691" lon="6.03865">
        <ele>361.79998779297</ele>
        <time>2016-06-15T12:36:06Z</time>
      </trkpt>
      <trkpt lat="43.42691" lon="6.03862">
        <ele>362</ele>
        <time>2016-06-15T12:36:08Z</time>
      </trkpt>
      <trkpt lat="43.4269" lon="6.03854">
        <ele>362.79998779297</ele>
        <time>2016-06-15T12:36:13Z</time>
      </trkpt>
      <trkpt lat="43.4269" lon="6.03852">
        <ele>363</ele>
        <time>2016-06-15T12:36:14Z</time>
      </trkpt>
      <trkpt lat="43.42688" lon="6.03846">
        <ele>363.39999389648</ele>
        <time>2016-06-15T12:36:18Z</time>
      </trkpt>
      <trkpt lat="43.42689" lon="6.03828">
        <ele>365.20001220703</ele>
        <time>2016-06-15T12:36:29Z</time>
      </trkpt>
      <trkpt lat="43.42687" lon="6.03819">
        <ele>366.39999389648</ele>
        <time>2016-06-15T12:36:35Z</time>
      </trkpt>
      <trkpt lat="43.42685" lon="6.03816">
        <ele>367</ele>
        <time>2016-06-15T12:36:38Z</time>
      </trkpt>
      <trkpt lat="43.42684" lon="6.03813">
        <ele>367.39999389648</ele>
        <time>2016-06-15T12:36:41Z</time>
      </trkpt>
      <trkpt lat="43.42683" lon="6.03813">
        <ele>367.79998779297</ele>
        <time>2016-06-15T12:36:46Z</time>
      </trkpt>
      <trkpt lat="43.42682" lon="6.03811">
        <ele>368.20001220703</ele>
        <time>2016-06-15T12:36:54Z</time>
      </trkpt>
      <trkpt lat="43.42682" lon="6.03811">
        <ele>368.39999389648</ele>
        <time>2016-06-15T12:36:56Z</time>
      </trkpt>
      <trkpt lat="43.42681" lon="6.0381">
        <ele>368.79998779297</ele>
        <time>2016-06-15T12:37:00Z</time>
      </trkpt>
      <trkpt lat="43.42678" lon="6.03808">
        <ele>369.39999389648</ele>
        <time>2016-06-15T12:37:06Z</time>
      </trkpt>
      <trkpt lat="43.42678" lon="6.03807">
        <ele>369.60000610352</ele>
        <time>2016-06-15T12:37:08Z</time>
      </trkpt>
      <trkpt lat="43.42677" lon="6.03807">
        <ele>369.79998779297</ele>
        <time>2016-06-15T12:37:16Z</time>
      </trkpt>
      <trkpt lat="43.42676" lon="6.03807">
        <ele>369.60000610352</ele>
        <time>2016-06-15T12:37:25Z</time>
      </trkpt>
      <trkpt lat="43.42677" lon="6.03807">
        <ele>369.79998779297</ele>
        <time>2016-06-15T12:37:31Z</time>
      </trkpt>
      <trkpt lat="43.42676" lon="6.03807">
        <ele>369.79998779297</ele>
        <time>2016-06-15T12:37:34Z</time>
      </trkpt>
      <trkpt lat="43.42676" lon="6.03806">
        <ele>369.60000610352</ele>
        <time>2016-06-15T12:37:36Z</time>
      </trkpt>
      <trkpt lat="43.42677" lon="6.03805">
        <ele>369.60000610352</ele>
        <time>2016-06-15T12:37:37Z</time>
      </trkpt>
      <trkpt lat="43.42679" lon="6.03801">
        <ele>370.20001220703</ele>
        <time>2016-06-15T12:37:40Z</time>
      </trkpt>
      <trkpt lat="43.4268" lon="6.03798">
        <ele>370.79998779297</ele>
        <time>2016-06-15T12:37:42Z</time>
      </trkpt>
      <trkpt lat="43.4268" lon="6.03797">
        <ele>371.60000610352</ele>
        <time>2016-06-15T12:37:46Z</time>
      </trkpt>
      <trkpt lat="43.42678" lon="6.03793">
        <ele>371.79998779297</ele>
        <time>2016-06-15T12:37:52Z</time>
      </trkpt>
      <trkpt lat="43.42678" lon="6.03791">
        <ele>372.20001220703</ele>
        <time>2016-06-15T12:37:56Z</time>
      </trkpt>
      <trkpt lat="43.42677" lon="6.03791">
        <ele>372</ele>
        <time>2016-06-15T12:38:02Z</time>
      </trkpt>
      <trkpt lat="43.42678" lon="6.03791">
        <ele>372</ele>
        <time>2016-06-15T12:38:06Z</time>
      </trkpt>
      <trkpt lat="43.42679" lon="6.0379">
        <ele>372.20001220703</ele>
        <time>2016-06-15T12:38:12Z</time>
      </trkpt>
      <trkpt lat="43.4268" lon="6.03784">
        <ele>372.39999389648</ele>
        <time>2016-06-15T12:38:16Z</time>
      </trkpt>
      <trkpt lat="43.4268" lon="6.03779">
        <ele>373</ele>
        <time>2016-06-15T12:38:19Z</time>
      </trkpt>
      <trkpt lat="43.42679" lon="6.03774">
        <ele>373.20001220703</ele>
        <time>2016-06-15T12:38:22Z</time>
      </trkpt>
      <trkpt lat="43.42678" lon="6.0377">
        <ele>374</ele>
        <time>2016-06-15T12:38:25Z</time>
      </trkpt>
      <trkpt lat="43.42678" lon="6.0377">
        <ele>374.79998779297</ele>
        <time>2016-06-15T12:38:27Z</time>
      </trkpt>
      <trkpt lat="43.42679" lon="6.0377">
        <ele>375.20001220703</ele>
        <time>2016-06-15T12:38:29Z</time>
      </trkpt>
      <trkpt lat="43.4268" lon="6.03768">
        <ele>375.39999389648</ele>
        <time>2016-06-15T12:38:37Z</time>
      </trkpt>
      <trkpt lat="43.4268" lon="6.03766">
        <ele>375.39999389648</ele>
        <time>2016-06-15T12:38:41Z</time>
      </trkpt>
      <trkpt lat="43.4268" lon="6.03765">
        <ele>375.79998779297</ele>
        <time>2016-06-15T12:38:46Z</time>
      </trkpt>
      <trkpt lat="43.4268" lon="6.03765">
        <ele>375.79998779297</ele>
        <time>2016-06-15T12:38:48Z</time>
      </trkpt>
      <trkpt lat="43.4268" lon="6.03765">
        <ele>375.60000610352</ele>
        <time>2016-06-15T12:38:53Z</time>
      </trkpt>
      <trkpt lat="43.4268" lon="6.03764">
        <ele>375.60000610352</ele>
        <time>2016-06-15T12:38:58Z</time>
      </trkpt>
      <trkpt lat="43.4268" lon="6.03765">
        <ele>375.60000610352</ele>
        <time>2016-06-15T12:39:08Z</time>
      </trkpt>
      <trkpt lat="43.42677" lon="6.03764">
        <ele>375.60000610352</ele>
        <time>2016-06-15T12:39:17Z</time>
      </trkpt>
      <trkpt lat="43.42676" lon="6.03764">
        <ele>375.60000610352</ele>
        <time>2016-06-15T12:39:19Z</time>
      </trkpt>
      <trkpt lat="43.42675" lon="6.03764">
        <ele>375.60000610352</ele>
        <time>2016-06-15T12:39:23Z</time>
      </trkpt>
      <trkpt lat="43.42677" lon="6.03762">
        <ele>375.60000610352</ele>
        <time>2016-06-15T12:39:29Z</time>
      </trkpt>
      <trkpt lat="43.42677" lon="6.03761">
        <ele>375.79998779297</ele>
        <time>2016-06-15T12:39:35Z</time>
      </trkpt>
      <trkpt lat="43.42678" lon="6.03761">
        <ele>375.79998779297</ele>
        <time>2016-06-15T12:39:39Z</time>
      </trkpt>
      <trkpt lat="43.42679" lon="6.0376">
        <ele>376</ele>
        <time>2016-06-15T12:39:42Z</time>
      </trkpt>
      <trkpt lat="43.42681" lon="6.03757">
        <ele>376.20001220703</ele>
        <time>2016-06-15T12:39:45Z</time>
      </trkpt>
      <trkpt lat="43.42681" lon="6.03757">
        <ele>376.39999389648</ele>
        <time>2016-06-15T12:39:49Z</time>
      </trkpt>
      <trkpt lat="43.42683" lon="6.03749">
        <ele>377.20001220703</ele>
        <time>2016-06-15T12:39:58Z</time>
      </trkpt>
      <trkpt lat="43.42683" lon="6.03748">
        <ele>377.39999389648</ele>
        <time>2016-06-15T12:39:59Z</time>
      </trkpt>
      <trkpt lat="43.42684" lon="6.03744">
        <ele>377.79998779297</ele>
        <time>2016-06-15T12:40:09Z</time>
      </trkpt>
      <trkpt lat="43.42685" lon="6.0374">
        <ele>378.20001220703</ele>
        <time>2016-06-15T12:40:12Z</time>
      </trkpt>
      <trkpt lat="43.42685" lon="6.03735">
        <ele>378.39999389648</ele>
        <time>2016-06-15T12:40:14Z</time>
      </trkpt>
      <trkpt lat="43.42685" lon="6.03729">
        <ele>379</ele>
        <time>2016-06-15T12:40:17Z</time>
      </trkpt>
      <trkpt lat="43.42685" lon="6.03723">
        <ele>379.60000610352</ele>
        <time>2016-06-15T12:40:20Z</time>
      </trkpt>
      <trkpt lat="43.42685" lon="6.03714">
        <ele>380.39999389648</ele>
        <time>2016-06-15T12:40:25Z</time>
      </trkpt>
      <trkpt lat="43.42685" lon="6.03709">
        <ele>380.79998779297</ele>
        <time>2016-06-15T12:40:28Z</time>
      </trkpt>
      <trkpt lat="43.42686" lon="6.03696">
        <ele>381.60000610352</ele>
        <time>2016-06-15T12:40:35Z</time>
      </trkpt>
      <trkpt lat="43.42686" lon="6.03691">
        <ele>382.20001220703</ele>
        <time>2016-06-15T12:40:39Z</time>
      </trkpt>
      <trkpt lat="43.42686" lon="6.03673">
        <ele>383.79998779297</ele>
        <time>2016-06-15T12:40:49Z</time>
      </trkpt>
      <trkpt lat="43.42686" lon="6.0367">
        <ele>384</ele>
        <time>2016-06-15T12:40:50Z</time>
      </trkpt>
      <trkpt lat="43.42687" lon="6.03653">
        <ele>384.60000610352</ele>
        <time>2016-06-15T12:40:59Z</time>
      </trkpt>
      <trkpt lat="43.42688" lon="6.03649">
        <ele>384.79998779297</ele>
        <time>2016-06-15T12:41:01Z</time>
      </trkpt>
      <trkpt lat="43.42687" lon="6.03643">
        <ele>385</ele>
        <time>2016-06-15T12:41:05Z</time>
      </trkpt>
      <trkpt lat="43.42685" lon="6.03635">
        <ele>385</ele>
        <time>2016-06-15T12:41:09Z</time>
      </trkpt>
      <trkpt lat="43.42685" lon="6.03631">
        <ele>385</ele>
        <time>2016-06-15T12:41:11Z</time>
      </trkpt>
      <trkpt lat="43.42678" lon="6.03621">
        <ele>385.20001220703</ele>
        <time>2016-06-15T12:41:17Z</time>
      </trkpt>
      <trkpt lat="43.42677" lon="6.03617">
        <ele>385.20001220703</ele>
        <time>2016-06-15T12:41:19Z</time>
      </trkpt>
      <trkpt lat="43.42673" lon="6.03609">
        <ele>385.39999389648</ele>
        <time>2016-06-15T12:41:23Z</time>
      </trkpt>
      <trkpt lat="43.42669" lon="6.03605">
        <ele>385.39999389648</ele>
        <time>2016-06-15T12:41:26Z</time>
      </trkpt>
      <trkpt lat="43.42667" lon="6.03601">
        <ele>385.39999389648</ele>
        <time>2016-06-15T12:41:28Z</time>
      </trkpt>
      <trkpt lat="43.42667" lon="6.03599">
        <ele>385.60000610352</ele>
        <time>2016-06-15T12:41:29Z</time>
      </trkpt>
      <trkpt lat="43.42665" lon="6.03592">
        <ele>385.60000610352</ele>
        <time>2016-06-15T12:41:31Z</time>
      </trkpt>
      <trkpt lat="43.42661" lon="6.03565">
        <ele>386</ele>
        <time>2016-06-15T12:41:39Z</time>
      </trkpt>
      <trkpt lat="43.42656" lon="6.03536">
        <ele>386.79998779297</ele>
        <time>2016-06-15T12:41:49Z</time>
      </trkpt>
      <trkpt lat="43.42654" lon="6.03525">
        <ele>387</ele>
        <time>2016-06-15T12:41:53Z</time>
      </trkpt>
      <trkpt lat="43.4265" lon="6.03508">
        <ele>387.60000610352</ele>
        <time>2016-06-15T12:41:59Z</time>
      </trkpt>
      <trkpt lat="43.42645" lon="6.03492">
        <ele>387.39999389648</ele>
        <time>2016-06-15T12:42:05Z</time>
      </trkpt>
      <trkpt lat="43.4264" lon="6.0348">
        <ele>387.20001220703</ele>
        <time>2016-06-15T12:42:09Z</time>
      </trkpt>
      <trkpt lat="43.42626" lon="6.03467">
        <ele>385.79998779297</ele>
        <time>2016-06-15T12:42:15Z</time>
      </trkpt>
      <trkpt lat="43.4262" lon="6.03464">
        <ele>384.60000610352</ele>
        <time>2016-06-15T12:42:18Z</time>
      </trkpt>
      <trkpt lat="43.42618" lon="6.03462">
        <ele>384.20001220703</ele>
        <time>2016-06-15T12:42:19Z</time>
      </trkpt>
      <trkpt lat="43.42614" lon="6.03459">
        <ele>383.20001220703</ele>
        <time>2016-06-15T12:42:21Z</time>
      </trkpt>
      <trkpt lat="43.42606" lon="6.03451">
        <ele>382.20001220703</ele>
        <time>2016-06-15T12:42:24Z</time>
      </trkpt>
      <trkpt lat="43.42597" lon="6.03442">
        <ele>381</ele>
        <time>2016-06-15T12:42:27Z</time>
      </trkpt>
      <trkpt lat="43.42591" lon="6.03434">
        <ele>380.79998779297</ele>
        <time>2016-06-15T12:42:29Z</time>
      </trkpt>
      <trkpt lat="43.42566" lon="6.03398">
        <ele>380.20001220703</ele>
        <time>2016-06-15T12:42:39Z</time>
      </trkpt>
      <trkpt lat="43.42548" lon="6.03388">
        <ele>380.20001220703</ele>
        <time>2016-06-15T12:42:45Z</time>
      </trkpt>
      <trkpt lat="43.42548" lon="6.03374">
        <ele>380</ele>
        <time>2016-06-15T12:42:48Z</time>
      </trkpt>
      <trkpt lat="43.4255" lon="6.03364">
        <ele>379.60000610352</ele>
        <time>2016-06-15T12:42:50Z</time>
      </trkpt>
      <trkpt lat="43.42548" lon="6.03352">
        <ele>379</ele>
        <time>2016-06-15T12:42:52Z</time>
      </trkpt>
      <trkpt lat="43.42546" lon="6.03346">
        <ele>378.60000610352</ele>
        <time>2016-06-15T12:42:53Z</time>
      </trkpt>
      <trkpt lat="43.42541" lon="6.03331">
        <ele>377.79998779297</ele>
        <time>2016-06-15T12:42:56Z</time>
      </trkpt>
      <trkpt lat="43.42541" lon="6.03326">
        <ele>377.60000610352</ele>
        <time>2016-06-15T12:42:57Z</time>
      </trkpt>
      <trkpt lat="43.42542" lon="6.03312">
        <ele>377.20001220703</ele>
        <time>2016-06-15T12:42:59Z</time>
      </trkpt>
      <trkpt lat="43.4254" lon="6.03282">
        <ele>376.39999389648</ele>
        <time>2016-06-15T12:43:03Z</time>
      </trkpt>
      <trkpt lat="43.42537" lon="6.03264">
        <ele>375</ele>
        <time>2016-06-15T12:43:06Z</time>
      </trkpt>
      <trkpt lat="43.42535" lon="6.03261">
        <ele>374.39999389648</ele>
        <time>2016-06-15T12:43:07Z</time>
      </trkpt>
      <trkpt lat="43.4253" lon="6.03257">
        <ele>373.60000610352</ele>
        <time>2016-06-15T12:43:09Z</time>
      </trkpt>
      <trkpt lat="43.42519" lon="6.03253">
        <ele>373.60000610352</ele>
        <time>2016-06-15T12:43:15Z</time>
      </trkpt>
      <trkpt lat="43.42516" lon="6.0325">
        <ele>374</ele>
        <time>2016-06-15T12:43:19Z</time>
      </trkpt>
      <trkpt lat="43.42515" lon="6.0325">
        <ele>374</ele>
        <time>2016-06-15T12:43:29Z</time>
      </trkpt>
      <trkpt lat="43.42514" lon="6.0325">
        <ele>374</ele>
        <time>2016-06-15T12:43:39Z</time>
      </trkpt>
      <trkpt lat="43.42514" lon="6.03251">
        <ele>374</ele>
        <time>2016-06-15T12:43:49Z</time>
      </trkpt>
      <trkpt lat="43.42514" lon="6.03251">
        <ele>373.79998779297</ele>
        <time>2016-06-15T12:43:56Z</time>
      </trkpt>
      <trkpt lat="43.42514" lon="6.0325">
        <ele>373.79998779297</ele>
        <time>2016-06-15T12:43:59Z</time>
      </trkpt>
      <trkpt lat="43.42514" lon="6.03248">
        <ele>374.20001220703</ele>
        <time>2016-06-15T12:44:19Z</time>
      </trkpt>
      <trkpt lat="43.42514" lon="6.03249">
        <ele>374.20001220703</ele>
        <time>2016-06-15T12:44:29Z</time>
      </trkpt>
      <trkpt lat="43.42514" lon="6.03249">
        <ele>374.20001220703</ele>
        <time>2016-06-15T12:44:39Z</time>
      </trkpt>
      <trkpt lat="43.42514" lon="6.03249">
        <ele>374.20001220703</ele>
        <time>2016-06-15T12:44:59Z</time>
      </trkpt>
      <trkpt lat="43.42514" lon="6.03249">
        <ele>374.20001220703</ele>
        <time>2016-06-15T12:45:09Z</time>
      </trkpt>
      <trkpt lat="43.42513" lon="6.03249">
        <ele>374.20001220703</ele>
        <time>2016-06-15T12:45:29Z</time>
      </trkpt>
      <trkpt lat="43.42513" lon="6.03249">
        <ele>374.20001220703</ele>
        <time>2016-06-15T12:45:39Z</time>
      </trkpt>
      <trkpt lat="43.42513" lon="6.03249">
        <ele>374.20001220703</ele>
        <time>2016-06-15T12:45:49Z</time>
      </trkpt>
      <trkpt lat="43.42513" lon="6.03249">
        <ele>374.20001220703</ele>
        <time>2016-06-15T12:45:59Z</time>
      </trkpt>
      <trkpt lat="43.42513" lon="6.0325">
        <ele>374.20001220703</ele>
        <time>2016-06-15T12:46:49Z</time>
      </trkpt>
      <trkpt lat="43.42513" lon="6.0325">
        <ele>374.20001220703</ele>
        <time>2016-06-15T12:46:59Z</time>
      </trkpt>
      <trkpt lat="43.42513" lon="6.0325">
        <ele>374.20001220703</ele>
        <time>2016-06-15T12:47:19Z</time>
      </trkpt>
      <trkpt lat="43.42513" lon="6.0325">
        <ele>374.20001220703</ele>
        <time>2016-06-15T12:47:39Z</time>
      </trkpt>
      <trkpt lat="43.42513" lon="6.0325">
        <ele>374.20001220703</ele>
        <time>2016-06-15T12:48:29Z</time>
      </trkpt>
      <trkpt lat="43.42513" lon="6.0325">
        <ele>374.20001220703</ele>
        <time>2016-06-15T12:48:59Z</time>
      </trkpt>
      <trkpt lat="43.42513" lon="6.0325">
        <ele>374.20001220703</ele>
        <time>2016-06-15T12:49:19Z</time>
      </trkpt>
      <trkpt lat="43.42513" lon="6.03249">
        <ele>374.20001220703</ele>
        <time>2016-06-15T12:50:39Z</time>
      </trkpt>
      <trkpt lat="43.42512" lon="6.0325">
        <ele>374.20001220703</ele>
        <time>2016-06-15T12:50:56Z</time>
      </trkpt>
      <trkpt lat="43.42512" lon="6.0325">
        <ele>374.20001220703</ele>
        <time>2016-06-15T12:51:09Z</time>
      </trkpt>
      <trkpt lat="43.42513" lon="6.03252">
        <ele>374.20001220703</ele>
        <time>2016-06-15T12:51:29Z</time>
      </trkpt>
      <trkpt lat="43.42513" lon="6.03252">
        <ele>374.20001220703</ele>
        <time>2016-06-15T12:51:39Z</time>
      </trkpt>
      <trkpt lat="43.42511" lon="6.03255">
        <ele>374.20001220703</ele>
        <time>2016-06-15T12:51:59Z</time>
      </trkpt>
      <trkpt lat="43.42511" lon="6.03255">
        <ele>374.20001220703</ele>
        <time>2016-06-15T12:52:08Z</time>
      </trkpt>
      <trkpt lat="43.42511" lon="6.03255">
        <ele>374.20001220703</ele>
        <time>2016-06-15T12:52:09Z</time>
      </trkpt>
      <trkpt lat="43.4251" lon="6.03256">
        <ele>374.20001220703</ele>
        <time>2016-06-15T12:52:17Z</time>
      </trkpt>
      <trkpt lat="43.42508" lon="6.03257">
        <ele>374.39999389648</ele>
        <time>2016-06-15T12:52:19Z</time>
      </trkpt>
      <trkpt lat="43.42506" lon="6.03258">
        <ele>375</ele>
        <time>2016-06-15T12:52:20Z</time>
      </trkpt>
      <trkpt lat="43.42502" lon="6.03262">
        <ele>375.79998779297</ele>
        <time>2016-06-15T12:52:23Z</time>
      </trkpt>
      <trkpt lat="43.42498" lon="6.03266">
        <ele>376</ele>
        <time>2016-06-15T12:52:26Z</time>
      </trkpt>
      <trkpt lat="43.42494" lon="6.03271">
        <ele>376.39999389648</ele>
        <time>2016-06-15T12:52:29Z</time>
      </trkpt>
      <trkpt lat="43.4249" lon="6.03278">
        <ele>377.39999389648</ele>
        <time>2016-06-15T12:52:33Z</time>
      </trkpt>
      <trkpt lat="43.42486" lon="6.03288">
        <ele>378.39999389648</ele>
        <time>2016-06-15T12:52:38Z</time>
      </trkpt>
      <trkpt lat="43.42485" lon="6.03289">
        <ele>378.39999389648</ele>
        <time>2016-06-15T12:52:39Z</time>
      </trkpt>
      <trkpt lat="43.42479" lon="6.03295">
        <ele>379</ele>
        <time>2016-06-15T12:52:43Z</time>
      </trkpt>
      <trkpt lat="43.42476" lon="6.03299">
        <ele>379.60000610352</ele>
        <time>2016-06-15T12:52:46Z</time>
      </trkpt>
      <trkpt lat="43.42473" lon="6.03302">
        <ele>380.39999389648</ele>
        <time>2016-06-15T12:52:49Z</time>
      </trkpt>
      <trkpt lat="43.42471" lon="6.03303">
        <ele>380.79998779297</ele>
        <time>2016-06-15T12:52:51Z</time>
      </trkpt>
      <trkpt lat="43.42467" lon="6.03307">
        <ele>381.39999389648</ele>
        <time>2016-06-15T12:52:55Z</time>
      </trkpt>
      <trkpt lat="43.42463" lon="6.03311">
        <ele>381.79998779297</ele>
        <time>2016-06-15T12:52:59Z</time>
      </trkpt>
      <trkpt lat="43.42457" lon="6.03313">
        <ele>382.79998779297</ele>
        <time>2016-06-15T12:53:04Z</time>
      </trkpt>
      <trkpt lat="43.42449" lon="6.03314">
        <ele>385</ele>
        <time>2016-06-15T12:53:14Z</time>
      </trkpt>
      <trkpt lat="43.42447" lon="6.03314">
        <ele>386.20001220703</ele>
        <time>2016-06-15T12:53:17Z</time>
      </trkpt>
      <trkpt lat="43.42444" lon="6.03314">
        <ele>387.20001220703</ele>
        <time>2016-06-15T12:53:21Z</time>
      </trkpt>
      <trkpt lat="43.42438" lon="6.03315">
        <ele>388.39999389648</ele>
        <time>2016-06-15T12:53:29Z</time>
      </trkpt>
      <trkpt lat="43.42436" lon="6.03315">
        <ele>388.79998779297</ele>
        <time>2016-06-15T12:53:31Z</time>
      </trkpt>
      <trkpt lat="43.42432" lon="6.03316">
        <ele>389.60000610352</ele>
        <time>2016-06-15T12:53:34Z</time>
      </trkpt>
      <trkpt lat="43.42428" lon="6.03317">
        <ele>390.60000610352</ele>
        <time>2016-06-15T12:53:39Z</time>
      </trkpt>
      <trkpt lat="43.42427" lon="6.03317">
        <ele>391</ele>
        <time>2016-06-15T12:53:43Z</time>
      </trkpt>
      <trkpt lat="43.42427" lon="6.03317">
        <ele>391.20001220703</ele>
        <time>2016-06-15T12:53:46Z</time>
      </trkpt>
      <trkpt lat="43.42426" lon="6.03317">
        <ele>391</ele>
        <time>2016-06-15T12:53:49Z</time>
      </trkpt>
      <trkpt lat="43.42426" lon="6.03317">
        <ele>391</ele>
        <time>2016-06-15T12:53:54Z</time>
      </trkpt>
      <trkpt lat="43.42423" lon="6.03319">
        <ele>391</ele>
        <time>2016-06-15T12:53:59Z</time>
      </trkpt>
      <trkpt lat="43.42423" lon="6.0332">
        <ele>391.39999389648</ele>
        <time>2016-06-15T12:54:03Z</time>
      </trkpt>
      <trkpt lat="43.42422" lon="6.0332">
        <ele>391.39999389648</ele>
        <time>2016-06-15T12:54:09Z</time>
      </trkpt>
      <trkpt lat="43.42414" lon="6.03322">
        <ele>391.79998779297</ele>
        <time>2016-06-15T12:54:19Z</time>
      </trkpt>
      <trkpt lat="43.42409" lon="6.03323">
        <ele>392.79998779297</ele>
        <time>2016-06-15T12:54:23Z</time>
      </trkpt>
      <trkpt lat="43.42402" lon="6.03322">
        <ele>393.79998779297</ele>
        <time>2016-06-15T12:54:29Z</time>
      </trkpt>
      <trkpt lat="43.42394" lon="6.03326">
        <ele>395</ele>
        <time>2016-06-15T12:54:36Z</time>
      </trkpt>
      <trkpt lat="43.4239" lon="6.03328">
        <ele>395.20001220703</ele>
        <time>2016-06-15T12:54:39Z</time>
      </trkpt>
      <trkpt lat="43.42381" lon="6.03326">
        <ele>395.79998779297</ele>
        <time>2016-06-15T12:54:47Z</time>
      </trkpt>
      <trkpt lat="43.4238" lon="6.03322">
        <ele>395.79998779297</ele>
        <time>2016-06-15T12:54:49Z</time>
      </trkpt>
      <trkpt lat="43.42379" lon="6.03319">
        <ele>396</ele>
        <time>2016-06-15T12:54:51Z</time>
      </trkpt>
      <trkpt lat="43.42379" lon="6.03312">
        <ele>396.20001220703</ele>
        <time>2016-06-15T12:54:55Z</time>
      </trkpt>
      <trkpt lat="43.42381" lon="6.03309">
        <ele>396.20001220703</ele>
        <time>2016-06-15T12:54:57Z</time>
      </trkpt>
      <trkpt lat="43.42381" lon="6.03305">
        <ele>396.20001220703</ele>
        <time>2016-06-15T12:54:59Z</time>
      </trkpt>
      <trkpt lat="43.42377" lon="6.03291">
        <ele>396</ele>
        <time>2016-06-15T12:55:06Z</time>
      </trkpt>
      <trkpt lat="43.42375" lon="6.03281">
        <ele>396</ele>
        <time>2016-06-15T12:55:09Z</time>
      </trkpt>
      <trkpt lat="43.42371" lon="6.03262">
        <ele>396</ele>
        <time>2016-06-15T12:55:14Z</time>
      </trkpt>
      <trkpt lat="43.42371" lon="6.03241">
        <ele>396.20001220703</ele>
        <time>2016-06-15T12:55:19Z</time>
      </trkpt>
      <trkpt lat="43.42373" lon="6.03203">
        <ele>396.39999389648</ele>
        <time>2016-06-15T12:55:29Z</time>
      </trkpt>
      <trkpt lat="43.42373" lon="6.03166">
        <ele>397</ele>
        <time>2016-06-15T12:55:39Z</time>
      </trkpt>
      <trkpt lat="43.42375" lon="6.03134">
        <ele>397.79998779297</ele>
        <time>2016-06-15T12:55:48Z</time>
      </trkpt>
      <trkpt lat="43.42375" lon="6.03127">
        <ele>398.20001220703</ele>
        <time>2016-06-15T12:55:50Z</time>
      </trkpt>
      <trkpt lat="43.42378" lon="6.031">
        <ele>399.20001220703</ele>
        <time>2016-06-15T12:55:59Z</time>
      </trkpt>
      <trkpt lat="43.42382" lon="6.03081">
        <ele>400.39999389648</ele>
        <time>2016-06-15T12:56:07Z</time>
      </trkpt>
      <trkpt lat="43.42382" lon="6.03076">
        <ele>400.60000610352</ele>
        <time>2016-06-15T12:56:09Z</time>
      </trkpt>
      <trkpt lat="43.42383" lon="6.03068">
        <ele>401.39999389648</ele>
        <time>2016-06-15T12:56:13Z</time>
      </trkpt>
      <trkpt lat="43.42384" lon="6.03053">
        <ele>402.60000610352</ele>
        <time>2016-06-15T12:56:20Z</time>
      </trkpt>
      <trkpt lat="43.42387" lon="6.03038">
        <ele>403.60000610352</ele>
        <time>2016-06-15T12:56:28Z</time>
      </trkpt>
      <trkpt lat="43.42387" lon="6.03036">
        <ele>403.60000610352</ele>
        <time>2016-06-15T12:56:29Z</time>
      </trkpt>
      <trkpt lat="43.42386" lon="6.03026">
        <ele>404.60000610352</ele>
        <time>2016-06-15T12:56:35Z</time>
      </trkpt>
      <trkpt lat="43.42385" lon="6.03017">
        <ele>405.60000610352</ele>
        <time>2016-06-15T12:56:40Z</time>
      </trkpt>
      <trkpt lat="43.42381" lon="6.03004">
        <ele>406.60000610352</ele>
        <time>2016-06-15T12:56:47Z</time>
      </trkpt>
      <trkpt lat="43.4238" lon="6.03">
        <ele>407</ele>
        <time>2016-06-15T12:56:49Z</time>
      </trkpt>
      <trkpt lat="43.42379" lon="6.02986">
        <ele>407.79998779297</ele>
        <time>2016-06-15T12:56:56Z</time>
      </trkpt>
      <trkpt lat="43.42379" lon="6.02981">
        <ele>408.39999389648</ele>
        <time>2016-06-15T12:56:59Z</time>
      </trkpt>
      <trkpt lat="43.4238" lon="6.02975">
        <ele>408.79998779297</ele>
        <time>2016-06-15T12:57:02Z</time>
      </trkpt>
      <trkpt lat="43.4238" lon="6.02959">
        <ele>409.60000610352</ele>
        <time>2016-06-15T12:57:09Z</time>
      </trkpt>
      <trkpt lat="43.42381" lon="6.02951">
        <ele>410</ele>
        <time>2016-06-15T12:57:12Z</time>
      </trkpt>
      <trkpt lat="43.42384" lon="6.02933">
        <ele>410.39999389648</ele>
        <time>2016-06-15T12:57:19Z</time>
      </trkpt>
      <trkpt lat="43.42389" lon="6.0291">
        <ele>410.60000610352</ele>
        <time>2016-06-15T12:57:26Z</time>
      </trkpt>
      <trkpt lat="43.42392" lon="6.02901">
        <ele>410.60000610352</ele>
        <time>2016-06-15T12:57:29Z</time>
      </trkpt>
      <trkpt lat="43.42397" lon="6.02888">
        <ele>410.60000610352</ele>
        <time>2016-06-15T12:57:33Z</time>
      </trkpt>
      <trkpt lat="43.42407" lon="6.02865">
        <ele>410.20001220703</ele>
        <time>2016-06-15T12:57:39Z</time>
      </trkpt>
      <trkpt lat="43.42413" lon="6.02851">
        <ele>410</ele>
        <time>2016-06-15T12:57:42Z</time>
      </trkpt>
      <trkpt lat="43.42416" lon="6.02841">
        <ele>409.79998779297</ele>
        <time>2016-06-15T12:57:44Z</time>
      </trkpt>
      <trkpt lat="43.42424" lon="6.02825">
        <ele>409.79998779297</ele>
        <time>2016-06-15T12:57:47Z</time>
      </trkpt>
      <trkpt lat="43.42426" lon="6.02819">
        <ele>409.60000610352</ele>
        <time>2016-06-15T12:57:48Z</time>
      </trkpt>
      <trkpt lat="43.42427" lon="6.02813">
        <ele>409.60000610352</ele>
        <time>2016-06-15T12:57:49Z</time>
      </trkpt>
      <trkpt lat="43.42434" lon="6.02794">
        <ele>409</ele>
        <time>2016-06-15T12:57:52Z</time>
      </trkpt>
      <trkpt lat="43.42434" lon="6.02787">
        <ele>408.79998779297</ele>
        <time>2016-06-15T12:57:53Z</time>
      </trkpt>
      <trkpt lat="43.42434" lon="6.02761">
        <ele>408</ele>
        <time>2016-06-15T12:57:57Z</time>
      </trkpt>
      <trkpt lat="43.42439" lon="6.02749">
        <ele>407.39999389648</ele>
        <time>2016-06-15T12:57:59Z</time>
      </trkpt>
      <trkpt lat="43.4244" lon="6.02742">
        <ele>407.20001220703</ele>
        <time>2016-06-15T12:58:00Z</time>
      </trkpt>
      <trkpt lat="43.42443" lon="6.02728">
        <ele>406.79998779297</ele>
        <time>2016-06-15T12:58:02Z</time>
      </trkpt>
      <trkpt lat="43.42442" lon="6.02712">
        <ele>406.39999389648</ele>
        <time>2016-06-15T12:58:04Z</time>
      </trkpt>
      <trkpt lat="43.42443" lon="6.02672">
        <ele>405</ele>
        <time>2016-06-15T12:58:09Z</time>
      </trkpt>
      <trkpt lat="43.42442" lon="6.02653">
        <ele>404</ele>
        <time>2016-06-15T12:58:12Z</time>
      </trkpt>
      <trkpt lat="43.4244" lon="6.02642">
        <ele>403.60000610352</ele>
        <time>2016-06-15T12:58:14Z</time>
      </trkpt>
      <trkpt lat="43.42431" lon="6.02625">
        <ele>403</ele>
        <time>2016-06-15T12:58:19Z</time>
      </trkpt>
      <trkpt lat="43.4243" lon="6.02624">
        <ele>402.60000610352</ele>
        <time>2016-06-15T12:58:20Z</time>
      </trkpt>
      <trkpt lat="43.42429" lon="6.02624">
        <ele>402</ele>
        <time>2016-06-15T12:58:29Z</time>
      </trkpt>
      <trkpt lat="43.42429" lon="6.02624">
        <ele>402</ele>
        <time>2016-06-15T12:58:32Z</time>
      </trkpt>
      <trkpt lat="43.42429" lon="6.02624">
        <ele>402.20001220703</ele>
        <time>2016-06-15T12:58:49Z</time>
      </trkpt>
      <trkpt lat="43.42429" lon="6.02624">
        <ele>402</ele>
        <time>2016-06-15T12:59:19Z</time>
      </trkpt>
      <trkpt lat="43.42429" lon="6.02625">
        <ele>401.60000610352</ele>
        <time>2016-06-15T12:59:29Z</time>
      </trkpt>
      <trkpt lat="43.42429" lon="6.02625">
        <ele>401.60000610352</ele>
        <time>2016-06-15T12:59:49Z</time>
      </trkpt>
      <trkpt lat="43.4243" lon="6.02624">
        <ele>401.60000610352</ele>
        <time>2016-06-15T12:59:59Z</time>
      </trkpt>
      <trkpt lat="43.42431" lon="6.02625">
        <ele>401.60000610352</ele>
        <time>2016-06-15T13:00:04Z</time>
      </trkpt>
      <trkpt lat="43.42433" lon="6.02627">
        <ele>401.60000610352</ele>
        <time>2016-06-15T13:00:09Z</time>
      </trkpt>
      <trkpt lat="43.42439" lon="6.02639">
        <ele>402.60000610352</ele>
        <time>2016-06-15T13:00:17Z</time>
      </trkpt>
      <trkpt lat="43.4244" lon="6.02642">
        <ele>402.79998779297</ele>
        <time>2016-06-15T13:00:18Z</time>
      </trkpt>
      <trkpt lat="43.4244" lon="6.02645">
        <ele>403.20001220703</ele>
        <time>2016-06-15T13:00:19Z</time>
      </trkpt>
      <trkpt lat="43.42444" lon="6.02669">
        <ele>403.20001220703</ele>
        <time>2016-06-15T13:00:29Z</time>
      </trkpt>
      <trkpt lat="43.42444" lon="6.02672">
        <ele>403.39999389648</ele>
        <time>2016-06-15T13:00:36Z</time>
      </trkpt>
      <trkpt lat="43.42444" lon="6.02673">
        <ele>403.20001220703</ele>
        <time>2016-06-15T13:00:39Z</time>
      </trkpt>
      <trkpt lat="43.42443" lon="6.02668">
        <ele>403.39999389648</ele>
        <time>2016-06-15T13:00:49Z</time>
      </trkpt>
      <trkpt lat="43.42441" lon="6.02649">
        <ele>403.20001220703</ele>
        <time>2016-06-15T13:00:55Z</time>
      </trkpt>
      <trkpt lat="43.42435" lon="6.0263">
        <ele>403</ele>
        <time>2016-06-15T13:00:59Z</time>
      </trkpt>
      <trkpt lat="43.42428" lon="6.02623">
        <ele>402.79998779297</ele>
        <time>2016-06-15T13:01:01Z</time>
      </trkpt>
      <trkpt lat="43.42422" lon="6.02615">
        <ele>402.39999389648</ele>
        <time>2016-06-15T13:01:03Z</time>
      </trkpt>
      <trkpt lat="43.42421" lon="6.02585">
        <ele>403</ele>
        <time>2016-06-15T13:01:09Z</time>
      </trkpt>
      <trkpt lat="43.42422" lon="6.02571">
        <ele>403.79998779297</ele>
        <time>2016-06-15T13:01:12Z</time>
      </trkpt>
      <trkpt lat="43.42425" lon="6.02548">
        <ele>404.20001220703</ele>
        <time>2016-06-15T13:01:17Z</time>
      </trkpt>
      <trkpt lat="43.42429" lon="6.02531">
        <ele>405</ele>
        <time>2016-06-15T13:01:21Z</time>
      </trkpt>
      <trkpt lat="43.42433" lon="6.025">
        <ele>406</ele>
        <time>2016-06-15T13:01:28Z</time>
      </trkpt>
      <trkpt lat="43.42434" lon="6.02495">
        <ele>406.20001220703</ele>
        <time>2016-06-15T13:01:29Z</time>
      </trkpt>
      <trkpt lat="43.42442" lon="6.02451">
        <ele>406.39999389648</ele>
        <time>2016-06-15T13:01:38Z</time>
      </trkpt>
      <trkpt lat="43.42443" lon="6.02446">
        <ele>406.39999389648</ele>
        <time>2016-06-15T13:01:39Z</time>
      </trkpt>
      <trkpt lat="43.42462" lon="6.02401">
        <ele>406.39999389648</ele>
        <time>2016-06-15T13:01:49Z</time>
      </trkpt>
      <trkpt lat="43.4247" lon="6.02359">
        <ele>406.39999389648</ele>
        <time>2016-06-15T13:01:59Z</time>
      </trkpt>
      <trkpt lat="43.4247" lon="6.02347">
        <ele>407.20001220703</ele>
        <time>2016-06-15T13:02:03Z</time>
      </trkpt>
      <trkpt lat="43.4247" lon="6.02335">
        <ele>408.39999389648</ele>
        <time>2016-06-15T13:02:07Z</time>
      </trkpt>
      <trkpt lat="43.4247" lon="6.0233">
        <ele>408.60000610352</ele>
        <time>2016-06-15T13:02:09Z</time>
      </trkpt>
      <trkpt lat="43.42471" lon="6.0232">
        <ele>409.39999389648</ele>
        <time>2016-06-15T13:02:13Z</time>
      </trkpt>
      <trkpt lat="43.42474" lon="6.02305">
        <ele>410.79998779297</ele>
        <time>2016-06-15T13:02:19Z</time>
      </trkpt>
      <trkpt lat="43.42476" lon="6.02281">
        <ele>412.39999389648</ele>
        <time>2016-06-15T13:02:29Z</time>
      </trkpt>
      <trkpt lat="43.42476" lon="6.02273">
        <ele>412.79998779297</ele>
        <time>2016-06-15T13:02:32Z</time>
      </trkpt>
      <trkpt lat="43.42477" lon="6.02255">
        <ele>413.60000610352</ele>
        <time>2016-06-15T13:02:39Z</time>
      </trkpt>
      <trkpt lat="43.42477" lon="6.02244">
        <ele>414</ele>
        <time>2016-06-15T13:02:43Z</time>
      </trkpt>
      <trkpt lat="43.42478" lon="6.02226">
        <ele>414.39999389648</ele>
        <time>2016-06-15T13:02:49Z</time>
      </trkpt>
      <trkpt lat="43.42479" lon="6.02194">
        <ele>415</ele>
        <time>2016-06-15T13:02:59Z</time>
      </trkpt>
      <trkpt lat="43.42479" lon="6.02176">
        <ele>415.39999389648</ele>
        <time>2016-06-15T13:03:04Z</time>
      </trkpt>
      <trkpt lat="43.42479" lon="6.02157">
        <ele>415.39999389648</ele>
        <time>2016-06-15T13:03:09Z</time>
      </trkpt>
      <trkpt lat="43.42481" lon="6.02128">
        <ele>415.79998779297</ele>
        <time>2016-06-15T13:03:19Z</time>
      </trkpt>
      <trkpt lat="43.42482" lon="6.02123">
        <ele>416</ele>
        <time>2016-06-15T13:03:21Z</time>
      </trkpt>
      <trkpt lat="43.42481" lon="6.02105">
        <ele>417</ele>
        <time>2016-06-15T13:03:29Z</time>
      </trkpt>
      <trkpt lat="43.42481" lon="6.0209">
        <ele>418.20001220703</ele>
        <time>2016-06-15T13:03:36Z</time>
      </trkpt>
      <trkpt lat="43.42482" lon="6.02084">
        <ele>418.60000610352</ele>
        <time>2016-06-15T13:03:39Z</time>
      </trkpt>
      <trkpt lat="43.42482" lon="6.02063">
        <ele>420.60000610352</ele>
        <time>2016-06-15T13:03:49Z</time>
      </trkpt>
      <trkpt lat="43.42483" lon="6.02053">
        <ele>421.60000610352</ele>
        <time>2016-06-15T13:03:55Z</time>
      </trkpt>
      <trkpt lat="43.42483" lon="6.02045">
        <ele>422.20001220703</ele>
        <time>2016-06-15T13:03:59Z</time>
      </trkpt>
      <trkpt lat="43.42483" lon="6.02036">
        <ele>422.60000610352</ele>
        <time>2016-06-15T13:04:03Z</time>
      </trkpt>
      <trkpt lat="43.42481" lon="6.02025">
        <ele>423.39999389648</ele>
        <time>2016-06-15T13:04:09Z</time>
      </trkpt>
      <trkpt lat="43.42482" lon="6.02019">
        <ele>423.79998779297</ele>
        <time>2016-06-15T13:04:12Z</time>
      </trkpt>
      <trkpt lat="43.42484" lon="6.02007">
        <ele>424.39999389648</ele>
        <time>2016-06-15T13:04:19Z</time>
      </trkpt>
      <trkpt lat="43.42485" lon="6.02007">
        <ele>424.39999389648</ele>
        <time>2016-06-15T13:04:20Z</time>
      </trkpt>
      <trkpt lat="43.42488" lon="6.02005">
        <ele>424.79998779297</ele>
        <time>2016-06-15T13:04:23Z</time>
      </trkpt>
      <trkpt lat="43.42494" lon="6.02003">
        <ele>425.39999389648</ele>
        <time>2016-06-15T13:04:29Z</time>
      </trkpt>
      <trkpt lat="43.42498" lon="6.02003">
        <ele>425.79998779297</ele>
        <time>2016-06-15T13:04:33Z</time>
      </trkpt>
      <trkpt lat="43.42501" lon="6.02002">
        <ele>426.20001220703</ele>
        <time>2016-06-15T13:04:39Z</time>
      </trkpt>
      <trkpt lat="43.42501" lon="6.02002">
        <ele>426</ele>
        <time>2016-06-15T13:04:42Z</time>
      </trkpt>
      <trkpt lat="43.42501" lon="6.02003">
        <ele>426</ele>
        <time>2016-06-15T13:04:49Z</time>
      </trkpt>
      <trkpt lat="43.42501" lon="6.02003">
        <ele>426.20001220703</ele>
        <time>2016-06-15T13:05:03Z</time>
      </trkpt>
      <trkpt lat="43.42501" lon="6.02003">
        <ele>426</ele>
        <time>2016-06-15T13:05:08Z</time>
      </trkpt>
      <trkpt lat="43.42501" lon="6.02003">
        <ele>426</ele>
        <time>2016-06-15T13:05:09Z</time>
      </trkpt>
      <trkpt lat="43.42502" lon="6.02003">
        <ele>426</ele>
        <time>2016-06-15T13:05:14Z</time>
      </trkpt>
      <trkpt lat="43.42505" lon="6.02004">
        <ele>426</ele>
        <time>2016-06-15T13:05:17Z</time>
      </trkpt>
      <trkpt lat="43.42509" lon="6.02004">
        <ele>426</ele>
        <time>2016-06-15T13:05:19Z</time>
      </trkpt>
      <trkpt lat="43.42537" lon="6.02009">
        <ele>425.60000610352</ele>
        <time>2016-06-15T13:05:29Z</time>
      </trkpt>
      <trkpt lat="43.42558" lon="6.02012">
        <ele>424.79998779297</ele>
        <time>2016-06-15T13:05:34Z</time>
      </trkpt>
      <trkpt lat="43.42578" lon="6.02014">
        <ele>423.39999389648</ele>
        <time>2016-06-15T13:05:38Z</time>
      </trkpt>
      <trkpt lat="43.42583" lon="6.02016">
        <ele>422.60000610352</ele>
        <time>2016-06-15T13:05:39Z</time>
      </trkpt>
      <trkpt lat="43.42589" lon="6.02017">
        <ele>421.79998779297</ele>
        <time>2016-06-15T13:05:40Z</time>
      </trkpt>
      <trkpt lat="43.426" lon="6.02018">
        <ele>420</ele>
        <time>2016-06-15T13:05:42Z</time>
      </trkpt>
      <trkpt lat="43.42612" lon="6.0202">
        <ele>418.39999389648</ele>
        <time>2016-06-15T13:05:44Z</time>
      </trkpt>
      <trkpt lat="43.42623" lon="6.02022">
        <ele>416.60000610352</ele>
        <time>2016-06-15T13:05:46Z</time>
      </trkpt>
      <trkpt lat="43.42638" lon="6.02025">
        <ele>414.20001220703</ele>
        <time>2016-06-15T13:05:49Z</time>
      </trkpt>
      <trkpt lat="43.42643" lon="6.02026">
        <ele>413.20001220703</ele>
        <time>2016-06-15T13:05:50Z</time>
      </trkpt>
      <trkpt lat="43.42653" lon="6.02026">
        <ele>412</ele>
        <time>2016-06-15T13:05:52Z</time>
      </trkpt>
      <trkpt lat="43.42662" lon="6.02027">
        <ele>410.39999389648</ele>
        <time>2016-06-15T13:05:54Z</time>
      </trkpt>
      <trkpt lat="43.42673" lon="6.02029">
        <ele>408.79998779297</ele>
        <time>2016-06-15T13:05:56Z</time>
      </trkpt>
      <trkpt lat="43.42686" lon="6.02031">
        <ele>407</ele>
        <time>2016-06-15T13:05:58Z</time>
      </trkpt>
      <trkpt lat="43.42693" lon="6.02032">
        <ele>406</ele>
        <time>2016-06-15T13:05:59Z</time>
      </trkpt>
      <trkpt lat="43.42699" lon="6.02033">
        <ele>405</ele>
        <time>2016-06-15T13:06:00Z</time>
      </trkpt>
      <trkpt lat="43.4271" lon="6.02036">
        <ele>403.39999389648</ele>
        <time>2016-06-15T13:06:02Z</time>
      </trkpt>
      <trkpt lat="43.42722" lon="6.02037">
        <ele>401.60000610352</ele>
        <time>2016-06-15T13:06:04Z</time>
      </trkpt>
      <trkpt lat="43.42735" lon="6.02038">
        <ele>400.20001220703</ele>
        <time>2016-06-15T13:06:06Z</time>
      </trkpt>
      <trkpt lat="43.42743" lon="6.0204">
        <ele>398.79998779297</ele>
        <time>2016-06-15T13:06:08Z</time>
      </trkpt>
      <trkpt lat="43.42744" lon="6.02042">
        <ele>398.20001220703</ele>
        <time>2016-06-15T13:06:09Z</time>
      </trkpt>
      <trkpt lat="43.42743" lon="6.02046">
        <ele>397.79998779297</ele>
        <time>2016-06-15T13:06:11Z</time>
      </trkpt>
      <trkpt lat="43.42741" lon="6.02064">
        <ele>397.60000610352</ele>
        <time>2016-06-15T13:06:16Z</time>
      </trkpt>
      <trkpt lat="43.42738" lon="6.02077">
        <ele>397.60000610352</ele>
        <time>2016-06-15T13:06:19Z</time>
      </trkpt>
      <trkpt lat="43.42736" lon="6.02101">
        <ele>397.60000610352</ele>
        <time>2016-06-15T13:06:24Z</time>
      </trkpt>
      <trkpt lat="43.42731" lon="6.02125">
        <ele>397.20001220703</ele>
        <time>2016-06-15T13:06:29Z</time>
      </trkpt>
      <trkpt lat="43.42723" lon="6.02148">
        <ele>396.60000610352</ele>
        <time>2016-06-15T13:06:34Z</time>
      </trkpt>
      <trkpt lat="43.42719" lon="6.02155">
        <ele>395.39999389648</ele>
        <time>2016-06-15T13:06:38Z</time>
      </trkpt>
      <trkpt lat="43.42719" lon="6.02155">
        <ele>395.20001220703</ele>
        <time>2016-06-15T13:06:39Z</time>
      </trkpt>
      <trkpt lat="43.42719" lon="6.02156">
        <ele>394.79998779297</ele>
        <time>2016-06-15T13:06:43Z</time>
      </trkpt>
      <trkpt lat="43.42719" lon="6.02156">
        <ele>395</ele>
        <time>2016-06-15T13:06:49Z</time>
      </trkpt>
      <trkpt lat="43.42719" lon="6.02156">
        <ele>395</ele>
        <time>2016-06-15T13:06:59Z</time>
      </trkpt>
      <trkpt lat="43.42719" lon="6.02157">
        <ele>395</ele>
        <time>2016-06-15T13:07:05Z</time>
      </trkpt>
      <trkpt lat="43.42719" lon="6.02159">
        <ele>395</ele>
        <time>2016-06-15T13:07:07Z</time>
      </trkpt>
      <trkpt lat="43.42719" lon="6.02164">
        <ele>395</ele>
        <time>2016-06-15T13:07:09Z</time>
      </trkpt>
      <trkpt lat="43.42731" lon="6.0218">
        <ele>394.20001220703</ele>
        <time>2016-06-15T13:07:14Z</time>
      </trkpt>
      <trkpt lat="43.42741" lon="6.02184">
        <ele>393</ele>
        <time>2016-06-15T13:07:17Z</time>
      </trkpt>
      <trkpt lat="43.42747" lon="6.02188">
        <ele>392</ele>
        <time>2016-06-15T13:07:19Z</time>
      </trkpt>
      <trkpt lat="43.42751" lon="6.0219">
        <ele>391.79998779297</ele>
        <time>2016-06-15T13:07:20Z</time>
      </trkpt>
      <trkpt lat="43.42759" lon="6.02196">
        <ele>390.60000610352</ele>
        <time>2016-06-15T13:07:23Z</time>
      </trkpt>
      <trkpt lat="43.42765" lon="6.02202">
        <ele>389.39999389648</ele>
        <time>2016-06-15T13:07:26Z</time>
      </trkpt>
      <trkpt lat="43.4277" lon="6.02212">
        <ele>388.60000610352</ele>
        <time>2016-06-15T13:07:29Z</time>
      </trkpt>
      <trkpt lat="43.42773" lon="6.02222">
        <ele>388.20001220703</ele>
        <time>2016-06-15T13:07:32Z</time>
      </trkpt>
      <trkpt lat="43.42779" lon="6.02236">
        <ele>386.79998779297</ele>
        <time>2016-06-15T13:07:36Z</time>
      </trkpt>
      <trkpt lat="43.42783" lon="6.02243">
        <ele>386.20001220703</ele>
        <time>2016-06-15T13:07:39Z</time>
      </trkpt>
      <trkpt lat="43.42787" lon="6.02247">
        <ele>385.60000610352</ele>
        <time>2016-06-15T13:07:41Z</time>
      </trkpt>
      <trkpt lat="43.42795" lon="6.0226">
        <ele>385</ele>
        <time>2016-06-15T13:07:45Z</time>
      </trkpt>
      <trkpt lat="43.42794" lon="6.02267">
        <ele>384.60000610352</ele>
        <time>2016-06-15T13:07:47Z</time>
      </trkpt>
      <trkpt lat="43.4279" lon="6.02275">
        <ele>384.20001220703</ele>
        <time>2016-06-15T13:07:49Z</time>
      </trkpt>
      <trkpt lat="43.42788" lon="6.02287">
        <ele>383.60000610352</ele>
        <time>2016-06-15T13:07:52Z</time>
      </trkpt>
      <trkpt lat="43.42789" lon="6.0229">
        <ele>383.39999389648</ele>
        <time>2016-06-15T13:07:53Z</time>
      </trkpt>
      <trkpt lat="43.42795" lon="6.0229">
        <ele>382.39999389648</ele>
        <time>2016-06-15T13:07:56Z</time>
      </trkpt>
      <trkpt lat="43.42802" lon="6.02292">
        <ele>382.20001220703</ele>
        <time>2016-06-15T13:07:58Z</time>
      </trkpt>
      <trkpt lat="43.42806" lon="6.02298">
        <ele>381.79998779297</ele>
        <time>2016-06-15T13:08:00Z</time>
      </trkpt>
      <trkpt lat="43.42805" lon="6.02316">
        <ele>381.39999389648</ele>
        <time>2016-06-15T13:08:04Z</time>
      </trkpt>
      <trkpt lat="43.428" lon="6.02332">
        <ele>380.79998779297</ele>
        <time>2016-06-15T13:08:07Z</time>
      </trkpt>
      <trkpt lat="43.42798" lon="6.02337">
        <ele>380.39999389648</ele>
        <time>2016-06-15T13:08:08Z</time>
      </trkpt>
      <trkpt lat="43.42796" lon="6.02341">
        <ele>380</ele>
        <time>2016-06-15T13:08:09Z</time>
      </trkpt>
      <trkpt lat="43.42789" lon="6.02354">
        <ele>379.20001220703</ele>
        <time>2016-06-15T13:08:12Z</time>
      </trkpt>
      <trkpt lat="43.42788" lon="6.02358">
        <ele>379</ele>
        <time>2016-06-15T13:08:13Z</time>
      </trkpt>
      <trkpt lat="43.42789" lon="6.02364">
        <ele>378.60000610352</ele>
        <time>2016-06-15T13:08:15Z</time>
      </trkpt>
      <trkpt lat="43.42791" lon="6.02372">
        <ele>378</ele>
        <time>2016-06-15T13:08:17Z</time>
      </trkpt>
      <trkpt lat="43.42793" lon="6.02378">
        <ele>377.20001220703</ele>
        <time>2016-06-15T13:08:19Z</time>
      </trkpt>
      <trkpt lat="43.42795" lon="6.02381">
        <ele>376.79998779297</ele>
        <time>2016-06-15T13:08:20Z</time>
      </trkpt>
      <trkpt lat="43.42799" lon="6.02391">
        <ele>375.60000610352</ele>
        <time>2016-06-15T13:08:23Z</time>
      </trkpt>
      <trkpt lat="43.42805" lon="6.02412">
        <ele>374.60000610352</ele>
        <time>2016-06-15T13:08:28Z</time>
      </trkpt>
      <trkpt lat="43.42805" lon="6.02417">
        <ele>374.39999389648</ele>
        <time>2016-06-15T13:08:29Z</time>
      </trkpt>
      <trkpt lat="43.42802" lon="6.0244">
        <ele>373.39999389648</ele>
        <time>2016-06-15T13:08:33Z</time>
      </trkpt>
      <trkpt lat="43.42802" lon="6.02449">
        <ele>373</ele>
        <time>2016-06-15T13:08:35Z</time>
      </trkpt>
      <trkpt lat="43.42805" lon="6.02456">
        <ele>372.20001220703</ele>
        <time>2016-06-15T13:08:37Z</time>
      </trkpt>
      <trkpt lat="43.42807" lon="6.02463">
        <ele>371.20001220703</ele>
        <time>2016-06-15T13:08:39Z</time>
      </trkpt>
      <trkpt lat="43.42807" lon="6.02467">
        <ele>370.79998779297</ele>
        <time>2016-06-15T13:08:40Z</time>
      </trkpt>
      <trkpt lat="43.428" lon="6.02501">
        <ele>368.79998779297</ele>
        <time>2016-06-15T13:08:49Z</time>
      </trkpt>
      <trkpt lat="43.42799" lon="6.02509">
        <ele>368.20001220703</ele>
        <time>2016-06-15T13:08:51Z</time>
      </trkpt>
      <trkpt lat="43.42802" lon="6.02515">
        <ele>367.60000610352</ele>
        <time>2016-06-15T13:08:53Z</time>
      </trkpt>
      <trkpt lat="43.42807" lon="6.02519">
        <ele>367.20001220703</ele>
        <time>2016-06-15T13:08:55Z</time>
      </trkpt>
      <trkpt lat="43.42813" lon="6.02519">
        <ele>366.60000610352</ele>
        <time>2016-06-15T13:08:57Z</time>
      </trkpt>
      <trkpt lat="43.42819" lon="6.02517">
        <ele>366.20001220703</ele>
        <time>2016-06-15T13:08:59Z</time>
      </trkpt>
      <trkpt lat="43.42831" lon="6.0252">
        <ele>365.60000610352</ele>
        <time>2016-06-15T13:09:02Z</time>
      </trkpt>
      <trkpt lat="43.42852" lon="6.02545">
        <ele>365</ele>
        <time>2016-06-15T13:09:09Z</time>
      </trkpt>
      <trkpt lat="43.42862" lon="6.02552">
        <ele>364.60000610352</ele>
        <time>2016-06-15T13:09:12Z</time>
      </trkpt>
      <trkpt lat="43.42871" lon="6.02564">
        <ele>363.20001220703</ele>
        <time>2016-06-15T13:09:15Z</time>
      </trkpt>
      <trkpt lat="43.42883" lon="6.02581">
        <ele>362.39999389648</ele>
        <time>2016-06-15T13:09:19Z</time>
      </trkpt>
      <trkpt lat="43.42888" lon="6.0259">
        <ele>362</ele>
        <time>2016-06-15T13:09:21Z</time>
      </trkpt>
      <trkpt lat="43.42894" lon="6.02601">
        <ele>360.39999389648</ele>
        <time>2016-06-15T13:09:24Z</time>
      </trkpt>
      <trkpt lat="43.42894" lon="6.02612">
        <ele>359.20001220703</ele>
        <time>2016-06-15T13:09:27Z</time>
      </trkpt>
      <trkpt lat="43.42896" lon="6.0262">
        <ele>358.79998779297</ele>
        <time>2016-06-15T13:09:29Z</time>
      </trkpt>
      <trkpt lat="43.429" lon="6.0265">
        <ele>358.20001220703</ele>
        <time>2016-06-15T13:09:35Z</time>
      </trkpt>
      <trkpt lat="43.42908" lon="6.02664">
        <ele>357.39999389648</ele>
        <time>2016-06-15T13:09:39Z</time>
      </trkpt>
      <trkpt lat="43.42911" lon="6.02666">
        <ele>357.20001220703</ele>
        <time>2016-06-15T13:09:40Z</time>
      </trkpt>
      <trkpt lat="43.42921" lon="6.02674">
        <ele>356.20001220703</ele>
        <time>2016-06-15T13:09:44Z</time>
      </trkpt>
      <trkpt lat="43.42923" lon="6.02678">
        <ele>355.79998779297</ele>
        <time>2016-06-15T13:09:45Z</time>
      </trkpt>
      <trkpt lat="43.42924" lon="6.02682">
        <ele>355.39999389648</ele>
        <time>2016-06-15T13:09:46Z</time>
      </trkpt>
      <trkpt lat="43.42925" lon="6.02699">
        <ele>354.79998779297</ele>
        <time>2016-06-15T13:09:49Z</time>
      </trkpt>
      <trkpt lat="43.4293" lon="6.02721">
        <ele>353.60000610352</ele>
        <time>2016-06-15T13:09:54Z</time>
      </trkpt>
      <trkpt lat="43.42946" lon="6.02738">
        <ele>352.60000610352</ele>
        <time>2016-06-15T13:09:59Z</time>
      </trkpt>
      <trkpt lat="43.4295" lon="6.02743">
        <ele>352.39999389648</ele>
        <time>2016-06-15T13:10:00Z</time>
      </trkpt>
      <trkpt lat="43.42957" lon="6.02752">
        <ele>351.79998779297</ele>
        <time>2016-06-15T13:10:02Z</time>
      </trkpt>
      <trkpt lat="43.42963" lon="6.02761">
        <ele>351.20001220703</ele>
        <time>2016-06-15T13:10:04Z</time>
      </trkpt>
      <trkpt lat="43.42966" lon="6.02766">
        <ele>350.79998779297</ele>
        <time>2016-06-15T13:10:05Z</time>
      </trkpt>
      <trkpt lat="43.42974" lon="6.02775">
        <ele>350.20001220703</ele>
        <time>2016-06-15T13:10:07Z</time>
      </trkpt>
      <trkpt lat="43.42977" lon="6.0278">
        <ele>349.79998779297</ele>
        <time>2016-06-15T13:10:08Z</time>
      </trkpt>
      <trkpt lat="43.42981" lon="6.02785">
        <ele>349.60000610352</ele>
        <time>2016-06-15T13:10:09Z</time>
      </trkpt>
      <trkpt lat="43.42986" lon="6.028">
        <ele>348.60000610352</ele>
        <time>2016-06-15T13:10:12Z</time>
      </trkpt>
      <trkpt lat="43.42986" lon="6.02805">
        <ele>348.20001220703</ele>
        <time>2016-06-15T13:10:13Z</time>
      </trkpt>
      <trkpt lat="43.42986" lon="6.02816">
        <ele>347.39999389648</ele>
        <time>2016-06-15T13:10:15Z</time>
      </trkpt>
      <trkpt lat="43.42986" lon="6.02826">
        <ele>346.79998779297</ele>
        <time>2016-06-15T13:10:17Z</time>
      </trkpt>
      <trkpt lat="43.42987" lon="6.0283">
        <ele>346.39999389648</ele>
        <time>2016-06-15T13:10:18Z</time>
      </trkpt>
      <trkpt lat="43.42989" lon="6.02834">
        <ele>346</ele>
        <time>2016-06-15T13:10:19Z</time>
      </trkpt>
      <trkpt lat="43.42997" lon="6.02856">
        <ele>345.20001220703</ele>
        <time>2016-06-15T13:10:24Z</time>
      </trkpt>
      <trkpt lat="43.43013" lon="6.02861">
        <ele>344.20001220703</ele>
        <time>2016-06-15T13:10:29Z</time>
      </trkpt>
      <trkpt lat="43.4303" lon="6.02874">
        <ele>343.20001220703</ele>
        <time>2016-06-15T13:10:33Z</time>
      </trkpt>
      <trkpt lat="43.43046" lon="6.02889">
        <ele>342</ele>
        <time>2016-06-15T13:10:38Z</time>
      </trkpt>
      <trkpt lat="43.43049" lon="6.02894">
        <ele>341.79998779297</ele>
        <time>2016-06-15T13:10:39Z</time>
      </trkpt>
      <trkpt lat="43.4306" lon="6.02906">
        <ele>341</ele>
        <time>2016-06-15T13:10:42Z</time>
      </trkpt>
      <trkpt lat="43.43082" lon="6.02937">
        <ele>340</ele>
        <time>2016-06-15T13:10:49Z</time>
      </trkpt>
      <trkpt lat="43.43085" lon="6.0294">
        <ele>339.79998779297</ele>
        <time>2016-06-15T13:10:50Z</time>
      </trkpt>
      <trkpt lat="43.43095" lon="6.02957">
        <ele>338.79998779297</ele>
        <time>2016-06-15T13:10:54Z</time>
      </trkpt>
      <trkpt lat="43.43107" lon="6.02975">
        <ele>337.20001220703</ele>
        <time>2016-06-15T13:10:59Z</time>
      </trkpt>
      <trkpt lat="43.43114" lon="6.02985">
        <ele>336.60000610352</ele>
        <time>2016-06-15T13:11:02Z</time>
      </trkpt>
      <trkpt lat="43.43124" lon="6.03008">
        <ele>335.39999389648</ele>
        <time>2016-06-15T13:11:07Z</time>
      </trkpt>
      <trkpt lat="43.43128" lon="6.03016">
        <ele>335.20001220703</ele>
        <time>2016-06-15T13:11:09Z</time>
      </trkpt>
      <trkpt lat="43.43137" lon="6.03041">
        <ele>334.20001220703</ele>
        <time>2016-06-15T13:11:15Z</time>
      </trkpt>
      <trkpt lat="43.43139" lon="6.03062">
        <ele>333</ele>
        <time>2016-06-15T13:11:19Z</time>
      </trkpt>
      <trkpt lat="43.43135" lon="6.03083">
        <ele>331.79998779297</ele>
        <time>2016-06-15T13:11:22Z</time>
      </trkpt>
      <trkpt lat="43.43134" lon="6.03091">
        <ele>331.60000610352</ele>
        <time>2016-06-15T13:11:23Z</time>
      </trkpt>
      <trkpt lat="43.43134" lon="6.03108">
        <ele>331.39999389648</ele>
        <time>2016-06-15T13:11:25Z</time>
      </trkpt>
      <trkpt lat="43.43134" lon="6.03117">
        <ele>331.39999389648</ele>
        <time>2016-06-15T13:11:26Z</time>
      </trkpt>
      <trkpt lat="43.43132" lon="6.03135">
        <ele>331.39999389648</ele>
        <time>2016-06-15T13:11:28Z</time>
      </trkpt>
      <trkpt lat="43.43132" lon="6.03145">
        <ele>331.39999389648</ele>
        <time>2016-06-15T13:11:29Z</time>
      </trkpt>
      <trkpt lat="43.43132" lon="6.03165">
        <ele>331.39999389648</ele>
        <time>2016-06-15T13:11:31Z</time>
      </trkpt>
      <trkpt lat="43.43132" lon="6.03185">
        <ele>330.60000610352</ele>
        <time>2016-06-15T13:11:34Z</time>
      </trkpt>
      <trkpt lat="43.43132" lon="6.0319">
        <ele>330.79998779297</ele>
        <time>2016-06-15T13:11:36Z</time>
      </trkpt>
      <trkpt lat="43.43132" lon="6.03194">
        <ele>331.60000610352</ele>
        <time>2016-06-15T13:11:38Z</time>
      </trkpt>
      <trkpt lat="43.43132" lon="6.03194">
        <ele>332</ele>
        <time>2016-06-15T13:11:39Z</time>
      </trkpt>
      <trkpt lat="43.43131" lon="6.03193">
        <ele>333</ele>
        <time>2016-06-15T13:11:43Z</time>
      </trkpt>
      <trkpt lat="43.43131" lon="6.03194">
        <ele>333</ele>
        <time>2016-06-15T13:11:47Z</time>
      </trkpt>
      <trkpt lat="43.43131" lon="6.03193">
        <ele>333</ele>
        <time>2016-06-15T13:11:49Z</time>
      </trkpt>
      <trkpt lat="43.43132" lon="6.03189">
        <ele>332.20001220703</ele>
        <time>2016-06-15T13:11:55Z</time>
      </trkpt>
      <trkpt lat="43.43133" lon="6.03188">
        <ele>332.20001220703</ele>
        <time>2016-06-15T13:11:59Z</time>
      </trkpt>
      <trkpt lat="43.43132" lon="6.03182">
        <ele>331.79998779297</ele>
        <time>2016-06-15T13:12:08Z</time>
      </trkpt>
      <trkpt lat="43.43132" lon="6.03179">
        <ele>331.60000610352</ele>
        <time>2016-06-15T13:12:09Z</time>
      </trkpt>
      <trkpt lat="43.43132" lon="6.03163">
        <ele>330.60000610352</ele>
        <time>2016-06-15T13:12:12Z</time>
      </trkpt>
      <trkpt lat="43.43134" lon="6.03139">
        <ele>329.60000610352</ele>
        <time>2016-06-15T13:12:17Z</time>
      </trkpt>
      <trkpt lat="43.43135" lon="6.03133">
        <ele>329.60000610352</ele>
        <time>2016-06-15T13:12:19Z</time>
      </trkpt>
      <trkpt lat="43.43137" lon="6.03115">
        <ele>330</ele>
        <time>2016-06-15T13:12:27Z</time>
      </trkpt>
      <trkpt lat="43.43137" lon="6.03112">
        <ele>330.20001220703</ele>
        <time>2016-06-15T13:12:29Z</time>
      </trkpt>
      <trkpt lat="43.43138" lon="6.03105">
        <ele>330.20001220703</ele>
        <time>2016-06-15T13:12:33Z</time>
      </trkpt>
      <trkpt lat="43.43138" lon="6.03098">
        <ele>330.20001220703</ele>
        <time>2016-06-15T13:12:38Z</time>
      </trkpt>
      <trkpt lat="43.43138" lon="6.03098">
        <ele>330.20001220703</ele>
        <time>2016-06-15T13:12:39Z</time>
      </trkpt>
      <trkpt lat="43.43137" lon="6.03098">
        <ele>330.20001220703</ele>
        <time>2016-06-15T13:12:49Z</time>
      </trkpt>
      <trkpt lat="43.43137" lon="6.03098">
        <ele>330.20001220703</ele>
        <time>2016-06-15T13:12:54Z</time>
      </trkpt>
      <trkpt lat="43.43137" lon="6.03099">
        <ele>330.20001220703</ele>
        <time>2016-06-15T13:12:58Z</time>
      </trkpt>
      <trkpt lat="43.43137" lon="6.031">
        <ele>330.20001220703</ele>
        <time>2016-06-15T13:12:59Z</time>
      </trkpt>
      <trkpt lat="43.43134" lon="6.03121">
        <ele>330.79998779297</ele>
        <time>2016-06-15T13:13:07Z</time>
      </trkpt>
      <trkpt lat="43.43134" lon="6.0313">
        <ele>330.79998779297</ele>
        <time>2016-06-15T13:13:09Z</time>
      </trkpt>
      <trkpt lat="43.43132" lon="6.03179">
        <ele>330</ele>
        <time>2016-06-15T13:13:19Z</time>
      </trkpt>
      <trkpt lat="43.43132" lon="6.03186">
        <ele>330.79998779297</ele>
        <time>2016-06-15T13:13:22Z</time>
      </trkpt>
      <trkpt lat="43.43132" lon="6.0319">
        <ele>331.79998779297</ele>
        <time>2016-06-15T13:13:24Z</time>
      </trkpt>
      <trkpt lat="43.43132" lon="6.03196">
        <ele>332.79998779297</ele>
        <time>2016-06-15T13:13:27Z</time>
      </trkpt>
      <trkpt lat="43.43132" lon="6.03201">
        <ele>333.39999389648</ele>
        <time>2016-06-15T13:13:29Z</time>
      </trkpt>
      <trkpt lat="43.43131" lon="6.03205">
        <ele>334.20001220703</ele>
        <time>2016-06-15T13:13:31Z</time>
      </trkpt>
      <trkpt lat="43.43129" lon="6.03214">
        <ele>335.39999389648</ele>
        <time>2016-06-15T13:13:35Z</time>
      </trkpt>
      <trkpt lat="43.43129" lon="6.03219">
        <ele>336</ele>
        <time>2016-06-15T13:13:37Z</time>
      </trkpt>
      <trkpt lat="43.43128" lon="6.03223">
        <ele>336.39999389648</ele>
        <time>2016-06-15T13:13:39Z</time>
      </trkpt>
      <trkpt lat="43.43128" lon="6.03224">
        <ele>336.39999389648</ele>
        <time>2016-06-15T13:13:40Z</time>
      </trkpt>
      <trkpt lat="43.43128" lon="6.03225">
        <ele>336.39999389648</ele>
        <time>2016-06-15T13:13:41Z</time>
      </trkpt>
      <trkpt lat="43.43129" lon="6.03227">
        <ele>336.79998779297</ele>
        <time>2016-06-15T13:13:46Z</time>
      </trkpt>
      <trkpt lat="43.43129" lon="6.03227">
        <ele>336.79998779297</ele>
        <time>2016-06-15T13:13:48Z</time>
      </trkpt>
      <trkpt lat="43.43129" lon="6.03227">
        <ele>337</ele>
        <time>2016-06-15T13:13:52Z</time>
      </trkpt>
      <trkpt lat="43.43129" lon="6.03227">
        <ele>337</ele>
        <time>2016-06-15T13:13:57Z</time>
      </trkpt>
      <trkpt lat="43.43129" lon="6.03227">
        <ele>337</ele>
        <time>2016-06-15T13:13:59Z</time>
      </trkpt>
      <trkpt lat="43.4313" lon="6.03227">
        <ele>337</ele>
        <time>2016-06-15T13:14:09Z</time>
      </trkpt>
      <trkpt lat="43.4313" lon="6.03227">
        <ele>337</ele>
        <time>2016-06-15T13:14:13Z</time>
      </trkpt>
      <trkpt lat="43.4313" lon="6.03227">
        <ele>337.20001220703</ele>
        <time>2016-06-15T13:14:19Z</time>
      </trkpt>
      <trkpt lat="43.4313" lon="6.03227">
        <ele>337.20001220703</ele>
        <time>2016-06-15T13:14:25Z</time>
      </trkpt>
      <trkpt lat="43.4313" lon="6.03227">
        <ele>337.20001220703</ele>
        <time>2016-06-15T13:14:27Z</time>
      </trkpt>
      <trkpt lat="43.4313" lon="6.03227">
        <ele>337</ele>
        <time>2016-06-15T13:14:32Z</time>
      </trkpt>
      <trkpt lat="43.4313" lon="6.03227">
        <ele>337.20001220703</ele>
        <time>2016-06-15T13:14:38Z</time>
      </trkpt>
      <trkpt lat="43.4313" lon="6.03227">
        <ele>337.20001220703</ele>
        <time>2016-06-15T13:14:39Z</time>
      </trkpt>
      <trkpt lat="43.4313" lon="6.03228">
        <ele>337.20001220703</ele>
        <time>2016-06-15T13:14:47Z</time>
      </trkpt>
      <trkpt lat="43.4313" lon="6.03228">
        <ele>337.20001220703</ele>
        <time>2016-06-15T13:14:49Z</time>
      </trkpt>
      <trkpt lat="43.4313" lon="6.03227">
        <ele>337.20001220703</ele>
        <time>2016-06-15T13:15:09Z</time>
      </trkpt>
      <trkpt lat="43.43129" lon="6.03229">
        <ele>337.20001220703</ele>
        <time>2016-06-15T13:15:22Z</time>
      </trkpt>
      <trkpt lat="43.43129" lon="6.03235">
        <ele>337.60000610352</ele>
        <time>2016-06-15T13:15:25Z</time>
      </trkpt>
      <trkpt lat="43.43129" lon="6.03245">
        <ele>337.39999389648</ele>
        <time>2016-06-15T13:15:29Z</time>
      </trkpt>
      <trkpt lat="43.43128" lon="6.03258">
        <ele>337.39999389648</ele>
        <time>2016-06-15T13:15:33Z</time>
      </trkpt>
      <trkpt lat="43.43126" lon="6.0329">
        <ele>337.60000610352</ele>
        <time>2016-06-15T13:15:39Z</time>
      </trkpt>
      <trkpt lat="43.43124" lon="6.03321">
        <ele>337</ele>
        <time>2016-06-15T13:15:43Z</time>
      </trkpt>
      <trkpt lat="43.43121" lon="6.03343">
        <ele>336.20001220703</ele>
        <time>2016-06-15T13:15:46Z</time>
      </trkpt>
      <trkpt lat="43.43121" lon="6.03365">
        <ele>335.60000610352</ele>
        <time>2016-06-15T13:15:49Z</time>
      </trkpt>
      <trkpt lat="43.43119" lon="6.03398">
        <ele>334.79998779297</ele>
        <time>2016-06-15T13:15:53Z</time>
      </trkpt>
      <trkpt lat="43.43117" lon="6.03424">
        <ele>334.60000610352</ele>
        <time>2016-06-15T13:15:56Z</time>
      </trkpt>
      <trkpt lat="43.43115" lon="6.03448">
        <ele>334</ele>
        <time>2016-06-15T13:15:59Z</time>
      </trkpt>
      <trkpt lat="43.4311" lon="6.03487">
        <ele>333.20001220703</ele>
        <time>2016-06-15T13:16:04Z</time>
      </trkpt>
      <trkpt lat="43.43108" lon="6.03528">
        <ele>333</ele>
        <time>2016-06-15T13:16:09Z</time>
      </trkpt>
      <trkpt lat="43.43106" lon="6.03563">
        <ele>331.79998779297</ele>
        <time>2016-06-15T13:16:13Z</time>
      </trkpt>
      <trkpt lat="43.43103" lon="6.03614">
        <ele>330.39999389648</ele>
        <time>2016-06-15T13:16:19Z</time>
      </trkpt>
      <trkpt lat="43.43101" lon="6.0364">
        <ele>329.20001220703</ele>
        <time>2016-06-15T13:16:22Z</time>
      </trkpt>
      <trkpt lat="43.43097" lon="6.03695">
        <ele>328.39999389648</ele>
        <time>2016-06-15T13:16:29Z</time>
      </trkpt>
      <trkpt lat="43.43096" lon="6.03708">
        <ele>328.20001220703</ele>
        <time>2016-06-15T13:16:31Z</time>
      </trkpt>
      <trkpt lat="43.43096" lon="6.03724">
        <ele>327.20001220703</ele>
        <time>2016-06-15T13:16:35Z</time>
      </trkpt>
      <trkpt lat="43.43097" lon="6.03726">
        <ele>327</ele>
        <time>2016-06-15T13:16:36Z</time>
      </trkpt>
      <trkpt lat="43.43103" lon="6.03726">
        <ele>326.60000610352</ele>
        <time>2016-06-15T13:16:39Z</time>
      </trkpt>
      <trkpt lat="43.43114" lon="6.03735">
        <ele>326</ele>
        <time>2016-06-15T13:16:44Z</time>
      </trkpt>
      <trkpt lat="43.4312" lon="6.03744">
        <ele>325.39999389648</ele>
        <time>2016-06-15T13:16:47Z</time>
      </trkpt>
      <trkpt lat="43.43124" lon="6.03745">
        <ele>325</ele>
        <time>2016-06-15T13:16:49Z</time>
      </trkpt>
      <trkpt lat="43.43126" lon="6.03746">
        <ele>325</ele>
        <time>2016-06-15T13:16:50Z</time>
      </trkpt>
      <trkpt lat="43.43129" lon="6.03752">
        <ele>325</ele>
        <time>2016-06-15T13:16:52Z</time>
      </trkpt>
      <trkpt lat="43.43126" lon="6.03769">
        <ele>324.60000610352</ele>
        <time>2016-06-15T13:16:57Z</time>
      </trkpt>
      <trkpt lat="43.43129" lon="6.03775">
        <ele>324.39999389648</ele>
        <time>2016-06-15T13:16:59Z</time>
      </trkpt>
      <trkpt lat="43.43135" lon="6.0379">
        <ele>324</ele>
        <time>2016-06-15T13:17:03Z</time>
      </trkpt>
      <trkpt lat="43.43136" lon="6.03795">
        <ele>324</ele>
        <time>2016-06-15T13:17:04Z</time>
      </trkpt>
      <trkpt lat="43.43137" lon="6.03822">
        <ele>323.79998779297</ele>
        <time>2016-06-15T13:17:09Z</time>
      </trkpt>
      <trkpt lat="43.4314" lon="6.03838">
        <ele>323.79998779297</ele>
        <time>2016-06-15T13:17:12Z</time>
      </trkpt>
      <trkpt lat="43.43143" lon="6.03849">
        <ele>323.39999389648</ele>
        <time>2016-06-15T13:17:14Z</time>
      </trkpt>
      <trkpt lat="43.43142" lon="6.03868">
        <ele>322.60000610352</ele>
        <time>2016-06-15T13:17:17Z</time>
      </trkpt>
      <trkpt lat="43.43143" lon="6.03881">
        <ele>322.20001220703</ele>
        <time>2016-06-15T13:17:19Z</time>
      </trkpt>
      <trkpt lat="43.43142" lon="6.03889">
        <ele>321.79998779297</ele>
        <time>2016-06-15T13:17:21Z</time>
      </trkpt>
      <trkpt lat="43.43141" lon="6.03891">
        <ele>321.60000610352</ele>
        <time>2016-06-15T13:17:22Z</time>
      </trkpt>
      <trkpt lat="43.4314" lon="6.03898">
        <ele>321.39999389648</ele>
        <time>2016-06-15T13:17:24Z</time>
      </trkpt>
      <trkpt lat="43.43142" lon="6.03911">
        <ele>320.79998779297</ele>
        <time>2016-06-15T13:17:28Z</time>
      </trkpt>
      <trkpt lat="43.43142" lon="6.03914">
        <ele>320.79998779297</ele>
        <time>2016-06-15T13:17:29Z</time>
      </trkpt>
      <trkpt lat="43.4314" lon="6.0392">
        <ele>320.60000610352</ele>
        <time>2016-06-15T13:17:31Z</time>
      </trkpt>
      <trkpt lat="43.43126" lon="6.03949">
        <ele>319.60000610352</ele>
        <time>2016-06-15T13:17:39Z</time>
      </trkpt>
      <trkpt lat="43.43122" lon="6.03958">
        <ele>319.60000610352</ele>
        <time>2016-06-15T13:17:41Z</time>
      </trkpt>
      <trkpt lat="43.43107" lon="6.03988">
        <ele>319</ele>
        <time>2016-06-15T13:17:49Z</time>
      </trkpt>
      <trkpt lat="43.431" lon="6.04006">
        <ele>318.79998779297</ele>
        <time>2016-06-15T13:17:53Z</time>
      </trkpt>
      <trkpt lat="43.43082" lon="6.04031">
        <ele>318.79998779297</ele>
        <time>2016-06-15T13:17:59Z</time>
      </trkpt>
      <trkpt lat="43.43082" lon="6.04045">
        <ele>318.39999389648</ele>
        <time>2016-06-15T13:18:02Z</time>
      </trkpt>
      <trkpt lat="43.43081" lon="6.04052">
        <ele>317.60000610352</ele>
        <time>2016-06-15T13:18:09Z</time>
      </trkpt>
      <trkpt lat="43.43081" lon="6.04052">
        <ele>317.39999389648</ele>
        <time>2016-06-15T13:18:18Z</time>
      </trkpt>
      <trkpt lat="43.43081" lon="6.04052">
        <ele>317.39999389648</ele>
        <time>2016-06-15T13:18:19Z</time>
      </trkpt>
      <trkpt lat="43.43081" lon="6.04052">
        <ele>317.60000610352</ele>
        <time>2016-06-15T13:18:28Z</time>
      </trkpt>
      <trkpt lat="43.43081" lon="6.04052">
        <ele>317.60000610352</ele>
        <time>2016-06-15T13:18:49Z</time>
      </trkpt>
      <trkpt lat="43.43081" lon="6.04052">
        <ele>317.39999389648</ele>
        <time>2016-06-15T13:18:59Z</time>
      </trkpt>
      <trkpt lat="43.43081" lon="6.04052">
        <ele>317.39999389648</ele>
        <time>2016-06-15T13:19:09Z</time>
      </trkpt>
      <trkpt lat="43.43081" lon="6.04052">
        <ele>317.20001220703</ele>
        <time>2016-06-15T13:19:19Z</time>
      </trkpt>
      <trkpt lat="43.43081" lon="6.04052">
        <ele>317.20001220703</ele>
        <time>2016-06-15T13:19:29Z</time>
      </trkpt>
      <trkpt lat="43.43081" lon="6.04052">
        <ele>317.20001220703</ele>
        <time>2016-06-15T13:19:36Z</time>
      </trkpt>
      <trkpt lat="43.43082" lon="6.04059">
        <ele>317</ele>
        <time>2016-06-15T13:19:39Z</time>
      </trkpt>
      <trkpt lat="43.43083" lon="6.04077">
        <ele>316.39999389648</ele>
        <time>2016-06-15T13:19:43Z</time>
      </trkpt>
      <trkpt lat="43.43082" lon="6.04101">
        <ele>316.39999389648</ele>
        <time>2016-06-15T13:19:47Z</time>
      </trkpt>
      <trkpt lat="43.4308" lon="6.04113">
        <ele>316.20001220703</ele>
        <time>2016-06-15T13:19:49Z</time>
      </trkpt>
      <trkpt lat="43.43074" lon="6.04137">
        <ele>316</ele>
        <time>2016-06-15T13:19:53Z</time>
      </trkpt>
      <trkpt lat="43.43075" lon="6.04167">
        <ele>315.39999389648</ele>
        <time>2016-06-15T13:19:58Z</time>
      </trkpt>
      <trkpt lat="43.43075" lon="6.04173">
        <ele>315.20001220703</ele>
        <time>2016-06-15T13:19:59Z</time>
      </trkpt>
      <trkpt lat="43.43074" lon="6.04179">
        <ele>315</ele>
        <time>2016-06-15T13:20:00Z</time>
      </trkpt>
      <trkpt lat="43.4307" lon="6.04202">
        <ele>314.39999389648</ele>
        <time>2016-06-15T13:20:04Z</time>
      </trkpt>
      <trkpt lat="43.43081" lon="6.04226">
        <ele>313.79998779297</ele>
        <time>2016-06-15T13:20:09Z</time>
      </trkpt>
      <trkpt lat="43.43096" lon="6.04275">
        <ele>313.20001220703</ele>
        <time>2016-06-15T13:20:18Z</time>
      </trkpt>
      <trkpt lat="43.43097" lon="6.04281">
        <ele>313</ele>
        <time>2016-06-15T13:20:19Z</time>
      </trkpt>
      <trkpt lat="43.43098" lon="6.04313">
        <ele>312</ele>
        <time>2016-06-15T13:20:25Z</time>
      </trkpt>
      <trkpt lat="43.43098" lon="6.04322">
        <ele>311.60000610352</ele>
        <time>2016-06-15T13:20:27Z</time>
      </trkpt>
      <trkpt lat="43.43098" lon="6.04333">
        <ele>311</ele>
        <time>2016-06-15T13:20:29Z</time>
      </trkpt>
      <trkpt lat="43.43097" lon="6.04359">
        <ele>309.79998779297</ele>
        <time>2016-06-15T13:20:34Z</time>
      </trkpt>
      <trkpt lat="43.43092" lon="6.04374">
        <ele>309</ele>
        <time>2016-06-15T13:20:38Z</time>
      </trkpt>
      <trkpt lat="43.43089" lon="6.04378">
        <ele>308.79998779297</ele>
        <time>2016-06-15T13:20:39Z</time>
      </trkpt>
      <trkpt lat="43.43082" lon="6.04391">
        <ele>308.39999389648</ele>
        <time>2016-06-15T13:20:42Z</time>
      </trkpt>
      <trkpt lat="43.43078" lon="6.04404">
        <ele>308</ele>
        <time>2016-06-15T13:20:44Z</time>
      </trkpt>
      <trkpt lat="43.43076" lon="6.04411">
        <ele>307.79998779297</ele>
        <time>2016-06-15T13:20:45Z</time>
      </trkpt>
      <trkpt lat="43.43075" lon="6.04419">
        <ele>307.60000610352</ele>
        <time>2016-06-15T13:20:46Z</time>
      </trkpt>
      <trkpt lat="43.43072" lon="6.04434">
        <ele>307</ele>
        <time>2016-06-15T13:20:48Z</time>
      </trkpt>
      <trkpt lat="43.4307" lon="6.04441">
        <ele>307</ele>
        <time>2016-06-15T13:20:49Z</time>
      </trkpt>
      <trkpt lat="43.43067" lon="6.04447">
        <ele>306.60000610352</ele>
        <time>2016-06-15T13:20:50Z</time>
      </trkpt>
      <trkpt lat="43.43065" lon="6.04454">
        <ele>306.39999389648</ele>
        <time>2016-06-15T13:20:51Z</time>
      </trkpt>
      <trkpt lat="43.43061" lon="6.04475">
        <ele>305.60000610352</ele>
        <time>2016-06-15T13:20:54Z</time>
      </trkpt>
      <trkpt lat="43.43054" lon="6.04511">
        <ele>304.60000610352</ele>
        <time>2016-06-15T13:20:59Z</time>
      </trkpt>
      <trkpt lat="43.43043" lon="6.04566">
        <ele>303.39999389648</ele>
        <time>2016-06-15T13:21:07Z</time>
      </trkpt>
      <trkpt lat="43.43041" lon="6.04578">
        <ele>302.79998779297</ele>
        <time>2016-06-15T13:21:09Z</time>
      </trkpt>
      <trkpt lat="43.4304" lon="6.04588">
        <ele>302.20001220703</ele>
        <time>2016-06-15T13:21:11Z</time>
      </trkpt>
      <trkpt lat="43.4304" lon="6.04613">
        <ele>301.20001220703</ele>
        <time>2016-06-15T13:21:17Z</time>
      </trkpt>
      <trkpt lat="43.43044" lon="6.04625">
        <ele>301.20001220703</ele>
        <time>2016-06-15T13:21:19Z</time>
      </trkpt>
      <trkpt lat="43.43052" lon="6.0465">
        <ele>301</ele>
        <time>2016-06-15T13:21:23Z</time>
      </trkpt>
      <trkpt lat="43.43052" lon="6.04663">
        <ele>300.60000610352</ele>
        <time>2016-06-15T13:21:25Z</time>
      </trkpt>
      <trkpt lat="43.43055" lon="6.04687">
        <ele>300.20001220703</ele>
        <time>2016-06-15T13:21:29Z</time>
      </trkpt>
      <trkpt lat="43.43054" lon="6.04709">
        <ele>299.39999389648</ele>
        <time>2016-06-15T13:21:33Z</time>
      </trkpt>
      <trkpt lat="43.4305" lon="6.04721">
        <ele>298.60000610352</ele>
        <time>2016-06-15T13:21:35Z</time>
      </trkpt>
      <trkpt lat="43.43045" lon="6.0473">
        <ele>298</ele>
        <time>2016-06-15T13:21:37Z</time>
      </trkpt>
      <trkpt lat="43.4304" lon="6.04739">
        <ele>297.60000610352</ele>
        <time>2016-06-15T13:21:39Z</time>
      </trkpt>
      <trkpt lat="43.43036" lon="6.04746">
        <ele>296.79998779297</ele>
        <time>2016-06-15T13:21:41Z</time>
      </trkpt>
      <trkpt lat="43.43032" lon="6.04756">
        <ele>295.79998779297</ele>
        <time>2016-06-15T13:21:44Z</time>
      </trkpt>
      <trkpt lat="43.43026" lon="6.04772">
        <ele>295.20001220703</ele>
        <time>2016-06-15T13:21:49Z</time>
      </trkpt>
      <trkpt lat="43.43021" lon="6.04776">
        <ele>295.79998779297</ele>
        <time>2016-06-15T13:21:54Z</time>
      </trkpt>
      <trkpt lat="43.43018" lon="6.04778">
        <ele>296.39999389648</ele>
        <time>2016-06-15T13:21:57Z</time>
      </trkpt>
      <trkpt lat="43.43018" lon="6.04779">
        <ele>297.20001220703</ele>
        <time>2016-06-15T13:21:59Z</time>
      </trkpt>
      <trkpt lat="43.43018" lon="6.0478">
        <ele>297.79998779297</ele>
        <time>2016-06-15T13:22:02Z</time>
      </trkpt>
      <trkpt lat="43.43017" lon="6.04782">
        <ele>298.20001220703</ele>
        <time>2016-06-15T13:22:06Z</time>
      </trkpt>
      <trkpt lat="43.43015" lon="6.04784">
        <ele>298.60000610352</ele>
        <time>2016-06-15T13:22:09Z</time>
      </trkpt>
      <trkpt lat="43.43013" lon="6.04786">
        <ele>299.39999389648</ele>
        <time>2016-06-15T13:22:13Z</time>
      </trkpt>
      <trkpt lat="43.43009" lon="6.04788">
        <ele>300.20001220703</ele>
        <time>2016-06-15T13:22:19Z</time>
      </trkpt>
      <trkpt lat="43.43009" lon="6.04788">
        <ele>300.39999389648</ele>
        <time>2016-06-15T13:22:21Z</time>
      </trkpt>
      <trkpt lat="43.43003" lon="6.04791">
        <ele>301.39999389648</ele>
        <time>2016-06-15T13:22:30Z</time>
      </trkpt>
      <trkpt lat="43.42999" lon="6.04795">
        <ele>302.20001220703</ele>
        <time>2016-06-15T13:22:39Z</time>
      </trkpt>
      <trkpt lat="43.42996" lon="6.048">
        <ele>302.39999389648</ele>
        <time>2016-06-15T13:22:48Z</time>
      </trkpt>
      <trkpt lat="43.42996" lon="6.048">
        <ele>302.60000610352</ele>
        <time>2016-06-15T13:22:49Z</time>
      </trkpt>
      <trkpt lat="43.42995" lon="6.04803">
        <ele>302.79998779297</ele>
        <time>2016-06-15T13:22:59Z</time>
      </trkpt>
      <trkpt lat="43.42992" lon="6.04808">
        <ele>303</ele>
        <time>2016-06-15T13:23:03Z</time>
      </trkpt>
      <trkpt lat="43.42989" lon="6.0482">
        <ele>303.20001220703</ele>
        <time>2016-06-15T13:23:09Z</time>
      </trkpt>
      <trkpt lat="43.42987" lon="6.04829">
        <ele>303.39999389648</ele>
        <time>2016-06-15T13:23:14Z</time>
      </trkpt>
      <trkpt lat="43.42984" lon="6.04834">
        <ele>304.20001220703</ele>
        <time>2016-06-15T13:23:17Z</time>
      </trkpt>
      <trkpt lat="43.42983" lon="6.04838">
        <ele>304.79998779297</ele>
        <time>2016-06-15T13:23:19Z</time>
      </trkpt>
      <trkpt lat="43.4298" lon="6.04842">
        <ele>305.39999389648</ele>
        <time>2016-06-15T13:23:22Z</time>
      </trkpt>
      <trkpt lat="43.42979" lon="6.04843">
        <ele>305.79998779297</ele>
        <time>2016-06-15T13:23:23Z</time>
      </trkpt>
      <trkpt lat="43.42976" lon="6.04844">
        <ele>306.60000610352</ele>
        <time>2016-06-15T13:23:26Z</time>
      </trkpt>
      <trkpt lat="43.42976" lon="6.04844">
        <ele>306.79998779297</ele>
        <time>2016-06-15T13:23:27Z</time>
      </trkpt>
      <trkpt lat="43.42974" lon="6.04845">
        <ele>307</ele>
        <time>2016-06-15T13:23:29Z</time>
      </trkpt>
      <trkpt lat="43.42969" lon="6.04848">
        <ele>307.79998779297</ele>
        <time>2016-06-15T13:23:36Z</time>
      </trkpt>
      <trkpt lat="43.42968" lon="6.04849">
        <ele>308.20001220703</ele>
        <time>2016-06-15T13:23:39Z</time>
      </trkpt>
      <trkpt lat="43.42967" lon="6.04851">
        <ele>308.60000610352</ele>
        <time>2016-06-15T13:23:43Z</time>
      </trkpt>
      <trkpt lat="43.42966" lon="6.04853">
        <ele>309</ele>
        <time>2016-06-15T13:23:45Z</time>
      </trkpt>
      <trkpt lat="43.42962" lon="6.04858">
        <ele>310</ele>
        <time>2016-06-15T13:23:54Z</time>
      </trkpt>
      <trkpt lat="43.42959" lon="6.0486">
        <ele>310.39999389648</ele>
        <time>2016-06-15T13:23:59Z</time>
      </trkpt>
      <trkpt lat="43.42956" lon="6.04861">
        <ele>311.20001220703</ele>
        <time>2016-06-15T13:24:05Z</time>
      </trkpt>
      <trkpt lat="43.42953" lon="6.04863">
        <ele>311.60000610352</ele>
        <time>2016-06-15T13:24:09Z</time>
      </trkpt>
      <trkpt lat="43.42947" lon="6.04867">
        <ele>312.39999389648</ele>
        <time>2016-06-15T13:24:19Z</time>
      </trkpt>
      <trkpt lat="43.42944" lon="6.0487">
        <ele>312.79998779297</ele>
        <time>2016-06-15T13:24:25Z</time>
      </trkpt>
      <trkpt lat="43.42941" lon="6.04873">
        <ele>313</ele>
        <time>2016-06-15T13:24:29Z</time>
      </trkpt>
      <trkpt lat="43.42941" lon="6.04873">
        <ele>313.39999389648</ele>
        <time>2016-06-15T13:24:34Z</time>
      </trkpt>
      <trkpt lat="43.42941" lon="6.04873">
        <ele>313.39999389648</ele>
        <time>2016-06-15T13:24:39Z</time>
      </trkpt>
      <trkpt lat="43.42937" lon="6.04878">
        <ele>313.39999389648</ele>
        <time>2016-06-15T13:24:46Z</time>
      </trkpt>
      <trkpt lat="43.42935" lon="6.04881">
        <ele>313.79998779297</ele>
        <time>2016-06-15T13:24:49Z</time>
      </trkpt>
      <trkpt lat="43.42933" lon="6.04885">
        <ele>314.39999389648</ele>
        <time>2016-06-15T13:24:52Z</time>
      </trkpt>
      <trkpt lat="43.42933" lon="6.04887">
        <ele>314.60000610352</ele>
        <time>2016-06-15T13:24:53Z</time>
      </trkpt>
      <trkpt lat="43.42933" lon="6.04894">
        <ele>315.39999389648</ele>
        <time>2016-06-15T13:24:57Z</time>
      </trkpt>
      <trkpt lat="43.42933" lon="6.04904">
        <ele>316.60000610352</ele>
        <time>2016-06-15T13:25:03Z</time>
      </trkpt>
      <trkpt lat="43.42933" lon="6.0491">
        <ele>317</ele>
        <time>2016-06-15T13:25:09Z</time>
      </trkpt>
      <trkpt lat="43.42933" lon="6.04917">
        <ele>317.39999389648</ele>
        <time>2016-06-15T13:25:19Z</time>
      </trkpt>
      <trkpt lat="43.42932" lon="6.04934">
        <ele>317.79998779297</ele>
        <time>2016-06-15T13:25:26Z</time>
      </trkpt>
      <trkpt lat="43.42931" lon="6.04941">
        <ele>318.20001220703</ele>
        <time>2016-06-15T13:25:29Z</time>
      </trkpt>
      <trkpt lat="43.42929" lon="6.04964">
        <ele>318.60000610352</ele>
        <time>2016-06-15T13:25:38Z</time>
      </trkpt>
      <trkpt lat="43.42929" lon="6.04967">
        <ele>318.79998779297</ele>
        <time>2016-06-15T13:25:39Z</time>
      </trkpt>
      <trkpt lat="43.42925" lon="6.04999">
        <ele>319.39999389648</ele>
        <time>2016-06-15T13:25:49Z</time>
      </trkpt>
      <trkpt lat="43.42923" lon="6.05022">
        <ele>319.79998779297</ele>
        <time>2016-06-15T13:25:55Z</time>
      </trkpt>
      <trkpt lat="43.42922" lon="6.05038">
        <ele>320.39999389648</ele>
        <time>2016-06-15T13:25:59Z</time>
      </trkpt>
      <trkpt lat="43.42919" lon="6.0507">
        <ele>321</ele>
        <time>2016-06-15T13:26:07Z</time>
      </trkpt>
      <trkpt lat="43.42918" lon="6.05078">
        <ele>321</ele>
        <time>2016-06-15T13:26:09Z</time>
      </trkpt>
      <trkpt lat="43.42913" lon="6.05114">
        <ele>321.20001220703</ele>
        <time>2016-06-15T13:26:19Z</time>
      </trkpt>
      <trkpt lat="43.4291" lon="6.05134">
        <ele>322</ele>
        <time>2016-06-15T13:26:25Z</time>
      </trkpt>
      <trkpt lat="43.42907" lon="6.05146">
        <ele>322.60000610352</ele>
        <time>2016-06-15T13:26:29Z</time>
      </trkpt>
      <trkpt lat="43.42905" lon="6.05159">
        <ele>323</ele>
        <time>2016-06-15T13:26:33Z</time>
      </trkpt>
      <trkpt lat="43.42904" lon="6.05178">
        <ele>323.79998779297</ele>
        <time>2016-06-15T13:26:39Z</time>
      </trkpt>
      <trkpt lat="43.42899" lon="6.05212">
        <ele>324.60000610352</ele>
        <time>2016-06-15T13:26:49Z</time>
      </trkpt>
      <trkpt lat="43.42895" lon="6.05245">
        <ele>324.79998779297</ele>
        <time>2016-06-15T13:26:58Z</time>
      </trkpt>
      <trkpt lat="43.42895" lon="6.05249">
        <ele>324.79998779297</ele>
        <time>2016-06-15T13:26:59Z</time>
      </trkpt>
      <trkpt lat="43.42892" lon="6.05274">
        <ele>325</ele>
        <time>2016-06-15T13:27:06Z</time>
      </trkpt>
      <trkpt lat="43.42889" lon="6.05303">
        <ele>325</ele>
        <time>2016-06-15T13:27:14Z</time>
      </trkpt>
      <trkpt lat="43.42887" lon="6.05323">
        <ele>324.79998779297</ele>
        <time>2016-06-15T13:27:19Z</time>
      </trkpt>
      <trkpt lat="43.42885" lon="6.05337">
        <ele>324.39999389648</ele>
        <time>2016-06-15T13:27:22Z</time>
      </trkpt>
      <trkpt lat="43.42883" lon="6.05353">
        <ele>324</ele>
        <time>2016-06-15T13:27:25Z</time>
      </trkpt>
      <trkpt lat="43.4288" lon="6.05376">
        <ele>323.60000610352</ele>
        <time>2016-06-15T13:27:29Z</time>
      </trkpt>
      <trkpt lat="43.42878" lon="6.05394">
        <ele>322.79998779297</ele>
        <time>2016-06-15T13:27:32Z</time>
      </trkpt>
      <trkpt lat="43.42878" lon="6.05415">
        <ele>322.39999389648</ele>
        <time>2016-06-15T13:27:35Z</time>
      </trkpt>
      <trkpt lat="43.42877" lon="6.05421">
        <ele>322.20001220703</ele>
        <time>2016-06-15T13:27:36Z</time>
      </trkpt>
      <trkpt lat="43.42875" lon="6.05434">
        <ele>321.60000610352</ele>
        <time>2016-06-15T13:27:38Z</time>
      </trkpt>
      <trkpt lat="43.4287" lon="6.05464">
        <ele>320.39999389648</ele>
        <time>2016-06-15T13:27:43Z</time>
      </trkpt>
      <trkpt lat="43.42867" lon="6.05497">
        <ele>320</ele>
        <time>2016-06-15T13:27:49Z</time>
      </trkpt>
      <trkpt lat="43.42865" lon="6.05514">
        <ele>319.60000610352</ele>
        <time>2016-06-15T13:27:53Z</time>
      </trkpt>
      <trkpt lat="43.42861" lon="6.05539">
        <ele>319.79998779297</ele>
        <time>2016-06-15T13:27:59Z</time>
      </trkpt>
      <trkpt lat="43.42857" lon="6.05558">
        <ele>319.39999389648</ele>
        <time>2016-06-15T13:28:03Z</time>
      </trkpt>
      <trkpt lat="43.42854" lon="6.05584">
        <ele>319.39999389648</ele>
        <time>2016-06-15T13:28:09Z</time>
      </trkpt>
      <trkpt lat="43.42849" lon="6.05628">
        <ele>320</ele>
        <time>2016-06-15T13:28:19Z</time>
      </trkpt>
      <trkpt lat="43.42844" lon="6.05663">
        <ele>320.20001220703</ele>
        <time>2016-06-15T13:28:28Z</time>
      </trkpt>
      <trkpt lat="43.42843" lon="6.05671">
        <ele>320.39999389648</ele>
        <time>2016-06-15T13:28:30Z</time>
      </trkpt>
      <trkpt lat="43.4284" lon="6.05709">
        <ele>320.79998779297</ele>
        <time>2016-06-15T13:28:39Z</time>
      </trkpt>
      <trkpt lat="43.42836" lon="6.05725">
        <ele>320.60000610352</ele>
        <time>2016-06-15T13:28:44Z</time>
      </trkpt>
      <trkpt lat="43.42828" lon="6.05732">
        <ele>320.20001220703</ele>
        <time>2016-06-15T13:28:49Z</time>
      </trkpt>
      <trkpt lat="43.42821" lon="6.05734">
        <ele>320.20001220703</ele>
        <time>2016-06-15T13:28:52Z</time>
      </trkpt>
      <trkpt lat="43.42813" lon="6.05737">
        <ele>320.20001220703</ele>
        <time>2016-06-15T13:28:55Z</time>
      </trkpt>
      <trkpt lat="43.42805" lon="6.05743">
        <ele>320.39999389648</ele>
        <time>2016-06-15T13:28:59Z</time>
      </trkpt>
      <trkpt lat="43.42797" lon="6.05741">
        <ele>320.39999389648</ele>
        <time>2016-06-15T13:29:02Z</time>
      </trkpt>
      <trkpt lat="43.42792" lon="6.05736">
        <ele>320.20001220703</ele>
        <time>2016-06-15T13:29:05Z</time>
      </trkpt>
      <trkpt lat="43.42785" lon="6.05734">
        <ele>319.79998779297</ele>
        <time>2016-06-15T13:29:08Z</time>
      </trkpt>
      <trkpt lat="43.42783" lon="6.05732">
        <ele>319.79998779297</ele>
        <time>2016-06-15T13:29:09Z</time>
      </trkpt>
      <trkpt lat="43.42772" lon="6.05728">
        <ele>319.39999389648</ele>
        <time>2016-06-15T13:29:12Z</time>
      </trkpt>
      <trkpt lat="43.42755" lon="6.0574">
        <ele>319.20001220703</ele>
        <time>2016-06-15T13:29:18Z</time>
      </trkpt>
      <trkpt lat="43.42751" lon="6.0574">
        <ele>319.20001220703</ele>
        <time>2016-06-15T13:29:19Z</time>
      </trkpt>
      <trkpt lat="43.42715" lon="6.05734">
        <ele>318.39999389648</ele>
        <time>2016-06-15T13:29:28Z</time>
      </trkpt>
      <trkpt lat="43.42712" lon="6.05734">
        <ele>318.20001220703</ele>
        <time>2016-06-15T13:29:29Z</time>
      </trkpt>
      <trkpt lat="43.42697" lon="6.05731">
        <ele>317.79998779297</ele>
        <time>2016-06-15T13:29:34Z</time>
      </trkpt>
      <trkpt lat="43.42697" lon="6.05727">
        <ele>317.20001220703</ele>
        <time>2016-06-15T13:29:37Z</time>
      </trkpt>
      <trkpt lat="43.42698" lon="6.05722">
        <ele>316.79998779297</ele>
        <time>2016-06-15T13:29:39Z</time>
      </trkpt>
      <trkpt lat="43.42703" lon="6.05706">
        <ele>316</ele>
        <time>2016-06-15T13:29:44Z</time>
      </trkpt>
      <trkpt lat="43.42706" lon="6.05692">
        <ele>314.79998779297</ele>
        <time>2016-06-15T13:29:48Z</time>
      </trkpt>
      <trkpt lat="43.42707" lon="6.05688">
        <ele>314.20001220703</ele>
        <time>2016-06-15T13:29:49Z</time>
      </trkpt>
      <trkpt lat="43.42709" lon="6.05685">
        <ele>313.79998779297</ele>
        <time>2016-06-15T13:29:50Z</time>
      </trkpt>
      <trkpt lat="43.42717" lon="6.05676">
        <ele>312.60000610352</ele>
        <time>2016-06-15T13:29:53Z</time>
      </trkpt>
      <trkpt lat="43.42722" lon="6.05668">
        <ele>311.39999389648</ele>
        <time>2016-06-15T13:29:56Z</time>
      </trkpt>
      <trkpt lat="43.42725" lon="6.05661">
        <ele>310.60000610352</ele>
        <time>2016-06-15T13:29:59Z</time>
      </trkpt>
      <trkpt lat="43.42725" lon="6.05659">
        <ele>310.20001220703</ele>
        <time>2016-06-15T13:30:00Z</time>
      </trkpt>
      <trkpt lat="43.42744" lon="6.05633">
        <ele>309.20001220703</ele>
        <time>2016-06-15T13:30:08Z</time>
      </trkpt>
      <trkpt lat="43.42746" lon="6.05629">
        <ele>309</ele>
        <time>2016-06-15T13:30:09Z</time>
      </trkpt>
      <trkpt lat="43.42751" lon="6.05614">
        <ele>308</ele>
        <time>2016-06-15T13:30:13Z</time>
      </trkpt>
      <trkpt lat="43.42754" lon="6.05599">
        <ele>306.79998779297</ele>
        <time>2016-06-15T13:30:18Z</time>
      </trkpt>
      <trkpt lat="43.42754" lon="6.05595">
        <ele>306.60000610352</ele>
        <time>2016-06-15T13:30:19Z</time>
      </trkpt>
      <trkpt lat="43.42751" lon="6.0558">
        <ele>305.39999389648</ele>
        <time>2016-06-15T13:30:23Z</time>
      </trkpt>
      <trkpt lat="43.42741" lon="6.0557">
        <ele>304.20001220703</ele>
        <time>2016-06-15T13:30:26Z</time>
      </trkpt>
      <trkpt lat="43.42736" lon="6.05557">
        <ele>303.20001220703</ele>
        <time>2016-06-15T13:30:29Z</time>
      </trkpt>
      <trkpt lat="43.42731" lon="6.05539">
        <ele>302.20001220703</ele>
        <time>2016-06-15T13:30:33Z</time>
      </trkpt>
      <trkpt lat="43.42729" lon="6.05518">
        <ele>301</ele>
        <time>2016-06-15T13:30:37Z</time>
      </trkpt>
      <trkpt lat="43.42728" lon="6.05512">
        <ele>300.60000610352</ele>
        <time>2016-06-15T13:30:38Z</time>
      </trkpt>
      <trkpt lat="43.42727" lon="6.05506">
        <ele>300.39999389648</ele>
        <time>2016-06-15T13:30:39Z</time>
      </trkpt>
      <trkpt lat="43.42726" lon="6.05496">
        <ele>299.79998779297</ele>
        <time>2016-06-15T13:30:41Z</time>
      </trkpt>
      <trkpt lat="43.42724" lon="6.05477">
        <ele>298.79998779297</ele>
        <time>2016-06-15T13:30:45Z</time>
      </trkpt>
      <trkpt lat="43.42728" lon="6.05458">
        <ele>297.79998779297</ele>
        <time>2016-06-15T13:30:49Z</time>
      </trkpt>
      <trkpt lat="43.4273" lon="6.05455">
        <ele>297.39999389648</ele>
        <time>2016-06-15T13:30:50Z</time>
      </trkpt>
      <trkpt lat="43.42733" lon="6.05446">
        <ele>296.60000610352</ele>
        <time>2016-06-15T13:30:53Z</time>
      </trkpt>
      <trkpt lat="43.42731" lon="6.05437">
        <ele>296.39999389648</ele>
        <time>2016-06-15T13:30:56Z</time>
      </trkpt>
      <trkpt lat="43.42728" lon="6.05423">
        <ele>296</ele>
        <time>2016-06-15T13:30:59Z</time>
      </trkpt>
      <trkpt lat="43.42725" lon="6.05412">
        <ele>295.20001220703</ele>
        <time>2016-06-15T13:31:02Z</time>
      </trkpt>
      <trkpt lat="43.4272" lon="6.05392">
        <ele>294</ele>
        <time>2016-06-15T13:31:08Z</time>
      </trkpt>
      <trkpt lat="43.42719" lon="6.05388">
        <ele>293.79998779297</ele>
        <time>2016-06-15T13:31:09Z</time>
      </trkpt>
      <trkpt lat="43.4272" lon="6.05381">
        <ele>293</ele>
        <time>2016-06-15T13:31:11Z</time>
      </trkpt>
      <trkpt lat="43.42722" lon="6.05357">
        <ele>292</ele>
        <time>2016-06-15T13:31:16Z</time>
      </trkpt>
      <trkpt lat="43.42719" lon="6.05344">
        <ele>290.79998779297</ele>
        <time>2016-06-15T13:31:19Z</time>
      </trkpt>
      <trkpt lat="43.42708" lon="6.05342">
        <ele>289.60000610352</ele>
        <time>2016-06-15T13:31:23Z</time>
      </trkpt>
      <trkpt lat="43.42686" lon="6.05338">
        <ele>289</ele>
        <time>2016-06-15T13:31:29Z</time>
      </trkpt>
      <trkpt lat="43.4268" lon="6.05333">
        <ele>288.60000610352</ele>
        <time>2016-06-15T13:31:31Z</time>
      </trkpt>
      <trkpt lat="43.42671" lon="6.05323">
        <ele>287.60000610352</ele>
        <time>2016-06-15T13:31:36Z</time>
      </trkpt>
      <trkpt lat="43.42666" lon="6.05315">
        <ele>287</ele>
        <time>2016-06-15T13:31:39Z</time>
      </trkpt>
      <trkpt lat="43.42653" lon="6.05293">
        <ele>285.39999389648</ele>
        <time>2016-06-15T13:31:46Z</time>
      </trkpt>
      <trkpt lat="43.42648" lon="6.05284">
        <ele>285</ele>
        <time>2016-06-15T13:31:48Z</time>
      </trkpt>
      <trkpt lat="43.42633" lon="6.05268">
        <ele>284.20001220703</ele>
        <time>2016-06-15T13:31:53Z</time>
      </trkpt>
      <trkpt lat="43.42631" lon="6.05264">
        <ele>282.60000610352</ele>
        <time>2016-06-15T13:31:54Z</time>
      </trkpt>
      <trkpt lat="43.42617" lon="6.05253">
        <ele>281.60000610352</ele>
        <time>2016-06-15T13:31:58Z</time>
      </trkpt>
      <trkpt lat="43.42613" lon="6.0525">
        <ele>280.79998779297</ele>
        <time>2016-06-15T13:31:59Z</time>
      </trkpt>
      <trkpt lat="43.42605" lon="6.05243">
        <ele>281</ele>
        <time>2016-06-15T13:32:01Z</time>
      </trkpt>
      <trkpt lat="43.42582" lon="6.05224">
        <ele>280.20001220703</ele>
        <time>2016-06-15T13:32:08Z</time>
      </trkpt>
      <trkpt lat="43.4257" lon="6.05216">
        <ele>279.79998779297</ele>
        <time>2016-06-15T13:32:12Z</time>
      </trkpt>
      <trkpt lat="43.42553" lon="6.05214">
        <ele>280</ele>
        <time>2016-06-15T13:32:18Z</time>
      </trkpt>
      <trkpt lat="43.42546" lon="6.05216">
        <ele>279.60000610352</ele>
        <time>2016-06-15T13:32:20Z</time>
      </trkpt>
      <trkpt lat="43.42529" lon="6.0522">
        <ele>278.39999389648</ele>
        <time>2016-06-15T13:32:25Z</time>
      </trkpt>
      <trkpt lat="43.42518" lon="6.05222">
        <ele>277.39999389648</ele>
        <time>2016-06-15T13:32:28Z</time>
      </trkpt>
      <trkpt lat="43.42515" lon="6.05221">
        <ele>277.39999389648</ele>
        <time>2016-06-15T13:32:29Z</time>
      </trkpt>
      <trkpt lat="43.42501" lon="6.05219">
        <ele>277</ele>
        <time>2016-06-15T13:32:33Z</time>
      </trkpt>
      <trkpt lat="43.42485" lon="6.0521">
        <ele>277</ele>
        <time>2016-06-15T13:32:38Z</time>
      </trkpt>
      <trkpt lat="43.42454" lon="6.05209">
        <ele>277</ele>
        <time>2016-06-15T13:32:47Z</time>
      </trkpt>
      <trkpt lat="43.42444" lon="6.05213">
        <ele>276.39999389648</ele>
        <time>2016-06-15T13:32:49Z</time>
      </trkpt>
      <trkpt lat="43.42427" lon="6.05219">
        <ele>275.20001220703</ele>
        <time>2016-06-15T13:32:52Z</time>
      </trkpt>
      <trkpt lat="43.42413" lon="6.0522">
        <ele>274</ele>
        <time>2016-06-15T13:32:55Z</time>
      </trkpt>
      <trkpt lat="43.42408" lon="6.05217">
        <ele>273.20001220703</ele>
        <time>2016-06-15T13:32:57Z</time>
      </trkpt>
      <trkpt lat="43.42406" lon="6.05215">
        <ele>273.20001220703</ele>
        <time>2016-06-15T13:32:58Z</time>
      </trkpt>
      <trkpt lat="43.42405" lon="6.05213">
        <ele>273</ele>
        <time>2016-06-15T13:32:59Z</time>
      </trkpt>
      <trkpt lat="43.42403" lon="6.05211">
        <ele>273.20001220703</ele>
        <time>2016-06-15T13:33:01Z</time>
      </trkpt>
      <trkpt lat="43.424" lon="6.05207">
        <ele>273.60000610352</ele>
        <time>2016-06-15T13:33:04Z</time>
      </trkpt>
      <trkpt lat="43.42396" lon="6.0521">
        <ele>273.20001220703</ele>
        <time>2016-06-15T13:33:08Z</time>
      </trkpt>
      <trkpt lat="43.42395" lon="6.05212">
        <ele>272.79998779297</ele>
        <time>2016-06-15T13:33:10Z</time>
      </trkpt>
      <trkpt lat="43.42384" lon="6.05222">
        <ele>272.20001220703</ele>
        <time>2016-06-15T13:33:15Z</time>
      </trkpt>
      <trkpt lat="43.42374" lon="6.05222">
        <ele>272</ele>
        <time>2016-06-15T13:33:18Z</time>
      </trkpt>
      <trkpt lat="43.42371" lon="6.05222">
        <ele>271.79998779297</ele>
        <time>2016-06-15T13:33:19Z</time>
      </trkpt>
      <trkpt lat="43.42366" lon="6.05223">
        <ele>271.60000610352</ele>
        <time>2016-06-15T13:33:20Z</time>
      </trkpt>
      <trkpt lat="43.42346" lon="6.05228">
        <ele>270.79998779297</ele>
        <time>2016-06-15T13:33:24Z</time>
      </trkpt>
      <trkpt lat="43.42342" lon="6.05228">
        <ele>270.39999389648</ele>
        <time>2016-06-15T13:33:25Z</time>
      </trkpt>
      <trkpt lat="43.42333" lon="6.05226">
        <ele>269.79998779297</ele>
        <time>2016-06-15T13:33:27Z</time>
      </trkpt>
      <trkpt lat="43.42318" lon="6.05221">
        <ele>269.20001220703</ele>
        <time>2016-06-15T13:33:30Z</time>
      </trkpt>
      <trkpt lat="43.423" lon="6.05218">
        <ele>268</ele>
        <time>2016-06-15T13:33:33Z</time>
      </trkpt>
      <trkpt lat="43.42281" lon="6.05212">
        <ele>266.60000610352</ele>
        <time>2016-06-15T13:33:36Z</time>
      </trkpt>
      <trkpt lat="43.42269" lon="6.0521">
        <ele>266.20001220703</ele>
        <time>2016-06-15T13:33:38Z</time>
      </trkpt>
      <trkpt lat="43.42257" lon="6.0521">
        <ele>265.60000610352</ele>
        <time>2016-06-15T13:33:40Z</time>
      </trkpt>
      <trkpt lat="43.42235" lon="6.05209">
        <ele>264.60000610352</ele>
        <time>2016-06-15T13:33:44Z</time>
      </trkpt>
      <trkpt lat="43.4223" lon="6.05206">
        <ele>264.20001220703</ele>
        <time>2016-06-15T13:33:45Z</time>
      </trkpt>
      <trkpt lat="43.42226" lon="6.05202">
        <ele>263.79998779297</ele>
        <time>2016-06-15T13:33:46Z</time>
      </trkpt>
      <trkpt lat="43.42218" lon="6.05192">
        <ele>263</ele>
        <time>2016-06-15T13:33:48Z</time>
      </trkpt>
      <trkpt lat="43.42214" lon="6.05189">
        <ele>262.79998779297</ele>
        <time>2016-06-15T13:33:49Z</time>
      </trkpt>
      <trkpt lat="43.42209" lon="6.05186">
        <ele>262.60000610352</ele>
        <time>2016-06-15T13:33:50Z</time>
      </trkpt>
      <trkpt lat="43.42186" lon="6.05173">
        <ele>261.79998779297</ele>
        <time>2016-06-15T13:33:54Z</time>
      </trkpt>
      <trkpt lat="43.42165" lon="6.0516">
        <ele>260.60000610352</ele>
        <time>2016-06-15T13:33:58Z</time>
      </trkpt>
      <trkpt lat="43.42155" lon="6.05153">
        <ele>260.20001220703</ele>
        <time>2016-06-15T13:34:00Z</time>
      </trkpt>
      <trkpt lat="43.42146" lon="6.05146">
        <ele>259.79998779297</ele>
        <time>2016-06-15T13:34:02Z</time>
      </trkpt>
      <trkpt lat="43.42142" lon="6.05142">
        <ele>259.60000610352</ele>
        <time>2016-06-15T13:34:03Z</time>
      </trkpt>
      <trkpt lat="43.4213" lon="6.05124">
        <ele>258.39999389648</ele>
        <time>2016-06-15T13:34:10Z</time>
      </trkpt>
      <trkpt lat="43.4213" lon="6.05125">
        <ele>257.79998779297</ele>
        <time>2016-06-15T13:34:18Z</time>
      </trkpt>
      <trkpt lat="43.4213" lon="6.05125">
        <ele>257.79998779297</ele>
        <time>2016-06-15T13:34:20Z</time>
      </trkpt>
      <trkpt lat="43.42131" lon="6.05127">
        <ele>257.79998779297</ele>
        <time>2016-06-15T13:34:40Z</time>
      </trkpt>
      <trkpt lat="43.42131" lon="6.05127">
        <ele>257.79998779297</ele>
        <time>2016-06-15T13:34:50Z</time>
      </trkpt>
      <trkpt lat="43.42131" lon="6.05126">
        <ele>257.79998779297</ele>
        <time>2016-06-15T13:34:54Z</time>
      </trkpt>
      <trkpt lat="43.4213" lon="6.05125">
        <ele>257.79998779297</ele>
        <time>2016-06-15T13:35:10Z</time>
      </trkpt>
      <trkpt lat="43.4213" lon="6.05124">
        <ele>257.79998779297</ele>
        <time>2016-06-15T13:35:20Z</time>
      </trkpt>
      <trkpt lat="43.42131" lon="6.05124">
        <ele>257.79998779297</ele>
        <time>2016-06-15T13:35:30Z</time>
      </trkpt>
      <trkpt lat="43.4213" lon="6.05123">
        <ele>257.79998779297</ele>
        <time>2016-06-15T13:35:32Z</time>
      </trkpt>
      <trkpt lat="43.4212" lon="6.05114">
        <ele>257.20001220703</ele>
        <time>2016-06-15T13:35:37Z</time>
      </trkpt>
      <trkpt lat="43.4211" lon="6.05112">
        <ele>257</ele>
        <time>2016-06-15T13:35:40Z</time>
      </trkpt>
      <trkpt lat="43.42078" lon="6.05109">
        <ele>256.20001220703</ele>
        <time>2016-06-15T13:35:46Z</time>
      </trkpt>
      <trkpt lat="43.42054" lon="6.0511">
        <ele>255.19999694824</ele>
        <time>2016-06-15T13:35:50Z</time>
      </trkpt>
      <trkpt lat="43.42019" lon="6.05117">
        <ele>254</ele>
        <time>2016-06-15T13:35:55Z</time>
      </trkpt>
      <trkpt lat="43.41988" lon="6.05126">
        <ele>253.39999389648</ele>
        <time>2016-06-15T13:36:00Z</time>
      </trkpt>
      <trkpt lat="43.41969" lon="6.05129">
        <ele>253</ele>
        <time>2016-06-15T13:36:03Z</time>
      </trkpt>
      <trkpt lat="43.41963" lon="6.05131">
        <ele>252.80000305176</ele>
        <time>2016-06-15T13:36:04Z</time>
      </trkpt>
      <trkpt lat="43.41946" lon="6.0514">
        <ele>251.60000610352</ele>
        <time>2016-06-15T13:36:07Z</time>
      </trkpt>
      <trkpt lat="43.41941" lon="6.05144">
        <ele>251.19999694824</ele>
        <time>2016-06-15T13:36:08Z</time>
      </trkpt>
      <trkpt lat="43.41936" lon="6.05153">
        <ele>250.39999389648</ele>
        <time>2016-06-15T13:36:10Z</time>
      </trkpt>
      <trkpt lat="43.41934" lon="6.05169">
        <ele>250.19999694824</ele>
        <time>2016-06-15T13:36:13Z</time>
      </trkpt>
      <trkpt lat="43.41935" lon="6.05179">
        <ele>250.60000610352</ele>
        <time>2016-06-15T13:36:15Z</time>
      </trkpt>
      <trkpt lat="43.41935" lon="6.05183">
        <ele>250.80000305176</ele>
        <time>2016-06-15T13:36:16Z</time>
      </trkpt>
      <trkpt lat="43.41936" lon="6.05193">
        <ele>251.19999694824</ele>
        <time>2016-06-15T13:36:18Z</time>
      </trkpt>
      <trkpt lat="43.41937" lon="6.0521">
        <ele>252.60000610352</ele>
        <time>2016-06-15T13:36:22Z</time>
      </trkpt>
      <trkpt lat="43.41938" lon="6.05215">
        <ele>252.80000305176</ele>
        <time>2016-06-15T13:36:23Z</time>
      </trkpt>
      <trkpt lat="43.4194" lon="6.05239">
        <ele>253.80000305176</ele>
        <time>2016-06-15T13:36:28Z</time>
      </trkpt>
      <trkpt lat="43.41941" lon="6.05249">
        <ele>254</ele>
        <time>2016-06-15T13:36:30Z</time>
      </trkpt>
      <trkpt lat="43.41945" lon="6.05262">
        <ele>254.80000305176</ele>
        <time>2016-06-15T13:36:33Z</time>
      </trkpt>
      <trkpt lat="43.41953" lon="6.0529">
        <ele>256.39999389648</ele>
        <time>2016-06-15T13:36:40Z</time>
      </trkpt>
      <trkpt lat="43.41956" lon="6.05305">
        <ele>257.20001220703</ele>
        <time>2016-06-15T13:36:44Z</time>
      </trkpt>
      <trkpt lat="43.41961" lon="6.05328">
        <ele>258.20001220703</ele>
        <time>2016-06-15T13:36:50Z</time>
      </trkpt>
      <trkpt lat="43.41966" lon="6.05351">
        <ele>259.39999389648</ele>
        <time>2016-06-15T13:36:56Z</time>
      </trkpt>
      <trkpt lat="43.4197" lon="6.05367">
        <ele>259.79998779297</ele>
        <time>2016-06-15T13:37:00Z</time>
      </trkpt>
      <trkpt lat="43.41978" lon="6.054">
        <ele>261.39999389648</ele>
        <time>2016-06-15T13:37:10Z</time>
      </trkpt>
      <trkpt lat="43.41979" lon="6.05407">
        <ele>261.60000610352</ele>
        <time>2016-06-15T13:37:12Z</time>
      </trkpt>
      <trkpt lat="43.41986" lon="6.05434">
        <ele>262.79998779297</ele>
        <time>2016-06-15T13:37:20Z</time>
      </trkpt>
      <trkpt lat="43.41992" lon="6.05454">
        <ele>263.79998779297</ele>
        <time>2016-06-15T13:37:26Z</time>
      </trkpt>
      <trkpt lat="43.41995" lon="6.05467">
        <ele>264.60000610352</ele>
        <time>2016-06-15T13:37:30Z</time>
      </trkpt>
      <trkpt lat="43.41999" lon="6.05488">
        <ele>265</ele>
        <time>2016-06-15T13:37:36Z</time>
      </trkpt>
      <trkpt lat="43.42002" lon="6.05505">
        <ele>264.79998779297</ele>
        <time>2016-06-15T13:37:40Z</time>
      </trkpt>
      <trkpt lat="43.42003" lon="6.05521">
        <ele>264.60000610352</ele>
        <time>2016-06-15T13:37:43Z</time>
      </trkpt>
      <trkpt lat="43.42006" lon="6.05541">
        <ele>264</ele>
        <time>2016-06-15T13:37:46Z</time>
      </trkpt>
      <trkpt lat="43.42007" lon="6.05549">
        <ele>263.79998779297</ele>
        <time>2016-06-15T13:37:47Z</time>
      </trkpt>
      <trkpt lat="43.42012" lon="6.05577">
        <ele>263.20001220703</ele>
        <time>2016-06-15T13:37:50Z</time>
      </trkpt>
      <trkpt lat="43.42015" lon="6.05597">
        <ele>262.60000610352</ele>
        <time>2016-06-15T13:37:52Z</time>
      </trkpt>
      <trkpt lat="43.42021" lon="6.0563">
        <ele>261.39999389648</ele>
        <time>2016-06-15T13:37:55Z</time>
      </trkpt>
      <trkpt lat="43.42026" lon="6.05654">
        <ele>260.39999389648</ele>
        <time>2016-06-15T13:37:57Z</time>
      </trkpt>
      <trkpt lat="43.42031" lon="6.05679">
        <ele>259.60000610352</ele>
        <time>2016-06-15T13:37:59Z</time>
      </trkpt>
      <trkpt lat="43.42033" lon="6.05691">
        <ele>259.20001220703</ele>
        <time>2016-06-15T13:38:00Z</time>
      </trkpt>
      <trkpt lat="43.42039" lon="6.05727">
        <ele>257.79998779297</ele>
        <time>2016-06-15T13:38:03Z</time>
      </trkpt>
      <trkpt lat="43.42043" lon="6.05749">
        <ele>257.20001220703</ele>
        <time>2016-06-15T13:38:05Z</time>
      </trkpt>
      <trkpt lat="43.42051" lon="6.05792">
        <ele>257</ele>
        <time>2016-06-15T13:38:10Z</time>
      </trkpt>
      <trkpt lat="43.42057" lon="6.05816">
        <ele>257.39999389648</ele>
        <time>2016-06-15T13:38:13Z</time>
      </trkpt>
      <trkpt lat="43.4206" lon="6.05831">
        <ele>257.60000610352</ele>
        <time>2016-06-15T13:38:15Z</time>
      </trkpt>
      <trkpt lat="43.42063" lon="6.05844">
        <ele>257.79998779297</ele>
        <time>2016-06-15T13:38:17Z</time>
      </trkpt>
      <trkpt lat="43.42067" lon="6.05861">
        <ele>258.39999389648</ele>
        <time>2016-06-15T13:38:20Z</time>
      </trkpt>
      <trkpt lat="43.42069" lon="6.05871">
        <ele>258.79998779297</ele>
        <time>2016-06-15T13:38:22Z</time>
      </trkpt>
      <trkpt lat="43.42075" lon="6.05898">
        <ele>260</ele>
        <time>2016-06-15T13:38:27Z</time>
      </trkpt>
      <trkpt lat="43.42079" lon="6.05914">
        <ele>260.39999389648</ele>
        <time>2016-06-15T13:38:30Z</time>
      </trkpt>
      <trkpt lat="43.4209" lon="6.05952">
        <ele>260.60000610352</ele>
        <time>2016-06-15T13:38:37Z</time>
      </trkpt>
      <trkpt lat="43.42095" lon="6.05972">
        <ele>261</ele>
        <time>2016-06-15T13:38:41Z</time>
      </trkpt>
      <trkpt lat="43.42107" lon="6.06021">
        <ele>261.20001220703</ele>
        <time>2016-06-15T13:38:50Z</time>
      </trkpt>
      <trkpt lat="43.42117" lon="6.06087">
        <ele>261</ele>
        <time>2016-06-15T13:39:00Z</time>
      </trkpt>
      <trkpt lat="43.42122" lon="6.06115">
        <ele>260.39999389648</ele>
        <time>2016-06-15T13:39:03Z</time>
      </trkpt>
      <trkpt lat="43.42123" lon="6.06125">
        <ele>260</ele>
        <time>2016-06-15T13:39:04Z</time>
      </trkpt>
      <trkpt lat="43.42131" lon="6.06153">
        <ele>258.79998779297</ele>
        <time>2016-06-15T13:39:07Z</time>
      </trkpt>
      <trkpt lat="43.42138" lon="6.06174">
        <ele>258.39999389648</ele>
        <time>2016-06-15T13:39:10Z</time>
      </trkpt>
      <trkpt lat="43.42147" lon="6.06206">
        <ele>259</ele>
        <time>2016-06-15T13:39:18Z</time>
      </trkpt>
      <trkpt lat="43.42146" lon="6.06212">
        <ele>259.20001220703</ele>
        <time>2016-06-15T13:39:20Z</time>
      </trkpt>
      <trkpt lat="43.42145" lon="6.06217">
        <ele>259.20001220703</ele>
        <time>2016-06-15T13:39:22Z</time>
      </trkpt>
      <trkpt lat="43.42133" lon="6.06223">
        <ele>259.20001220703</ele>
        <time>2016-06-15T13:39:27Z</time>
      </trkpt>
      <trkpt lat="43.42121" lon="6.06227">
        <ele>259</ele>
        <time>2016-06-15T13:39:30Z</time>
      </trkpt>
      <trkpt lat="43.42102" lon="6.06234">
        <ele>258.20001220703</ele>
        <time>2016-06-15T13:39:34Z</time>
      </trkpt>
      <trkpt lat="43.42096" lon="6.06237">
        <ele>257.79998779297</ele>
        <time>2016-06-15T13:39:35Z</time>
      </trkpt>
      <trkpt lat="43.42069" lon="6.06246">
        <ele>256.39999389648</ele>
        <time>2016-06-15T13:39:39Z</time>
      </trkpt>
      <trkpt lat="43.42061" lon="6.06249">
        <ele>255.80000305176</ele>
        <time>2016-06-15T13:39:40Z</time>
      </trkpt>
      <trkpt lat="43.42053" lon="6.06252">
        <ele>255</ele>
        <time>2016-06-15T13:39:41Z</time>
      </trkpt>
      <trkpt lat="43.42036" lon="6.06257">
        <ele>253.39999389648</ele>
        <time>2016-06-15T13:39:43Z</time>
      </trkpt>
      <trkpt lat="43.42027" lon="6.0626">
        <ele>252.39999389648</ele>
        <time>2016-06-15T13:39:44Z</time>
      </trkpt>
      <trkpt lat="43.42007" lon="6.06266">
        <ele>250.39999389648</ele>
        <time>2016-06-15T13:39:46Z</time>
      </trkpt>
      <trkpt lat="43.41987" lon="6.06273">
        <ele>248.60000610352</ele>
        <time>2016-06-15T13:39:48Z</time>
      </trkpt>
      <trkpt lat="43.4197" lon="6.06278">
        <ele>246.60000610352</ele>
        <time>2016-06-15T13:39:50Z</time>
      </trkpt>
      <trkpt lat="43.41961" lon="6.06281">
        <ele>245.39999389648</ele>
        <time>2016-06-15T13:39:51Z</time>
      </trkpt>
      <trkpt lat="43.41946" lon="6.06286">
        <ele>243.19999694824</ele>
        <time>2016-06-15T13:39:53Z</time>
      </trkpt>
      <trkpt lat="43.41933" lon="6.06291">
        <ele>241.80000305176</ele>
        <time>2016-06-15T13:39:55Z</time>
      </trkpt>
      <trkpt lat="43.41916" lon="6.06295">
        <ele>240.39999389648</ele>
        <time>2016-06-15T13:39:58Z</time>
      </trkpt>
      <trkpt lat="43.41906" lon="6.06297">
        <ele>239.80000305176</ele>
        <time>2016-06-15T13:40:00Z</time>
      </trkpt>
      <trkpt lat="43.419" lon="6.06297">
        <ele>239.19999694824</ele>
        <time>2016-06-15T13:40:01Z</time>
      </trkpt>
      <trkpt lat="43.41881" lon="6.06295">
        <ele>238.19999694824</ele>
        <time>2016-06-15T13:40:04Z</time>
      </trkpt>
      <trkpt lat="43.41851" lon="6.06293">
        <ele>236.80000305176</ele>
        <time>2016-06-15T13:40:08Z</time>
      </trkpt>
      <trkpt lat="43.41835" lon="6.06293">
        <ele>235.60000610352</ele>
        <time>2016-06-15T13:40:10Z</time>
      </trkpt>
      <trkpt lat="43.41813" lon="6.06291">
        <ele>234.19999694824</ele>
        <time>2016-06-15T13:40:13Z</time>
      </trkpt>
      <trkpt lat="43.41799" lon="6.06284">
        <ele>233.39999389648</ele>
        <time>2016-06-15T13:40:15Z</time>
      </trkpt>
      <trkpt lat="43.41793" lon="6.06278">
        <ele>233.19999694824</ele>
        <time>2016-06-15T13:40:16Z</time>
      </trkpt>
      <trkpt lat="43.41774" lon="6.06259">
        <ele>232.39999389648</ele>
        <time>2016-06-15T13:40:19Z</time>
      </trkpt>
      <trkpt lat="43.4176" lon="6.06251">
        <ele>231.39999389648</ele>
        <time>2016-06-15T13:40:21Z</time>
      </trkpt>
      <trkpt lat="43.41753" lon="6.06249">
        <ele>231</ele>
        <time>2016-06-15T13:40:22Z</time>
      </trkpt>
      <trkpt lat="43.41729" lon="6.06245">
        <ele>229.60000610352</ele>
        <time>2016-06-15T13:40:25Z</time>
      </trkpt>
      <trkpt lat="43.41689" lon="6.06245">
        <ele>228.60000610352</ele>
        <time>2016-06-15T13:40:30Z</time>
      </trkpt>
      <trkpt lat="43.41682" lon="6.06245">
        <ele>228.39999389648</ele>
        <time>2016-06-15T13:40:31Z</time>
      </trkpt>
      <trkpt lat="43.41639" lon="6.06233">
        <ele>227.39999389648</ele>
        <time>2016-06-15T13:40:38Z</time>
      </trkpt>
      <trkpt lat="43.41632" lon="6.06228">
        <ele>226.80000305176</ele>
        <time>2016-06-15T13:40:40Z</time>
      </trkpt>
      <trkpt lat="43.41626" lon="6.06226">
        <ele>226.39999389648</ele>
        <time>2016-06-15T13:40:42Z</time>
      </trkpt>
      <trkpt lat="43.4161" lon="6.0623">
        <ele>225.39999389648</ele>
        <time>2016-06-15T13:40:49Z</time>
      </trkpt>
      <trkpt lat="43.41609" lon="6.06229">
        <ele>225.19999694824</ele>
        <time>2016-06-15T13:40:50Z</time>
      </trkpt>
      <trkpt lat="43.41603" lon="6.06233">
        <ele>224.80000305176</ele>
        <time>2016-06-15T13:40:56Z</time>
      </trkpt>
      <trkpt lat="43.41602" lon="6.06245">
        <ele>224.60000610352</ele>
        <time>2016-06-15T13:41:00Z</time>
      </trkpt>
      <trkpt lat="43.41598" lon="6.06256">
        <ele>224.60000610352</ele>
        <time>2016-06-15T13:41:04Z</time>
      </trkpt>
      <trkpt lat="43.41585" lon="6.0627">
        <ele>224.39999389648</ele>
        <time>2016-06-15T13:41:10Z</time>
      </trkpt>
      <trkpt lat="43.41584" lon="6.06274">
        <ele>224.39999389648</ele>
        <time>2016-06-15T13:41:11Z</time>
      </trkpt>
      <trkpt lat="43.41583" lon="6.0628">
        <ele>224.19999694824</ele>
        <time>2016-06-15T13:41:12Z</time>
      </trkpt>
      <trkpt lat="43.41584" lon="6.06303">
        <ele>223.80000305176</ele>
        <time>2016-06-15T13:41:16Z</time>
      </trkpt>
      <trkpt lat="43.41581" lon="6.06315">
        <ele>223.60000610352</ele>
        <time>2016-06-15T13:41:18Z</time>
      </trkpt>
      <trkpt lat="43.41575" lon="6.06325">
        <ele>223.39999389648</ele>
        <time>2016-06-15T13:41:20Z</time>
      </trkpt>
      <trkpt lat="43.41571" lon="6.06331">
        <ele>223</ele>
        <time>2016-06-15T13:41:21Z</time>
      </trkpt>
      <trkpt lat="43.4156" lon="6.0635">
        <ele>222.19999694824</ele>
        <time>2016-06-15T13:41:24Z</time>
      </trkpt>
      <trkpt lat="43.41557" lon="6.06358">
        <ele>222</ele>
        <time>2016-06-15T13:41:25Z</time>
      </trkpt>
      <trkpt lat="43.41555" lon="6.06366">
        <ele>221.60000610352</ele>
        <time>2016-06-15T13:41:26Z</time>
      </trkpt>
      <trkpt lat="43.4155" lon="6.06396">
        <ele>221.19999694824</ele>
        <time>2016-06-15T13:41:29Z</time>
      </trkpt>
      <trkpt lat="43.41548" lon="6.06406">
        <ele>220.80000305176</ele>
        <time>2016-06-15T13:41:30Z</time>
      </trkpt>
      <trkpt lat="43.41543" lon="6.06434">
        <ele>219.39999389648</ele>
        <time>2016-06-15T13:41:33Z</time>
      </trkpt>
      <trkpt lat="43.41542" lon="6.06448">
        <ele>217.80000305176</ele>
        <time>2016-06-15T13:41:35Z</time>
      </trkpt>
      <trkpt lat="43.41541" lon="6.0646">
        <ele>216.60000610352</ele>
        <time>2016-06-15T13:41:38Z</time>
      </trkpt>
      <trkpt lat="43.4154" lon="6.06462">
        <ele>216.39999389648</ele>
        <time>2016-06-15T13:41:40Z</time>
      </trkpt>
      <trkpt lat="43.41539" lon="6.06463">
        <ele>216.19999694824</ele>
        <time>2016-06-15T13:41:41Z</time>
      </trkpt>
      <trkpt lat="43.41534" lon="6.06467">
        <ele>215.80000305176</ele>
        <time>2016-06-15T13:41:43Z</time>
      </trkpt>
      <trkpt lat="43.41531" lon="6.06472">
        <ele>215.39999389648</ele>
        <time>2016-06-15T13:41:44Z</time>
      </trkpt>
      <trkpt lat="43.4153" lon="6.06477">
        <ele>215</ele>
        <time>2016-06-15T13:41:45Z</time>
      </trkpt>
      <trkpt lat="43.41529" lon="6.06489">
        <ele>214.60000610352</ele>
        <time>2016-06-15T13:41:47Z</time>
      </trkpt>
      <trkpt lat="43.41527" lon="6.06494">
        <ele>214.39999389648</ele>
        <time>2016-06-15T13:41:48Z</time>
      </trkpt>
      <trkpt lat="43.41524" lon="6.06504">
        <ele>214.39999389648</ele>
        <time>2016-06-15T13:41:50Z</time>
      </trkpt>
      <trkpt lat="43.41521" lon="6.06519">
        <ele>215</ele>
        <time>2016-06-15T13:41:53Z</time>
      </trkpt>
      <trkpt lat="43.41518" lon="6.06543">
        <ele>215.39999389648</ele>
        <time>2016-06-15T13:41:57Z</time>
      </trkpt>
      <trkpt lat="43.41514" lon="6.06564">
        <ele>215.39999389648</ele>
        <time>2016-06-15T13:42:00Z</time>
      </trkpt>
      <trkpt lat="43.41509" lon="6.06608">
        <ele>215</ele>
        <time>2016-06-15T13:42:06Z</time>
      </trkpt>
      <trkpt lat="43.41505" lon="6.06638">
        <ele>214.80000305176</ele>
        <time>2016-06-15T13:42:10Z</time>
      </trkpt>
      <trkpt lat="43.41496" lon="6.06717">
        <ele>214.60000610352</ele>
        <time>2016-06-15T13:42:20Z</time>
      </trkpt>
      <trkpt lat="43.41496" lon="6.06734">
        <ele>214.39999389648</ele>
        <time>2016-06-15T13:42:22Z</time>
      </trkpt>
      <trkpt lat="43.41488" lon="6.06792">
        <ele>213.19999694824</ele>
        <time>2016-06-15T13:42:29Z</time>
      </trkpt>
      <trkpt lat="43.41486" lon="6.068">
        <ele>212.80000305176</ele>
        <time>2016-06-15T13:42:30Z</time>
      </trkpt>
      <trkpt lat="43.4148" lon="6.06823">
        <ele>212.19999694824</ele>
        <time>2016-06-15T13:42:33Z</time>
      </trkpt>
      <trkpt lat="43.41478" lon="6.06829">
        <ele>212</ele>
        <time>2016-06-15T13:42:34Z</time>
      </trkpt>
      <trkpt lat="43.41476" lon="6.06836">
        <ele>211.80000305176</ele>
        <time>2016-06-15T13:42:35Z</time>
      </trkpt>
      <trkpt lat="43.41474" lon="6.0686">
        <ele>211.60000610352</ele>
        <time>2016-06-15T13:42:39Z</time>
      </trkpt>
      <trkpt lat="43.41475" lon="6.06865">
        <ele>211.60000610352</ele>
        <time>2016-06-15T13:42:40Z</time>
      </trkpt>
      <trkpt lat="43.41476" lon="6.06877">
        <ele>211.60000610352</ele>
        <time>2016-06-15T13:42:42Z</time>
      </trkpt>
      <trkpt lat="43.41475" lon="6.0689">
        <ele>211.60000610352</ele>
        <time>2016-06-15T13:42:44Z</time>
      </trkpt>
      <trkpt lat="43.41476" lon="6.06903">
        <ele>211.60000610352</ele>
        <time>2016-06-15T13:42:46Z</time>
      </trkpt>
      <trkpt lat="43.4147" lon="6.0692">
        <ele>211.60000610352</ele>
        <time>2016-06-15T13:42:50Z</time>
      </trkpt>
      <trkpt lat="43.4147" lon="6.0693">
        <ele>211.39999389648</ele>
        <time>2016-06-15T13:42:53Z</time>
      </trkpt>
      <trkpt lat="43.41479" lon="6.06943">
        <ele>211</ele>
        <time>2016-06-15T13:42:57Z</time>
      </trkpt>
      <trkpt lat="43.41489" lon="6.06951">
        <ele>210.80000305176</ele>
        <time>2016-06-15T13:43:00Z</time>
      </trkpt>
      <trkpt lat="43.41499" lon="6.06965">
        <ele>210.80000305176</ele>
        <time>2016-06-15T13:43:05Z</time>
      </trkpt>
      <trkpt lat="43.41501" lon="6.06966">
        <ele>210.80000305176</ele>
        <time>2016-06-15T13:43:06Z</time>
      </trkpt>
      <trkpt lat="43.4151" lon="6.06972">
        <ele>210.80000305176</ele>
        <time>2016-06-15T13:43:10Z</time>
      </trkpt>
      <trkpt lat="43.41537" lon="6.06971">
        <ele>211</ele>
        <time>2016-06-15T13:43:17Z</time>
      </trkpt>
      <trkpt lat="43.41546" lon="6.0697">
        <ele>211</ele>
        <time>2016-06-15T13:43:19Z</time>
      </trkpt>
      <trkpt lat="43.4155" lon="6.06969">
        <ele>211.19999694824</ele>
        <time>2016-06-15T13:43:20Z</time>
      </trkpt>
      <trkpt lat="43.41554" lon="6.06967">
        <ele>211.19999694824</ele>
        <time>2016-06-15T13:43:21Z</time>
      </trkpt>
      <trkpt lat="43.41571" lon="6.06964">
        <ele>211.80000305176</ele>
        <time>2016-06-15T13:43:26Z</time>
      </trkpt>
      <trkpt lat="43.41574" lon="6.06977">
        <ele>211.80000305176</ele>
        <time>2016-06-15T13:43:30Z</time>
      </trkpt>
      <trkpt lat="43.41578" lon="6.07014">
        <ele>211.80000305176</ele>
        <time>2016-06-15T13:43:39Z</time>
      </trkpt>
      <trkpt lat="43.41579" lon="6.07017">
        <ele>211.80000305176</ele>
        <time>2016-06-15T13:43:40Z</time>
      </trkpt>
      <trkpt lat="43.41579" lon="6.07029">
        <ele>211.80000305176</ele>
        <time>2016-06-15T13:43:44Z</time>
      </trkpt>
      <trkpt lat="43.41579" lon="6.07036">
        <ele>211.60000610352</ele>
        <time>2016-06-15T13:43:50Z</time>
      </trkpt>
      <trkpt lat="43.41579" lon="6.07037">
        <ele>211.39999389648</ele>
        <time>2016-06-15T13:43:58Z</time>
      </trkpt>
      <trkpt lat="43.41579" lon="6.07037">
        <ele>211.60000610352</ele>
        <time>2016-06-15T13:44:17Z</time>
      </trkpt>
    </trkseg>
  </trk>
</gpx>